14710EC00D, 2368230020, 8121160151, 2312742002, 1192606J01

Cписок запчастей

«« « 200 201 202 203 204 205 206 207 208 » »»

Toyota

Номер Цена, $ Название Номер Цена, $ Название Номер Цена, $ Название Номер Цена, $ Название
61132AC010 75.59$ НАКЛАДКА ПОРОГА 1770574460 48.31$ CAP SUB-ASSY, AIR CLEANER 6113336010 287.32$ PILLAR, FRONT BODY, LOWER OUTER RH 1770574480 27.04$ CAP SUB-ASSY, AIR CLEANER
6113436020 287.32$ КУЗОВА СТОЙКА 1770574510 27.25$ CAP SUB-ASSY, AIR CLEANER 6113437010 4.77$ BRACKET, FRONT BODY PILLAR OUTER, LH 1770575130 27.14$ CAP SUB-ASSY, AIR CLEANER
6113550010 52.55$ REINFORCEMENT, FRONT BODY PILLAR, UPPER RH 1770575240 24.05$ CAP SUB-ASSY, AIR CLEANER 6113930020 0.90$ BRACKET, FRONT BODY PILLAR OUTER 6114130170 12.03$ EXTENSION, FRONT PILLAR, UPPER INNER RH
1770575280 99.25$ CAP SUB-ASSY, AIR CLEANER 6114150030 8.86$ EXTENSION, FRONT PILLAR, UPPER INNER RH 6114150040 8.84$ EXTENSION, FRONT PILLAR, UPPER INNER RH 1770575310 23.31$ КРЫШКА ВОЗДУШНОГО ФИЛЬТРА
6114153011 8.63$ EXTENSION, FRONT PILLAR, UPPER INNER RH 6114153020 10.66$ EXTENSION, FRONT PILLAR, UPPER INNER RH 6114230170 12.53$ EXTENSION, FRONT PILLAR, UPPER INNER LH 6114250030 8.86$ EXTENSION, FRONT PILLAR, UPPER INNER LH
17705AD010 50.99$ КОРПУС ВОЗДУШНОГО ФИЛЬТРА 6114250040 8.84$ EXTENSION, FRONT PILLAR, UPPER INNER LH 6114253011 8.63$ EXTENSION, FRONT PILLAR, UPPER INNER LH 1770638011 94.61$ CAP SUB-ASSY, AIR CLEANER, LH
6114253020 10.98$ EXTENSION, FRONT PILLAR, UPPER INNER LH 1770638021 166.34$ CAP SUB-ASSY, AIR CLEANER, LH 1770654030 15.55$ STAY, AIR CLEANER, NO.1 6114353020 9.38$ GUSSET, FRONT BODY PILLAR, UPPER INNER RH
1770990B01 72.50$ INLET SUB-ASSY, AIR CLEANER 6114436020 10.14$ STRENGTH, SIDE PANEL, NO.3 UPPER LH 1771013020 120.26$ CLEANER ASSY, AIR 6114453020 9.38$ GUSSET, FRONT BODY PILLAR, UPPER INNER LH
1771054341 220.31$ CLEANER ASSY, AIR 6114524010 29.63$ КУЗОВНАЯ ПАНЕЛЬ 1771054510 224.56$ CLEANER ASSY, AIR 1772810010 25.46$ КЛАПАН ВОДЯНОГО НАСОСА
6114533020 18.45$ GUSSET, FRONT BODY PILLAR, LOWER RH 1772811020 27.85$ ДАТЧИК ТЕМПЕРАТУРЫ 6114533030 20.91$ GUSSET, FRONT BODY PILLAR, LOWER RH 6114533040 26.14$ GUSSET, FRONT BODY PILLAR, LOWER RH
1772813050 28.52$ VALVE, THERMOSTATIC 6114533060 30.03$ КРОНШТЕЙН КУЗОВНОЙ 1772813060 28.52$ VALVE, THERMOSTATIC 1772815080 25.46$ VALVE, THERMOSTATIC
6114548040 23.59$ GUSSET, FRONT BODY PILLAR, LOWER RH 1772816020 26.72$ VALVE, THERMOSTATIC 6114550020 20.12$ GUSSET, FRONT BODY PILLAR, LOWER RH 1772841030 26.30$ VALVE SUB-ASSY, THERMOSTATIC(FOR AIR CLEANER)
1772871010 28.96$ VALVE, THERMOSTATIC 6114553010 26.14$ GUSSET, FRONT BODY PILLAR, LOWER RH 1773011010 55.48$ PRECLEANER ASSY, AIR W/HOSE 6114553020 21.72$ GUSSET, FRONT BODY PILLAR, LOWER RH
1773011011 73.44$ PRECLEANER ASSY, AIR W/HOSE 61145AC020 18.99$ GUSSET, FRONT BODY PILLAR, LOWER RH 1773011031 54.61$ PRECLEANER ASSY, AIR W/HOSE 6114624010 29.63$ КУЗОВНАЯ ПАНЕЛЬ
1773011040 54.50$ PRECLEANER ASSY, AIR W/HOSE 6114630060 12.98$ GUSSET, FRONT BODY PILLAR, LOWER LH 6114633020 18.45$ GUSSET, FRONT BODY PILLAR, LOWER LH 1773011060 50.99$ PRECLEANER ASSY, AIR W/HOSE
1773011070 54.71$ PRECLEANER ASSY, AIR W/HOSE 6114633040 26.14$ GUSSET, FRONT BODY PILLAR, LOWER LH 1773011080 46.95$ PRECLEANER ASSY, AIR W/HOSE 6114633060 30.03$ GUSSET, FRONT BODY PILLAR, LOWER LH
6114648040 23.59$ GUSSET, FRONT BODY PILLAR, LOWER LH 6114653010 26.14$ КУЗОВНАЯ ПАНЕЛЬ 6114690B00 91.18$ PANEL, FRONT SIDE END, LH 61146AC020 18.99$ GUSSET, FRONT BODY PILLAR, LOWER LH
6114710010 7.87$ EXTENSION, FRONT BODY PILLAR, OUTER RH 1773035010 71.14$ PRECLEANER ASSY, AIR W/HOSE 6114753011 12.63$ EXTENSION, FRONT BODY PILLAR, UPPER OUTER RH 1773035020 77.95$ PRECLEANER ASSY, AIR W/HOSE
6114810010 7.87$ EXTENSION, FRONT BODY PILLAR, UPPER OUTER LH 1773035030 68.77$ PRECLEANER ASSY, AIR W/HOSE 6114853011 12.63$ EXTENSION, FRONT BODY PILLAR, UPPER OUTER LH 1773043010 48.22$ PRECLEANER ASSY, AIR W/HOSE
6116110090 80.31$ PILLAR, FRONT BODY, UPPER INNER RH 1773056020 63.96$ PRECLEANER ASSY, AIR W/HOSE 6116120060 17.90$ PILLAR, FRONT BODY, INNER RH 6116130210 52.02$ PILLAR, FRONT BODY, UPPER INNER RH
6116130240 88.02$ PILLAR, FRONT BODY, UPPER INNER RH 6116130282 82.98$ PILLAR, FRONT BODY, UPPER INNER RH 6116150030 95.45$ PILLAR, FRONT BODY, UPPER INNER RH 1773074020 37.30$ PRECLEANER ASSY, AIR W/HOSE
6116150040 82.98$ PILLAR, FRONT BODY, UPPER INNER RH 1773074030 45.99$ PRECLEANER ASSY, AIR W/HOSE 6116150050 81.45$ PILLAR, FRONT BODY, INNER RH 1773616040 45.87$ CASE, PRECLEANER
6116153030 75.47$ PILLAR, FRONT BODY, UPPER INNER RH 1773616050 33.64$ CASE, PRECLEANER 6116189107 23.12$ PILLAR, FRONT BODY, UPPER INNER RH 1773616070 27.57$ CASE, PRECLEANER
6116190A03 29.66$ PILLAR, FRONT BODY, INNER RH 1773616080 40.66$ CASE, PRECLEANER 6116207010 80.20$ PILLAR, FRONT BODY, UPPER INNER LH 1773750010 2.20$ COVER, AIR CLEANER
6116210080 80.31$ PILLAR, FRONT BODY, UPPER INNER LH 1774350010 4.10$ VALVE, DUST RELIEF 6116220060 17.90$ PILLAR, FRONT BODY, INNER LH 6116230282 82.98$ PILLAR, FRONT BODY, UPPER INNER LH
1774416010 11.00$ CUP, PRECLEANER 6116230310 75.47$ PILLAR, FRONT BODY, UPPER INNER LH 6116236902 60.46$ STIFFENER, SIDE PANEL, UPPER NO.1 6116250050 82.27$ PILLAR, FRONT BODY, INNER LH
1775002010 25.87$ INLET, AIR CLEANER, NO.1 6116253023 96.93$ PILLAR, FRONT BODY, UPPER INNER LH 1775003040 16.50$ INLET ASSY, AIR CLEANER 6116253030 75.47$ КУЗОВА СТОЙКА
6116289107 23.12$ PILLAR, FRONT BODY, UPPER INNER LH 177500A020 18.21$ INLET ASSY, AIR CLEANER 6116290A03 29.66$ PILLAR, FRONT BODY, INNER LH 6116522070 7.78$ BRACKET SUB-ASSY, INSTRUMENT PANEL TO COWL SIDE, RH
1775011030 33.22$ INLET, AIR CLEANER, NO.1 6116533010 11.27$ BRACKET SUB-ASSY, INSTRUMENT PANEL TO COWL SIDE, RH 1775011040 13.94$ INLET, AIR CLEANER, NO.1 6116542010 8.54$ BRACKET SUB-ASSY, INSTRUMENT PANEL TO COWL SIDE, RH
6116548020 17.70$ КРОНШТЕЙН КУЗОВНОЙ 6116642020 15.23$ BRACKET SUB-ASSY, INSTRUMENT PANEL TO COWL SIDE, LH 1775020010 21.55$ ПАТРУБОК ПЛАСТИКОВЫЙ 6116690K01 8.37$ BRACKET SUB-ASSY, INSTRUMENT PANEL TO COWL SIDE, LH
1775020030 21.55$ ПАТРУБОК ПЛАСТИКОВЫЙ 6116760060 2.77$ BRACKET, FRONT BODY PILLAR TO COWL TOP, RH 1775020080 26.89$ ПАТРУБОК ПЛАСТИКОВЫЙ 6117330150 12.53$ REINFORCEMENT, FRONT BODY PILLAR, UPPER INNER RH
6117335020 9.90$ REINFORCEMENT, FRONT BODY PILLAR, UPPER INNER 6117350040 10.46$ REINFORCEMENT, FRONT BODY PILLAR, UPPER INNER RH 6117353020 10.98$ REINFORCEMENT, FRONT BODY PILLAR, UPPER INNER RH 6117430150 12.53$ REINFORCEMENT, FRONT BODY PILLAR, UPPER INNER LH
6117450030 10.46$ REINFORCEMENT, FRONT BODY PILLAR, UPPER INNER LH 1775028060 40.59$ INLET ASSY, AIR CLEANER 6117453020 10.98$ REINFORCEMENT, FRONT BODY PILLAR, UPPER INNER LH 6117512080 7.91$ REINFORCEMENT, FRONT BODY PILLAR, INNER NO.2 RH
1775050011 167.67$ БАМПЕРА НАКЛАДКА 6117512150 12.55$ REINFORCEMENT, FRONT PILLAR, UPPER OUTER NO.2 RH 6117552020 9.56$ REINFORCEMENT, FRONT PILLAR, UPPER OUTER NO.2 RH 6117612080 7.91$ REINFORCEMENT, FRONT BODY PILLAR, INNER NO.2 LH
1775064010 19.80$ COVER ASSY, AIR CLEANER INLET, SEAL 6117652020 9.56$ REINFORCE, FRONT BODY PILLAR, UPPER OUT NO.2 LH 1775074010 16.29$ INLET ASSY, AIR CLEANER 6117736010 7.12$ REINFORCEMENT, NO.1 PILLAR, CENTER
1775074030 26.19$ ПАТРУБОК ВОЗДУХОЗАБОРНИКА ПЛАСТИКОВЫЙ 6118130061 13.82$ BRACKET, INSTRUMENT SIDE, RH 6118133010 11.04$ BRACKET, INSTRUMENT SIDE, RH 1775074040 15.97$ INLET ASSY, AIR CLEANER
6118153011 13.82$ BRACKET, INSTRUMENT SIDE, RH 1775074050 16.50$ ПАТРУБОК ВОЗДУХОЗАБОРНИКА ПЛАСТИКОВЫЙ 6118160010 6.25$ BRACKET, INSTRUMENT SIDE, RH 1775074051 16.29$ INLET ASSY, AIR CLEANER
1775074060 16.18$ INLET ASSY, AIR CLEANER 6118237020 8.56$ BRACKET, INSTRUMENT SIDE, LH 6118260030 6.57$ BRACKET, INSTRUMENT SIDE, LH 1775074070 17.99$ INLET ASSY, AIR CLEANER
1775102031 16.61$ INLET, AIR CLEANER, NO.1 6118514010 12.44$ BRACKET, INSTRUMENT PANEL SIDE, NO.3 RH 177510B010 25.55$ INLET, AIR CLEANER, NO.1 6118730020 0.44$ BRACKET, FRONT PILLAR DOOR HINGE COVER, RH/LH
177510D010 24.69$ INLET, AIR CLEANER, NO.1 6118836010 15.55$ REINFORCEMENT, NO.1 PILLAR, LOWER LH 6119136020 38.49$ REINFORCEMENT, SIDE LOWER, RH 177510H030 68.86$ INLET, AIR CLEANER, NO.1
6119136021 33.67$ REINFORCEMENT, SIDE LOWER, RH 177510J030 14.70$ INLET, AIR CLEANER, NO.1 6119350030 7.02$ COVER, FRONT PILLAR SERVICE HOLE 1775111100 16.29$ INLET, AIR CLEANER, NO.1
6119360030 1.92$ COVER, FRONT PILLAR SERVICE HOLE 1775111130 20.76$ INLET, AIR CLEANER, NO.1 6119450020 3.02$ BRACKET, COWL SIDE TRIM, RH 1775115010 35.44$ ПАТРУБОК ПЛАСТИКОВЫЙ
6119550020 3.02$ BRACKET, COWL SIDE TRIM, LH 6119550060 12.38$ COVER, FRONT PILLAR END, RH 6119650030 12.38$ COVER, FRONT PILLAR END, LH 6119790K00 1.45$ COVER, FRONT PILLAR, RH
1775116110 18.96$ ПАТРУБОК ПЛАСТИКОВЫЙ 6120128030 73.98$ RAIL SUB-ASSY, ROOF SIDE, RH 6120128100 94.15$ RAIL SUB-ASSY, ROOF SIDE, RH 6120133901 80.43$ RAIL, ROOF SIDE, OUTER RH
6120148901 109.36$ RAIL SUB-ASSY, ROOF SIDE, RH 6120150010 75.34$ RAIL, ROOF SIDE, INNER RH 1775121020 23.31$ ПАТРУБОК ВОЗДУШНОГО ФИЛЬТРА ПЛАСТИКОВЫЙ 6120152040 76.55$ RAIL SUB-ASSY, ROOF SIDE, RH
6120195J00 119.01$ RAIL, ROOF SIDE, OUTER RH 6120248901 109.36$ RAIL SUB-ASSY, ROOF SIDE, LH 6120252030 76.55$ RAIL SUB-ASSY, ROOF SIDE, LH 6120333030 61.39$ RAIL SUB-ASSY, ROOF SIDE, INNER RH
6120348010 79.24$ RAIL SUB-ASSY, ROOF SIDE, INNER RH 1775122040 21.73$ INLET, AIR CLEANER, NO.1 6120395J00 62.91$ RAIL, ROOF SIDE, OUTER NO.2 RH 1775122050 11.40$ INLET, AIR CLEANER, NO.1
61203AC010 59.61$ RAIL SUB-ASSY, ROOF SIDE, INNER RH 6120433010 54.68$ RAIL SUB-ASSY, ROOF SIDE, INNER LH 6120433030 61.39$ RAIL SUB-ASSY, ROOF SIDE, INNER LH 6120448010 79.24$ RAIL SUB-ASSY, ROOF SIDE, INNER LH
61204AC010 59.61$ RAIL SUB-ASSY, ROOF SIDE, INNER LH 6120728020 35.81$ RAIL, ROOF SIDE, INNER NO.2 RH 1775128070 12.78$ ПАТРУБОК ВОЗДУШНОГО ФИЛЬТРА РЕЗИНОВЫЙ 6121105040 31.52$ RAIL, ROOF SIDE, OUTER RH
6121110090 39.56$ RAIL SUB-ASSY, ROOF SIDE, RH 6121112240 25.01$ RAIL, ROOF SIDE, OUTER RH 6121112350 48.57$ RAIL, ROOF SIDE, OUTER RH 6121112410 40.96$ ПАНЕЛЬ КУЗОВА
6121112480 69.48$ RAIL, ROOF SIDE, RH 6121120180 49.79$ RAIL, ROOF SIDE, OUTER RH 1775131160 18.32$ INLET, AIR CLEANER, NO.1 6121120190 53.94$ RAIL, ROOF SIDE, OUTER RH
6121130190 91.56$ RAIL, ROOF SIDE, OUTER RH 6121130230 100.80$ RAIL, ROOF SIDE, OUTER RH 6121130231 88.88$ RAIL, ROOF SIDE, OUTER RH 1775131250 39.00$ INLET, AIR CLEANER, NO.1
1775131260 30.88$ INLET, AIR CLEANER, NO.1 6121132070 39.32$ RAIL, ROOF SIDE, OUTER RH 1775131270 39.00$ INLET, AIR CLEANER, NO.1 1775131280 20.12$ INLET, AIR CLEANER, NO.1
6121133030 95.58$ RAIL, ROOF SIDE, OUTER RH 1775131300 24.36$ INLET, AIR CLEANER, NO.1 6121134010 33.78$ RAIL, ROOF SIDE, OUTER RH 6121135021 66.15$ RAIL, ROOF SIDE, OUTER RH
1775137050 6.05$ INLET, AIR CLEANER, NO.1 1775138020 50.44$ INLET, AIR CLEANER, NO.1 6121142011 25.42$ RAIL, ROOF SIDE, OUTER RH 1775146050 12.10$ INLET, AIR CLEANER, NO.1
6121150010 138.07$ RAIL, ROOF SIDE, OUTER RH 6121150020 95.58$ RAIL, ROOF SIDE, OUTER RH 6121150030 85.66$ RAIL, ROOF SIDE, RH 1775146190 34.33$ INLET, AIR CLEANER, NO.1
6121150060 76.66$ RAIL, ROOF SIDE 1775150120 40.46$ INLET, AIR CLEANER, NO.1 6121160010 42.67$ КУЗОВНОЙ УСИЛИТЕЛЬ 1775155010 21.83$ INLET, AIR CLEANER, NO.1
1775164051 17.77$ INLET, AIR CLEANER, NO.1 1775170020 3.59$ INLET, AIR CLEANER, NO.1 6121187005 14.91$ RAIL, ROOF SIDE, OUTER RH 6121189107 23.91$ RAIL, ROOF SIDE, OUTER RH
1775174040 26.40$ ПАТРУБОК ПЛАСТИКОВЫЙ 1775174050 15.76$ INLET, AIR CLEANER, NO.1 6121189109 45.67$ RAIL, ROOF SIDE, OUTER RH 177520D010 4.91$ INLET, AIR CLEANER, NO.2
6121190K02 54.26$ RAIL, ROOF SIDE, OUTER RH 177520P050 22.47$ INLET, AIR CLEANER, NO.2 61211AA020 39.45$ RAIL, ROOF SIDE, OUTER RH 61211AC020 64.44$ RAIL, ROOF SIDE, OUTER RH
6121205040 31.52$ КУЗОВНОЙ УСИЛИТЕЛЬ 6121207010 51.58$ RAIL, ROOF SIDE, OUTER LH 6121210090 39.56$ RAIL SUB-ASSY, ROOF SIDE, LH 6121212370 27.34$ КУЗОВНОЙ УСИЛИТЕЛЬ
6121212410 40.96$ КУЗОВНОЙ УСИЛИТЕЛЬ 1775231030 15.76$ INLET, AIR CLEANER, NO.2 6121220180 52.32$ RAIL, ROOF SIDE, OUTER LH 6121220190 53.94$ RAIL, ROOF SIDE, OUTER LH
1775231090 16.61$ INLET, AIR CLEANER, NO.2 6121230190 91.56$ RAIL, ROOF SIDE, OUTER LH 1775231110 23.69$ INLET, AIR CLEANER, NO.2 6121230231 88.88$ RAIL, ROOF SIDE, OUTER LH
6121232070 39.32$ RAIL, ROOF SIDE, OUTER LH 1775246060 17.24$ INLET, AIR CLEANER, NO.2 6121233020 71.08$ RAIL, ROOF SIDE, OUTER LH 6121233040 71.08$ RAIL, ROOF SIDE, OUTER LH
6121242011 25.42$ КУЗОВНОЙ УСИЛИТЕЛЬ 1777170010 10.35$ BRACKET, AIR CLEANER INLET DUCT 1777175010 6.43$ BRACKET, AIR CLEANER 6121242030 25.42$ КУЗОВНОЙ УСИЛИТЕЛЬ
1778120020 1.69$ SEAL, AIR CLEANER INLET 1778615010 2.16$ CLAMP(FOR AIR CLEANER HOSE, NO.2) 1779135080 1.47$ PLATE, AIR CLEANER CAUTION (FOR ENGINE MODEL) 6121250010 138.07$ RAIL, ROOF SIDE, OUTER LH
1779162010 1.26$ LABEL, MAINTENANCE INFORMATION 6121250020 95.58$ RAIL, ROOF SIDE, OUTER LH 1779164020 2.46$ LABEL, MAINTENANCE INFORMATION 1779176010 1.20$ LABEL, MAINTENANCE INFORMATION
6121250041 75.34$ RAIL, ROOF SIDE, LH 1779177052 2.64$ PLATE, AIR CLEANER CAUTION (FOR ENGINE MODEL) 1779211502 2.76$ PLATE, ENGINE VACUUM HOSE INFORMATION 1779211512 2.76$ PLATE, ENGINE VACUUM HOSE INFORMATION
1779211651 2.74$ PLATE, ENGINE VACUUM HOSE INFORMATION 1779211654 2.76$ PLATE, ENGINE VACUUM HOSE INFORMATION 1779211710 2.74$ PLATE, ENGINE VACUUM HOSE INFORMATION 1779216560 2.76$ PLATE, ENGINE VACUUM HOSE INFORMATION
6121287007 14.91$ RAIL, ROOF SIDE, OUTER LH 1779216580 2.76$ PLATE, ENGINE VACUUM HOSE INFORMATION 6121289107 23.91$ RAIL, ROOF SIDE, OUTER LH 1779216610 1.42$ PLATE, ENGINE VACUUM HOSE INFORMATION
6121290B00 52.35$ PILLAR, NO.1 OU 1779216670 2.74$ PLATE, ENGINE VACUUM HOSE INFORMATION 1779216680 2.74$ PLATE, ENGINE VACUUM HOSE INFORMATION 6121290K02 54.26$ RAIL, ROOF SIDE, OUTER LH
1779216710 2.76$ PLATE, ENGINE VACUUM HOSE INFORMATION 1779220010 1.76$ НАКЛЕЙКА БУМАЖНАЯ 6121295403 22.63$ RAIL, ROOF SIDE, OUTER LH 1779220030 1.76$ НАКЛЕЙКА БУМАЖНАЯ
61212AA020 39.45$ RAIL, ROOF SIDE, OUTER LH 1779220040 1.43$ НАКЛЕЙКА БУМАЖНАЯ 61212AC020 64.54$ RAIL, ROOF SIDE, OUTER LH 1779220050 2.07$ НАКЛЕЙКА БУМАЖНАЯ
6121333010 15.34$ КУЗОВНОЙ УСИЛИТЕЛЬ 1779220060 2.08$ НАКЛЕЙКА БУМАЖНАЯ 6121333050 49.64$ КУЗОВНОЙ УСИЛИТЕЛЬ 1779220070 1.65$ НАКЛЕЙКА БУМАЖНАЯ
1779220090 2.08$ НАКЛЕЙКА БУМАЖНАЯ 1779220100 2.93$ НАКЛЕЙКА БУМАЖНАЯ 1779220110 2.34$ НАКЛЕЙКА БУМАЖНАЯ 1779220120 2.93$ НАКЛЕЙКА БУМАЖНАЯ
6121348010 37.64$ ПАНЕЛЬ КРЫШИ 1779220130 2.31$ НАКЛЕЙКА БУМАЖНАЯ 6121348020 115.82$ ПАНЕЛЬ КРЫШИ 1779220140 2.93$ НАКЛЕЙКА БУМАЖНАЯ
6121352030 37.53$ УСИЛИТЕЛЬ КРЫШИ 1779220190 1.06$ НАКЛЕЙКА БУМАЖНАЯ 61213AA030 49.10$ RAIL, ROOF SIDE, OUTER NO.2 RH 1779220210 0.84$ НАКЛЕЙКА БУМАЖНАЯ
612140C040 59.61$ RAIL, ROOF SIDE, OUTER NO.2 LH 1779220220 0.84$ НАКЛЕЙКА БУМАЖНАЯ 6121428030 37.53$ RAIL, ROOF SIDE, OUTER NO.2 LH 1779220230 0.84$ НАКЛЕЙКА БУМАЖНАЯ
6121433010 15.34$ RAIL, ROOF SIDE, OUTER REAR LH 6121433050 49.64$ КУЗОВНОЙ УСИЛИТЕЛЬ 1779220280 0.75$ LABEL, ENGINE VACUUM HOSE INFORMATION 1779220290 0.75$ PLATE, ENGINE VACUUM HOSE INFORMATION
1779220300 0.93$ НАКЛЕЙКА БУМАЖНАЯ 6121448020 115.82$ ПАНЕЛЬ КРЫШИ 1779221010 0.85$ PLATE, ENGINE VACUUM HOSE INFORMATION 1779221030 0.84$ PLATE, ENGINE VACUUM HOSE INFORMATION
6121452090 37.64$ КУЗОВА СТОЙКА 1779221040 0.75$ LABEL, ENGINE VACUUM HOSE INFORMATION 6121528040 39.68$ RAIL, ROOF SIDE, OUTER NO.3 RH 6121548010 89.18$ RAIL, ROOF SIDE, OUTER NO.3 RH
1779222010 1.42$ PLATE, ENGINE VACUUM HOSE INFORMATION 6121628020 37.53$ RAIL, ROOF SIDE, OUTER REAR LH 6121628040 39.68$ RAIL, ROOF SIDE, OUTER REAR LH 1779222020 0.50$ PLATE, ENGINE VACUUM HOSE INFORMATION
1779222030 0.50$ PLATE, ENGINE VACUUM HOSE INFORMATION 6121648010 89.18$ RAIL, ROOF SIDE, OUTER NO.3 LH 1779222031 0.43$ PLATE, ENGINE VACUUM HOSE INFORMATION 1779222060 0.43$ НАКЛЕЙКА БУМАЖНАЯ
6122136010 22.84$ PILLAR, NO.1 OUTER, UPPER LH 6122190B00 75.46$ PILLAR, NO.1 OU 1779228180 0.43$ PLATE, ENGINE VACUUM HOSE INFORMATION 6122522010 30.95$ CHANNEL, ROOF DRIP, CENTER RH
6122528010 121.97$ RAIL, ROOF SIDE OUTER UPPER NO.1, RH 1779231170 0.53$ LABEL, ENGINE VACUUM HOSE INFORMATION 6122530011 41.11$ CHANNEL, ROOF DRIP, CENTER RH 1779231190 0.52$ НАКЛЕЙКА ПОДКАПОТНАЯ
6122530030 61.93$ ПАНЕЛЬ КУЗОВА 1779231230 0.93$ LABEL, ENGINE VACUUM HOSE INFORMATION 1779231240 0.41$ LABEL, ENGINE VACUUM HOSE INFORMATION 6122622010 31.52$ CHANNEL, ROOF DRIP, CENTER LH
177923D160 1.67$ PLATE, ENGINE VACUUM HOSE INFORMATION 177923D240 1.91$ PLATE, ENGINE VACUUM HOSE INFORMATION 6122630011 41.11$ CHANNEL, ROOF DRIP, CENTER LH 177923D280 2.76$ PLATE, ENGINE VACUUM HOSE INFORMATION
6122630030 61.93$ RAIL, ROOF SIDE OUTER UPPER NO.1, LH 177923D300 2.76$ PLATE, ENGINE VACUUM HOSE INFORMATION 6122636010 106.15$ ПАНЕЛЬ ДВЕРИ ВНУТРЕННЯЯ 1779246061 2.89$ PLATE, ENGINE VACUUM HOSE INFORMATION
6122650020 72.53$ RAIL, ROOF SIDE OUTER UPPER NO.1, LH 1779246062 2.52$ PLATE, ENGINE VACUUM HOSE INFORMATION 1779246110 0.45$ PLATE, ENGINE VACUUM HOSE INFORMATION 612310K902 65.83$ RAIL, ROOF SIDE, INNER RH
1779250010 3.45$ PLATE, ENGINE VACUUM HOSE INFORMATION 6123110160 34.21$ RAIL, ROOF SIDE, INNER RH 1779250041 2.30$ PLATE, ENGINE VACUUM HOSE INFORMATION 612311A110 62.19$ RAIL, ROOF SIDE, INNER RH
1779250080 2.31$ PLATE, ENGINE VACUUM HOSE INFORMATION 6123120260 34.51$ RAIL, ROOF SIDE, INNER RH 1779250081 0.49$ PLATE, ENGINE VACUUM HOSE INFORMATION 6123130300 83.52$ RAIL, ROOF SIDE, INNER RH
1779250130 1.08$ PLATE, ENGINE VACUUM HOSE INFORMATION 6123130390 39.68$ RAIL, ROOF SIDE, INNER RH 1779250150 0.81$ PLATE, ENGINE VACUUM HOSE INFORMATION 6123130400 55.77$ RAIL, ROOF SIDE, INNER RH
1779250160 0.93$ PLATE, ENGINE VACUUM HOSE INFORMATION 6123133010 46.25$ RAIL, ROOF SIDE, INNER RH 1779250170 0.53$ НАКЛЕЙКА БУМАЖНАЯ 6123133100 68.36$ RAIL, ROOF SIDE, INNER RH
1779250180 0.38$ LABEL, ENGINE VACUUM HOSE INFORMATION 1779250190 0.43$ PLATE, ENGINE VACUUM HOSE INFORMATION 6123137050 31.52$ RAIL, ROOF SIDE, INNER RH 1779250191 0.43$ PLATE, ENGINE VACUUM HOSE INFORMATION
6123142010 20.37$ RAIL, ROOF SIDE, INNER RH 1779250202 0.43$ LABEL, ENGINE VACUUM HOSE INFORMATION 6123142080 39.45$ RAIL, ROOF SIDE, INNER RH 1779250220 0.41$ LABEL, ENGINE VACUUM HOSE INFORMATION
6123142090 55.97$ RAIL, ROOF SIDE, INNER RH 1779250230 0.93$ LABEL, ENGINE VACUUM HOSE INFORMATION 6123142120 49.10$ RAIL, ROOF SIDE, INNER RH 1779261102 1.87$ PLATE, ENGINE VACUUM HOSE INFORMATION
6123148020 69.84$ RAIL, ROOF SIDE, INNER RH 1779262040 1.81$ PLATE, ENGINE VACUUM HOSE INFORMATION 6123150010 56.04$ RAIL, ROOF SIDE, INNER RH 1779262060 1.76$ PLATE, ENGINE VACUUM HOSE INFORMATION
6123153080 55.77$ RAIL, ROOF SIDE, INNER RH 1779262190 2.76$ PLATE, ENGINE VACUUM HOSE INFORMATION 1779262210 2.76$ PLATE, ENGINE VACUUM HOSE INFORMATION 6123160020 36.02$ RAIL, ROOF SIDE, INNER RH
1779262250 2.20$ PLATE, ENGINE VACUUM HOSE INFORMATION 6123160030 17.26$ RAIL, ROOF SIDE, INNER RH 1779262280 0.49$ PLATE, ENGINE VACUUM HOSE INFORMATION 1779265040 2.74$ PLATE, ENGINE VACUUM HOSE INFORMATION
6123160080 46.31$ УСИЛИТЕЛЬ КУЗОВА 1779265060 2.72$ PLATE, ENGINE VACUUM HOSE INFORMATION 1779265090 2.78$ PLATE, ENGINE VACUUM HOSE INFORMATION 1779274320 1.44$ PLATE, ENGINE VACUUM HOSE INFORMATION
1779274400 1.76$ PLATE, ENGINE VACUUM HOSE INFORMATION 1779274430 1.44$ PLATE, ENGINE VACUUM HOSE INFORMATION 6123187002 33.31$ RAIL, ROOF SIDE, INNER RH 1779274471 1.43$ PLATE, ENGINE VACUUM HOSE INFORMATION
6123189113 20.91$ RAIL, ROOF SIDE, INNER RH 1779274490 1.44$ PLATE, ENGINE VACUUM HOSE INFORMATION 6123189114 43.10$ RAIL, ROOF SIDE, INNER RH 1779274521 1.42$ PLATE, ENGINE VACUUM HOSE INFORMATION
6123189117 44.07$ RAIL, ROOF SIDE, INNER RH 1779274530 1.42$ PLATE, ENGINE VACUUM HOSE INFORMATION 6123190K00 14.36$ RAIL, ROOF SIDE, INNER RH 1779274541 1.42$ PLATE, ENGINE VACUUM HOSE INFORMATION
1779274550 1.42$ PLATE, ENGINE VACUUM HOSE INFORMATION 1779274551 2.34$ PLATE, ENGINE VACUUM HOSE INFORMATION 61231AC010 55.86$ RAIL, ROOF SIDE, INNER RH 1779274580 2.31$ PLATE, ENGINE VACUUM HOSE INFORMATION
6123207010 54.79$ RAIL, ROOF SIDE, INNER LH 1779274611 1.42$ PLATE, ENGINE VACUUM HOSE INFORMATION 612320K902 65.83$ RAIL, ROOF SIDE, INNER LH 1779274612 2.34$ PLATE, ENGINE VACUUM HOSE INFORMATION
6123210160 34.21$ RAIL, ROOF SIDE, INNER LH 6123212880 62.19$ RAIL, ROOF SIDE, INNER LH 1779275160 1.90$ PLATE, ENGINE VACUUM HOSE INFORMATION 612321A020 54.68$ КУЗОВНАЯ ПАНЕЛЬ
1779275200 1.90$ PLATE, ENGINE VACUUM HOSE INFORMATION 6123220250 34.51$ RAIL, ROOF SIDE, INNER LH 1779275210 1.90$ PLATE, ENGINE VACUUM HOSE INFORMATION 6123220400 49.85$ RAIL, ROOF SIDE, INNER LH
1779275300 2.31$ PLATE, ENGINE VACUUM HOSE INFORMATION 6123220430 50.28$ RAIL, ROOF SIDE, INNER LH 1779275320 0.85$ PLATE, ENGINE VACUUM HOSE INFORMATION 6123226060 20.37$ RAIL, ROOF SIDE, INNER LH
1779275330 0.85$ PLATE, ENGINE VACUUM HOSE INFORMATION 6123230390 39.68$ RAIL, ROOF SIDE, INNER LH 1779275340 0.85$ PLATE, ENGINE VACUUM HOSE INFORMATION 6123230400 55.77$ RAIL, ROOF SIDE, INNER LH
1779275370 0.41$ LABEL, ENGINE VACUUM HOSE INFORMATION 6123233100 68.36$ RAIL, ROOF SIDE, INNER LH 1779276010 1.79$ PLATE, ENGINE VACUUM HOSE INFORMATION 1780038010 300.07$ CLEANER ASSY, AIR W/ELEMENT, LH
6123242010 20.37$ RAIL, ROOF SIDE, INNER LH 6123242120 49.10$ RAIL, ROOF SIDE, INNER LH 6123248010 69.84$ RAIL, ROOF SIDE, INNER LH 1780101020 13.46$ ELEMENT SUB-ASSY, AIR CLEANER FILTER
6123250010 56.04$ RAIL, ROOF SIDE, INNER LH 1780102040 17.82$ ФИЛЬТР ВОЗДУШНЫЙ 6123253060 55.77$ RAIL, ROOF SIDE, INNER LH 1780102050 14.25$ ФИЛЬТР ВОЗДУШНЫЙ
6123260011 39.68$ RAIL, ROOF SIDE, INNER LH 1780102060 13.67$ ФИЛЬТР ВОЗДУШНЫЙ 1780102080 18.04$ ФИЛЬТР ВОЗДУШНЫЙ 1780103010 16.15$ ФИЛЬТР ВОЗДУШНЫЙ
6123260080 46.31$ RAIL, ROOF SIDE, INNER LH 1780107010 23.27$ ФИЛЬТР ВОЗДУШНЫЙ 178010B010 17.82$ ФИЛЬТР ВОЗДУШНЫЙ 178010B020 18.04$ ФИЛЬТР ВОЗДУШНЫЙ
178010H020 12.39$ ФИЛЬТР ВОЗДУШНЫЙ 6123287002 25.09$ RAIL, ROOF SIDE, INNER LH 178010N020 13.67$ ELEMENT SUB-ASSY, AIR CLEANER FILTER 178010R010 17.20$ ФИЛЬТР ВОЗДУШНЫЙ
6123295405 25.85$ RAIL, ROOF SIDE, INNER LH 61232AC010 51.63$ RAIL, ROOF SIDE, INNER LH 178010W010 21.43$ ФИЛЬТР ВОЗДУШНЫЙ 6123310040 46.63$ RAIL, ROOF SIDE, INNER NO.2 RH
6123312150 46.53$ RAIL, ROOF SIDE, INNER NO.2 RH 6123326260 84.27$ RAIL, ROOF SIDE, INNER NO.2 RH 6123328100 59.61$ RAIL, ROOF SIDE, INNER NO.2 RH 6123395J00 42.21$ RAIL, ROOF SIDE, INNER NO.2 RH
6123410030 46.63$ RAIL, ROOF SIDE, INNER NO.2 LH 6123412110 46.53$ RAIL, ROOF SIDE, INNER NO.2 LH 1780113020 11.65$ ФИЛЬТР ВОЗДУШНЫЙ 6123435010 49.74$ RAIL, ROOF SIDE, INNER NO.2 LH
1780113030 13.18$ ФИЛЬТР ВОЗДУШНЫЙ 1780113040 7.13$ ФИЛЬТР ВОЗДУШНЫЙ 6123533020 11.48$ BRACKET, ASSIST GRIP 6123533050 17.70$ BRACKET, ASSIST GRIP
6123760010 4.22$ BRACKET, ASSIST GRIP, NO.1 6123833010 2.97$ BRACKET, ASSIST GRIP 6123860010 4.22$ BRACKET, ASSIST GRIP, NO.2 6123990K00 3.69$ RETAINER, ROOF SIDE RAIL OUTER, RH
6124190K00 5.40$ GUSSET, ROOF SIDE RAIL, REAR RH 1780120090 36.02$ ФИЛЬТР ВОЗДУШНЫЙ 6124290K00 5.40$ GUSSET, ROOF SIDE RAIL, REAR LH 6124512040 37.21$ REINFORCEMENT, ROOF SIDE RAIL, OUTER RH
6124612060 37.21$ ЛОНЖЕРОН 6124760020 11.59$ REINFORCEMENT, ROOF SIDE RAIL, INNER RH 6124790B00 17.63$ PILLAR, NO.9 OU 6124860010 12.44$ REINFORCEMENT, ROOF SIDE RAIL, INNER LH
6124990B00 234.28$ PILLAR SUB-ASSY, NO.10, LH 1780127010 18.04$ ФИЛЬТР ВОЗДУШНЫЙ 6124990K00 3.69$ RETAINER, ROOF SIDE RAIL, OUTER LH 6125190B01 49.07$ PILLAR, NO.1 IN
6125528030 31.52$ PLATE, ROOF SIDE RAIL, OUTER RH 1780130030 27.43$ ФИЛЬТР ВОЗДУШНЫЙ 6126106020 23.59$ CHANNEL, ROOF DRIP, RH 6126120120 14.36$ CHANNEL, ROOF DRIP, RH
6126126050 76.45$ CHANNEL, ROOF DRIP, RH 6126126060 108.29$ CHANNEL, ROOF DRIP, RH 6126128020 42.56$ CHANNEL, ROOF DRIP, RH 6126130170 24.67$ CHANNEL, ROOF DRIP, RH
1780131080 9.83$ ФИЛЬТР ВОЗДУШНЫЙ 6126132060 24.13$ CHANNEL, ROOF DRIP, RH 6126132070 17.49$ CHANNEL, ROOF DRIP, RH 6126133010 30.45$ CHANNEL, ROOF DRIP, RH
1780131140 19.52$ ELEMENT SUB-ASSY, AIR CLEANER FILTER 6126150020 23.59$ CHANNEL, ROOF DRIP, RH 1780134070 12.25$ ФИЛЬТР ВОЗДУШНЫЙ 6126190B01 48.17$ PILLAR, NO.1 IN
1780137010 13.17$ ФИЛЬТР ВОЗДУШНЫЙ 6126206020 23.59$ CHANNEL, ROOF DRIP, LH 6126207010 22.84$ CHANNEL, ROOF DRIP, LH 6126220120 14.36$ CHANNEL, ROOF DRIP, LH
1780140020 13.13$ ELEMENT SUB-ASSY, AIR CLEANER FILTER 6126222130 15.23$ CHANNEL, ROOF DRIP, LH 6126226010 19.73$ CHANNEL, ROOF DRIP 6126226020 76.45$ CHANNEL, ROOF DRIP, LH
1780141120 12.73$ ФИЛЬТР ВОЗДУШНЫЙ 1780144040 12.57$ ELEMENT SUB-ASSY, AIR CLEANER FILTER 6126228020 42.56$ CHANNEL, ROOF DRIP, LH 1780144070 16.84$ ELEMENT SUB-ASSY, AIR CLEANER FILTER
6126230170 24.67$ CHANNEL, ROOF DRIP, LH 1780144100 24.16$ ELEMENT, AIR 1780145010 18.03$ ФИЛЬТР ВОЗДУШНЫЙ 6126250010 34.19$ CHANNEL, ROOF DRIP, LH
6126250020 23.59$ CHANNEL, ROOF DRIP, LH 1780147030 33.99$ ELEMENT SUB-ASSY, AIR CLEANER FILTER 6126316100 17.05$ CHANNEL, ROOF DRIP SIDE, FRONT RH 6126326020 18.35$ CHANNEL, ROOF DRIP SIDE, FRONT RH
6126360010 16.80$ CHANNEL, ROOF DRIP, RH 6126390A01 28.50$ CHANNEL, ROOF DRIP SIDE, FRONT RH 6126395702 26.60$ CHANNEL, ROOF DRIP SIDE, FRONT RH 1780154020 25.46$ ФИЛЬТР ВОЗДУШНЫЙ
6126416090 16.73$ CHANNEL, ROOF DRIP SIDE, FRONT LH 6126416100 17.05$ CHANNEL, ROOF DRIP SIDE, FRONT LH 6126426020 18.35$ CHANNEL, ROOF DRIP SIDE, FRONT LH 6126460010 16.80$ CHANNEL, ROOF DRIP SIDE, FRONT LH
6126490A01 28.50$ CHANNEL, ROOF DRIP SIDE, FRONT LH 6126512180 21.76$ CHANNEL, ROOF DRIP SIDE, CENTER RH 6126512230 18.56$ CHANNEL, ROOF DRIP SIDE, CENTER RH 1780154120 27.87$ ФИЛЬТР ВОЗДУШНЫЙ
6126513030 23.27$ CHANNEL, ROOF DRIP SIDE, CENTER RH 6126536030 47.93$ PILLAR, NO.3 INNER, UPPER LH 6126612180 21.76$ CHANNEL, ROOF DRIP SIDE, CENTER LH 6126613030 23.27$ CHANNEL, ROOF DRIP SIDE, CENTER LH
6126712130 5.80$ CHANNEL, ROOF DRIP SIDE, REAR RH 6126712170 9.56$ CHANNEL, ROOF DRIP SIDE, REAR RH 6126730050 32.99$ CHANNEL, ROOF DRIP SIDE, REAR RH 6126733020 13.83$ CHANNEL, ROOF DRIP SIDE, REAR RH
6126733040 15.13$ CHANNEL, ROOF DRIP SIDE, REAR RH 6126736010 62.29$ PILLAR, NO.4 INNER, UPPER LH 6126736030 47.93$ PILLAR, NO.4 INNER, UPPER LH 6126750020 26.81$ CHANNEL, ROOF DRIP SIDE, REAR RH
1780160050 26.73$ ФИЛЬТР ВОЗДУШНЫЙ 6126789103 19.64$ CHANNEL, ROOF DRIP SIDE, REAR RH 1780161020 18.48$ ФИЛЬТР ВОЗДУШНЫЙ 6126790A00 64.01$ CHANNEL, ROOF DRIP SIDE, REAR RH
6126812130 5.25$ CHANNEL, ROOF DRIP SIDE, REAR LH 6126812170 9.56$ CHANNEL, ROOF DRIP SIDE, REAR LH 6126813040 14.47$ CHANNEL, ROOF DRIP SIDE, REAR LH 6126830040 32.99$ CHANNEL, ROOF DRIP SIDE, REAR LH
6126833020 13.83$ CHANNEL, ROOF DRIP SIDE, REAR LH 1780164060 18.04$ ФИЛЬТР ВОЗДУШНЫЙ 6126833040 15.13$ CHANNEL, ROOF DRIP SIDE, REAR LH 6126850020 26.81$ CHANNEL, ROOF DRIP SIDE, REAR LH
1780166030 26.67$ ФИЛЬТР ВОЗДУШНЫЙ 6126889101 12.76$ CHANNEL, ROOF DRIP SIDE, REAR LH 6126890A00 61.75$ CHANNEL, ROOF DRIP SIDE, REAR LH 6127236030 62.29$ PILLAR, NO.9 INNER, RH
6127336010 3.86$ PILLAR, NO.9 INNER, LOWER RH 6127336030 4.33$ PILLAR, NO.9 INNER, LOWER RH 6127436010 23.91$ PILLAR, NO.10 INNER, RH 6128150050 1.98$ BRACKET, SLIDING ROOF HOUSING SIDE MOUNTING, NO.1
1780173010 13.23$ ELEMENT SUB-ASSY, AIR CLEANER FILTER 1780174010 17.82$ ФИЛЬТР ВОЗДУШНЫЙ 6128310060 5.35$ BRACKET, SLIDING ROOF HOUSING SIDE MOUNTING, NO.3 RH 6128336030 4.33$ PILLAR, NO.9 INNER, LOWER LH
6128360020 16.63$ BRACKET, SLIDING ROOF HOUSING SIDE MOUNTING, RH 6128410060 5.35$ BRACKET, SLIDING ROOF HOUSING SIDE MOUNTING, NO.3 LH 6128436010 23.91$ PILLAR, NO.10 INNER, LH 6128460020 16.63$ BRACKET, SLIDING ROOF HOUSING SIDE MOUNTING, LH
1780178070 32.43$ ELEMENT SUB-ASSY 6129936010 1.30$ BRACKET, NO.9 INNER PILLAR BLOWER 1780197201 8.93$ ФИЛЬТР ВОЗДУШНЫЙ 613010K901 155.88$ PILLAR SUB-ASSY, CENTER BODY, RH
6130110060 75.78$ PILLAR SUB-ASSY 6130112190 82.23$ PILLAR SUB-ASSY, CENTER BODY, OUTER RH 6130112270 113.64$ PILLAR SUB-ASSY, CENTER BODY, RH 17801BZ050 13.58$ ВОЗДУШНЫЙ ФИЛЬТР
6130120340 100.57$ PILLAR, CENTER BODY, OUTER RH 6130122910 105.47$ PILLAR SUB-ASSY, CENTER BODY, OUTER RH 6130126021 96.48$ PILLAR SUB-ASSY, CENTER BODY, OUTER RH 1780503010 44.51$ RESONATOR SUB-ASSY, INTAKE AIR
6130126090 106.46$ PILLAR SUB-ASSY, CENTER BODY, RH 1780507010 54.82$ RESONATOR SUB-ASSY, INTAKE AIR 6130126340 120.08$ PILLAR SUB-ASSY, CENTER BODY, OUTER RH 6130126360 120.08$ PILLAR SUB-ASSY, CENTER BODY, OUTER RH
1780513050 18.53$ CONNECTOR SUB-ASSY, INTAKE AIR 1780513060 17.14$ CONNECTOR SUB-ASSY, INTAKE AIR 6130128080 175.83$ PILLAR SUB-ASSY, CENTER BODY, OUTER RH 6130128100 176.14$ PILLAR SUB-ASSY, CENTER BODY, OUTER RH
6130128110 176.90$ PILLAR SUB-ASSY, CENTER BODY, OUTER RH 6130128140 113.64$ PILLAR SUB-ASSY, CENTER BODY, RH 6130128150 113.64$ PILLAR SUB-ASSY, CENTER BODY, RH 1780535021 207.53$ CONNECTOR SUB-ASSY, INTAKE AIR
6130128190 61.00$ PILLAR SUB-ASSY, CENTER BODY, OUTER RH 1780535060 134.10$ CONNECTOR SUB-ASSY, INTAKE AIR 6130128210 59.29$ PILLAR SUB-ASSY, CENTER BODY, RH 1780546020 44.92$ CONNECTOR SUB-ASSY, INTAKE AIR
6130130150 128.65$ PILLAR SUB-ASSY, CENTER BODY, OUTER RH 1780554090 14.37$ PIPE SUB-ASSY, AIR CLEANER, NO.1 1780554111 34.80$ RESONATOR SUB-ASSY, INTAKE AIR 6130148901 147.58$ PILLAR SUB-ASSY, CENTER BODY, RH
1780554152 34.49$ PIPE SUB-ASSY, AIR CLEANER, NO.1 6130158010 72.80$ PILLAR SUB-ASSY, CENTER BODY, RH 1780554220 54.57$ RESONATOR SUB-ASSY, INTAKE AIR 6130160072 136.17$ КРОНШТЕЙН КУЗОВНОЙ
1780554250 32.58$ RESONATOR SUB-ASSY, INTAKE AIR 6130160080 134.01$ КРОНШТЕЙН КУЗОВНОЙ 1780554270 65.67$ RESONATOR SUB-ASSY, INTAKE AIR 6130160090 136.17$ КРОНШТЕЙН КУЗОВНОЙ
1780554340 30.87$ RESONATOR SUB-ASSY, INTAKE AIR 1780554370 78.01$ CONNECTOR SUB-ASSY, INTAKE AIR 6130160111 115.06$ КРОНШТЕЙН КУЗОВНОЙ 1780558230 68.55$ PIPE SUB-ASSY, AIR CLEANER, NO.1
1780561010 73.03$ CONNECTOR SUB-ASSY, INTAKE AIR 6130160901 87.49$ КРОНШТЕЙН КУЗОВНОЙ 1780561020 74.60$ CONNECTOR SUB-ASSY, INTAKE AIR 6130189105 117.15$ PILLAR SUB-ASSY, CENTER BODY, OUTER RH
1780561030 71.14$ CONNECTOR SUB-ASSY, INTAKE AIR 6130189107 124.36$ PILLAR SUB-ASSY, CENTER BODY, OUTER RH 6130195J15 134.01$ PILLAR SUB-ASSY, CENTER BODY, OUTER RH 1780564020 29.55$ CONNECTOR SUB-ASSY, INTAKE AIR
6130195J21 134.01$ PILLAR SUB-ASSY, CENTER BODY, OUTER RH 6130210060 75.78$ PILLAR SUB-ASSY 1780571020 38.53$ CONNECTOR SUB-ASSY, INTAKE AIR 6130212250 82.23$ PILLAR SUB-ASSY, CENTER BODY, OUTER LH
1780572030 19.37$ CONNECTOR SUB-ASSY, INTAKE AIR 6130220450 100.57$ PILLAR, CENTER BODY, OUTER LH 6130222906 103.21$ PILLAR SUB-ASSY, CENTER BODY, LH 1780574100 76.51$ RESONATOR SUB-ASSY, INTAKE AIR
6130222910 105.47$ PILLAR SUB-ASSY, CENTER BODY, OUTER LH 1780574110 57.86$ БАЧОК ПЛАСТИКОВЫЙ 6130226260 131.86$ PILLAR SUB-ASSY, CENTER BODY, LH 6130226280 120.08$ PILLAR SUB-ASSY, CENTER BODY, OUTER LH
1780574180 30.97$ RESONATOR SUB-ASSY, INTAKE AIR 6130226500 136.17$ КУЗОВНАЯ СТОЙКА 1780574210 55.24$ RESONATOR SUB-ASSY, INTAKE AIR 6130228010 175.83$ PILLAR SUB-ASSY, CENTER BODY, OUTER LH
1780575010 81.20$ CONNECTOR SUB-ASSY, INTAKE AIR 6130228040 176.14$ ПАНЕЛЬ КУЗОВА 1780575030 84.19$ CONNECTOR SUB-ASSY, INTAKE AIR 6130228060 176.14$ PILLAR SUB-ASSY, CENTER BODY, OUTER LH
1780575040 143.68$ CONNECTOR SUB-ASSY, INTAKE AIR 6130228140 128.65$ PILLAR SUB-ASSY, CENTER BODY, LH 1780575100 126.65$ CONNECTOR SUB-ASSY, INTAKE AIR 6130228150 128.65$ PILLAR SUB-ASSY, CENTER BODY, LH
1780575150 124.53$ CONNECTOR SUB-ASSY, INTAKE AIR 6130228170 58.97$ PILLAR SUB-ASSY, CENTER BODY, OUTER LH 6130230150 105.53$ PILLAR SUB-ASSY, CENTER BODY, OUTER LH 1780575180 24.38$ CONNECTOR SUB-ASSY, INTAKE AIR
6130230180 128.65$ PILLAR SUB-ASSY, CENTER BODY, OUTER LH 6130232900 93.51$ PILLAR SUB-ASSY, CENTER BODY, OUTER LH 1780603010 23.63$ PIPE SUB-ASSY, AIR CLEANER, NO.2 1780607010 27.13$ PIPE SUB-ASSY, AIR CLEANER, NO.2
6130248901 147.95$ PILLAR SUB-ASSY, CENTER BODY, LH 178060A010 38.15$ PIPE SUB-ASSY, AIR CLEANER, NO.2 6130260091 134.01$ PILLAR SUB-ASSY, CENTER BODY, LH 178060A020 38.53$ PIPE SUB-ASSY, AIR CLEANER, NO.2
6130260092 136.17$ КУЗОВНАЯ СТОЙКА 6130260100 134.01$ PILLAR SUB-ASSY, CENTER BODY, LH 6130260110 136.17$ PILLAR SUB-ASSY, CENTER BODY, OUTER LH 6130260140 129.81$ PILLAR SUB-ASSY, CENTER BODY, OUTER LH
1780642020 41.60$ PIPE SUB-ASSY, AIR CLEANER, NO.2 1780654080 52.35$ PIPE SUB-ASSY, AIR CLEANER, NO.2 1780654110 61.95$ RESONATOR SUB-ASSY, INTAKE AIR, NO.2 6130289112 124.36$ PILLAR SUB-ASSY, CENTER BODY, OUTER LH
1780658020 6.89$ PIPE SUB-ASSY, AIR CLEANER, NO.2 6130295J09 151.96$ PILLAR SUB-ASSY, CENTER BODY, OUTER LH 1780658030 40.62$ PIPE SUB-ASSY, AIR CLEANER, NO.2 6130328020 112.57$ REINFORCE SUB-ASSY, CENTER BODY PILLAR, UPPER RH
1780658040 48.11$ PIPE SUB-ASSY, AIR CLEANER, NO.2 1780658050 48.11$ PIPE SUB-ASSY, AIR CLEANER, NO.2 1780667020 58.75$ PIPE SUB-ASSY, AIR CLEANER, NO.2 6130333900 114.88$ REINFORCE SUB-ASSY, CENTER BODY PILLAR, UPPER RH
1780674010 33.70$ PIPE SUB-ASSY, AIR CLEANER, NO.2 6130333906 155.50$ REINFORCE SUB-ASSY, CENTER BODY PILLAR, UPPER RH 6130333908 140.76$ REINFORCE SUB-ASSY, CENTER BODY PILLAR, UPPER RH 1780674040 37.47$ PIPE SUB-ASSY, AIR CLEANER, NO.2
6130335020 46.31$ REINFORCE SUB-ASSY, CENTER BODY PILLAR, UPPER RH 1780754010 12.82$ PLATE SUB-ASSY, AIR CLEANER FILTER SET 6130342902 91.88$ REINFORCEMENT SUB-ASSY, CENTER BODY PILLAR, RH 1780754030 26.39$ RESONATOR SUB-ASSY, INTAKE AIR, NO.3
6130342903 80.73$ REINFORCEMENT SUB-ASSY, CENTER BODY PILLAR, RH 6130360030 110.42$ УСИЛИТЕЛЬ КУЗОВА 1780768010 1.70$ PLATE SUB-ASSY, AIR CLEANER FILTER SET 6130360050 91.77$ REINFORCE SUB-ASSY, CENTER BODY PILLAR, UPPER RH
1780774010 13.78$ CONNECTOR SUB-ASSY, INTAKE AIR, NO.3 1781221010 17.63$ FILTER, AIR CLEANER 1781231030 22.33$ FILTER, AIR CLEANER ( R/A - 7 )*** 61303AA030 123.30$ REINFORCE SUB-ASSY, CENTER BODY PILLAR, UPPER RH
61303AC010 87.28$ REINFORCE SUB-ASSY, CENTER BODY PILLAR, UPPER RH 1781231040 19.66$ FILTER, AIR CLEANER 61303AC020 100.40$ REINFORCE SUB-ASSY, CENTER BODY PILLAR, UPPER RH 1781250030 19.66$ FILTER, AIR CLEANER
613040K010 72.64$ REINFORCE SUB-ASSY, CENTER BODY PILLAR, UPPER LH 1784144030 3.09$ ПРОКЛАДКА РЕЗИНОВАЯ 6130428020 112.57$ REINFORCE SUB-ASSY, CENTER BODY PILLAR, UPPER LH 1784168040 0.93$ GASKET, FILTER ELEMENT
1784177040 14.52$ GASKET, FILTER ELEMENT 6130433040 80.73$ REINFORCE SUB-ASSY, CENTER BODY PILLAR, UPPER LH 1784510020 5.94$ GASKET, AIR CLEANER CAP 6130433900 114.88$ REINFORCE SUB-ASSY, CENTER BODY PILLAR, UPPER LH
1784525010 2.21$ GASKET, AIR CLEANER CAP 6130433904 155.50$ REINFORCE SUB-ASSY, CENTER BODY PILLAR, UPPER LH 1784542010 3.48$ GASKET, AIR CLEANER CAP 6130433906 140.76$ REINFORCE SUB-ASSY, CENTER BODY PILLAR, UPPER LH
6130442903 80.73$ REINFORCEMENT SUB-ASSY, CENTER BODY PILLAR, LH 6130460030 110.42$ REINFORCE SUB-ASSY, CENTER BODY PILLAR, UPPER LH 61304AC010 87.28$ REINFORCE SUB-ASSY, CENTER BODY PILLAR, UPPER LH 61304AC020 100.68$ REINFORCE SUB-ASSY, CENTER BODY PILLAR, UPPER LH
1784813010 3.31$ GASKET, AIR CLEANER TO CARBURETOR 613050C901 152.24$ REINFORCE SUB-ASSY, CENTER BODY PILLAR, LOWER RH 1784861011 5.83$ GASKET, AIR CLEANER TO CARBURETOR 6130533040 128.42$ REINFORCE SUB-ASSY, CENTER BODY PILLAR, LOWER RH
1784946010 4.32$ ПРОКЛАДКА МЕТАЛЛИЧЕСКАЯ 1784974010 1.72$ GASKET, INTAKE AIR CONNECTOR 6130552080 106.68$ REINFORCE SUB-ASSY, CENTER BODY PILLAR, LOWER RH 1785116020 12.61$ BRACKET, AIR CLEANER SUPPORT
6130552901 72.48$ REINFORCE SUB-ASSY, CENTER BODY PILLAR, LOWER RH 1785164010 10.32$ BRACKET, AIR CLEANER SUPPORT 6130560041 90.60$ REINFORCE SUB-ASSY, CENTER BODY PILLAR, LOWER RH 1785174040 8.55$ BRACKET, AIR CLEANER SUPPORT
61305AC901 109.36$ REINFORCE SUB-ASSY, CENTER BODY PILLAR, LOWER RH 613060C901 152.24$ REINFORCE SUB-ASSY, CENTER BODY PILLAR, LOWER LH 1785375010 2.95$ INSULATOR, AIR CLEANER BRACKET 6130612160 49.85$ REINFORCE SUB-ASSY, CENTER BODY PILLAR, LOWER LH
6130633010 164.88$ REINFORCEMENT, CENTER BODY PILLAR, LOWER LH 6130633040 128.42$ REINFORCE SUB-ASSY, CENTER BODY PILLAR, LOWER LH 6130633902 118.10$ REINFORCE SUB-ASSY, CENTER BODY PILLAR, LOWER LH 1785735010 6.12$ GASKET, AIR INLET DUCT, NO.2
1786030010 27.37$ CONNECTOR, INTAKE AIR 6130660040 102.92$ REINFORCE SUB-ASSY, CENTER BODY PILLAR, LOWER LH 1786042020 87.56$ CONNECTOR, INTAKE AIR 6130660041 90.60$ REINFORCE SUB-ASSY, CENTER BODY PILLAR, LOWER LH
1786043020 78.63$ CONNECTOR, INTAKE AIR 61306AC010 94.35$ REINFORCE SUB-ASSY, CENTER BODY PILLAR, LOWER LH 1786046031 44.53$ ВОЗДУХОВОД 61306AC901 109.36$ REINFORCE SUB-ASSY, CENTER BODY PILLAR, LOWER LH
613070C010 100.68$ PILLAR SUB-ASSY, CENTER BODY, INNER RH 1786046123 40.74$ ВОЗДУХОВОД 1786046140 57.91$ РЕЗОНАТОР ВОЗДУШНОГО ФИЛЬТРА 6130712030 18.27$ PILLAR SUB-ASSY, CENTER BODY, INNER RH
6130728090 120.62$ PILLAR SUB-ASSY, CENTER BODY, INNER RH 6130733040 67.97$ PILLAR SUB-ASSY, CENTER BODY, INNER RH 1786046180 87.78$ ВОЗДУХОВОД 6130733050 74.80$ PILLAR SUB-ASSY, CENTER BODY, INNER RH
1786055020 18.33$ CONNECTOR SUB-ASSY, INTAKE AIR 6130735020 107.10$ PILLAR, CENTER BODY, INNER RH 1786064021 21.69$ CONNECTOR, INTAKE AIR 6130735902 73.33$ REINFORCEMENT, CENTER BODY PILLAR, OUTER RH
6130742020 65.94$ PILLAR SUB-ASSY, CENTER BODY, INNER RH 1786075030 33.58$ CONNECTOR SUB-ASSY, INTAKE AIR 6130742902 61.76$ КУЗОВНАЯ СТОЙКА 1786117010 53.37$ CONNECTOR, INTAKE AIR
1786130080 37.89$ CONNECTOR, INTAKE AIR 6130748011 91.84$ PILLAR SUB-ASSY, CENTER BODY, INNER RH 6130748030 74.13$ PILLAR SUB-ASSY, CENTER BODY, INNER RH 1786135070 21.91$ CONNECTOR, INTAKE AIR
6130750010 57.92$ PILLAR SUB-ASSY, CENTER BODY, INNER RH 1786142050 71.17$ CONNECTOR, INTAKE AIR 6130750020 59.73$ PILLAR SUB-ASSY, CENTER BODY, INNER RH 1786146050 33.68$ CONNECTOR, INTAKE AIR
6130760070 45.49$ PILLAR SUB-ASSY, CENTER BODY, INNER RH 6130760130 41.92$ PILLAR SUB-ASSY, CENTER BODY, INNER RH 1786158070 51.89$ CONNECTOR, INTAKE AIR 6130760900 73.36$ PILLAR SUB-ASSY, CENTER BODY, INNER RH
6130795J51 88.34$ PILLAR SUB-ASSY, CENTER BODY, INNER RH 61307AC010 54.36$ PILLAR SUB-ASSY, CENTER BODY, INNER RH 613080C020 100.68$ PILLAR SUB-ASSY, CENTER BODY, INNER LH 1786170050 18.11$ ПАТРУБОК ВОЗДУШНОГО ФИЛЬТРА ПЛАСТИКОВЫЙ
613080K020 59.29$ PILLAR SUB-ASSY, CENTER BODY, INNER LH 6130812030 18.27$ PILLAR SUB-ASSY, CENTER BODY, INNER LH 1786170080 20.11$ ПАТРУБОК ВОЗДУШНОГО ФИЛЬТРА ПЛАСТИКОВЫЙ 6130826330 77.73$ PILLAR SUB-ASSY, CENTER BODY, INNER LH
1786175091 30.84$ CONNECTOR, INTAKE AIR 6130833040 67.97$ PILLAR SUB-ASSY, CENTER BODY, INNER LH 1786175110 40.12$ ПАТРУБОК ВОЗДУХОЗАБОРНИКА ПЛАСТИКОВЫЙ 6130833041 59.82$ PILLAR SUB-ASSY, CENTER BODY, INNER LH
1786175111 42.64$ CONNECTOR, INTAKE AIR 6130833050 74.80$ PILLAR SUB-ASSY, CENTER BODY, INNER LH 6130835010 108.29$ PILLAR, CENTER BODY, INNER LH 1786175121 53.90$ CONNECTOR, INTAKE AIR
6130835020 107.10$ PILLAR, CENTER BODY, INNER LH 1786188381 7.86$ CONNECTOR, INTAKE AIR 6130842020 65.94$ PILLAR SUB-ASSY, CENTER BODY, INNER LH 1786746010 5.67$ КУЗОВНОЙ УПЛОТНИТЕЛЬ
6130848011 91.84$ PILLAR SUB-ASSY, CENTER BODY, INNER LH 1787054020 30.53$ RESONATOR SUB-ASSY, INTAKE AIR, NO.3 6130860130 41.92$ PILLAR SUB-ASSY, CENTER BODY, INNER LH 1787117030 7.43$ STAY, AIR CONNECTOR
61308AC010 54.36$ PILLAR SUB-ASSY, CENTER BODY, INNER LH 1787175030 27.16$ STAY, AIR CONNECTOR 6131101080 72.80$ PILLAR, CENTER BODY, OUTER RH 1787242070 5.52$ BRACKET, INTAKE AIR CONNECTOR
6131105030 80.84$ КУЗОВНАЯ СТОЙКА 6131110040 127.58$ PILLAR, CENTER BODY, OUTER RH 1787250010 4.27$ BRACKET, INTAKE AIR CONNECTOR 1787254030 4.31$ BRACKET, INTAKE AIR CONNECTOR
6131112240 53.82$ PILLAR, CENTER BODY, OUTER RH 6131112290 130.80$ PILLAR, CENTER BODY, OUTER RH 1787516020 17.20$ PIPE, INTAKE AIR CONNECTOR 6131112320 124.36$ PILLAR, CENTER BODY, OUTER RH
1787535010 9.39$ PIPE, INTAKE AIR CONNECTOR 6131112400 91.77$ PILLAR, CENTER BODY, OUTER RH 1787541070 25.29$ PIPE, INTAKE AIR CONNECTOR 1787542070 22.28$ PIPE, INTAKE AIR CONNECTOR
1787543070 36.73$ PIPE, INTAKE AIR CONNECTOR 6131120300 152.24$ PILLAR, CENTER BODY, OUTER RH 6131120310 147.31$ PILLAR, CENTER BODY, OUTER RH 6131120900 81.05$ PILLAR, CENTER BODY, OUTER RH
6131122251 124.36$ PILLAR, CENTER BODY, OUTER RH 1787550121 116.08$ ПАТРУБОК ВОЗДУХОЗАБОРНИКА ПЛАСТИКОВЫЙ 6131126070 73.36$ PILLAR, CENTER BODY, OUTER RH 6131128110 80.62$ PILLAR, CENTER BODY, OUTER RH
6131130150 112.57$ КУЗОВНАЯ СТОЙКА 6131130170 142.10$ КУЗОВНАЯ СТОЙКА 6131130201 145.81$ КУЗОВНАЯ СТОЙКА 1787550260 92.78$ ПАТРУБОК ВОЗДУХОЗАБОРНИКА ПЛАСТИКОВЫЙ
6131133020 182.31$ ПОРОГ 6131133030 109.36$ ПОРОГ 1787550320 102.12$ PIPE, INTAKE AIR CONNECTOR 1787564100 56.64$ PIPE, INTAKE AIR CONNECTOR
1787570140 25.69$ PIPE, INTAKE AIR CONNECTOR 178800A060 26.09$ HOSE ASSY AIR 6131137120 82.56$ PILLAR, CENTER BODY, OUTER RH 1788011100 29.79$ ПАТРУБОК ВОЗДУХОЗАБОРНИКА РЕЗИНОВЫЙ
1788011120 35.48$ ПАТРУБОК ВОЗДУХОЗАБОРНИКА РЕЗИНОВЫЙ 6131143010 45.78$ PILLAR, CENTER BODY, OUTER RH 6131143020 31.84$ PILLAR, CENTER BODY, OUTER RH 6131144040 136.17$ PILLAR, CENTER BODY, OUTER RH
1788011150 35.48$ ПАТРУБОК ВОЗДУХОЗАБОРНИКА РЕЗИНОВЫЙ 1788011181 40.74$ ПАТРУБОК ВОЗДУХОЗАБОРНИКА РЕЗИНОВЫЙ 6131148040 73.36$ PILLAR, CENTER BODY, OUTER RH 1788011230 32.70$ ПАТРУБОК ВОЗДУХОЗАБОРНИКА РЕЗИНОВЫЙ
1788011240 24.42$ ПАТРУБОК ВОЗДУХОЗАБОРНИКА РЕЗИНОВЫЙ 6131150040 67.97$ PILLAR, CENTER BODY, OUTER RH 1788011370 32.43$ ПАТРУБОК ВОЗДУХОЗАБОРНИКА РЕЗИНОВЫЙ 6131153010 89.94$ PILLAR, CENTER BODY, OUTER RH
6131153011 140.76$ КУЗОВА СТОЙКА 1788016020 44.03$ HOSE, AIR CLEANER, NO.2 6131158010 72.80$ PILLAR, CENTER BODY, OUTER RH 1788016251 29.79$ HOSE ASSY, AIR CLEANER
6131158020 55.86$ PILLAR, CENTER BODY, OUTER RH 1788021010 27.27$ ПАТРУБОК РЕЗИНОВЫЙ 1788021081 21.61$ HOSE ASSY, AIR CLEANER 6131160190 56.99$ PILLAR, CENTER BODY, OUTER RH
61311AA010 156.53$ КУЗОВНАЯ СТОЙКА 1788030030 32.74$ HOSE ASSY, AIR CLEANER 6131202040 65.30$ PILLAR, CENTER BODY, OUTER LH 6131207010 154.39$ PILLAR, CENTER BODY, OUTER LH
6131207011 135.08$ PILLAR, CENTER BODY, OUTER LH 1788031200 25.90$ HOSE, AIR CLEANER, NO.1 6131210040 127.58$ PILLAR, CENTER BODY, OUTER LH 1788035040 18.75$ HOSE, COOL AIR INTAKE
6131212280 53.82$ ПОРОГ 1788037022 93.24$ HOSE, AIR CLEANER, NO.2 6131212330 130.80$ PILLAR, CENTER BODY, OUTER LH 1788037040 19.48$ HOSE ASSY, AIR CLEANER
6131212360 129.73$ PILLAR, CENTER BODY, OUTER LH 1788050040 66.52$ HOSE ASSY, AIR CLEANER 1788050050 58.84$ ПАТРУБОК ВОЗДУШНОГО ФИЛЬТРА ПЛАСТИКОВЫЙ 6131213010 162.96$ ПОРОГ
6131213040 65.30$ PILLAR, CENTER BODY, OUTER LH 1788054220 35.15$ HOSE ASSY, AIR CLEANER 6131220320 139.84$ ПОРОГ 1788054240 57.69$ HOSE ASSY, AIR CLEANER
6131220380 147.31$ ПОРОГ 6131222321 115.79$ PILLAR, CENTER BODY, OUTER LH 1788054261 38.42$ HOSE ASSY, AIR CLEANER 1788058030 42.14$ HOSE, AIR CLEANER, NO.1
1788062030 33.57$ ПАТРУБОК ВОЗДУШНОГО ФИЛЬТРА ПЛАСТИКОВЫЙ 1788062050 37.68$ HOSE ASSY, AIR CLEANER 1788062060 41.08$ HOSE ASSY, AIR CLEANER 1788064070 45.68$ ПАТРУБОК ПЛАСТИКОВЫЙ
6131230210 112.57$ ПОРОГ 1788064110 21.69$ ПАТРУБОК ПЛАСТИКОВЫЙ 6131230230 142.10$ ПОРОГ 1788064190 39.17$ ПАТРУБОК ПЛАСТИКОВЫЙ
1788064191 40.74$ ПАТРУБОК ПЛАСТИКОВЫЙ 6131233020 182.31$ PILLAR, CENTER BODY, OUTER LH 6131233030 109.36$ PILLAR, CENTER BODY, OUTER LH 1788064362 35.26$ ПАТРУБОК ПЛАСТИКОВЫЙ
1788064390 32.43$ ПАТРУБОК ПЛАСТИКОВЫЙ 1788074060 44.03$ ПАТРУБОК ВОЗДУХОЗАБОРНИКА ПЛАСТИКОВЫЙ 1788074070 59.78$ ПАТРУБОК ВОЗДУХОЗАБОРНИКА ПЛАСТИКОВЫЙ 6131235010 54.36$ ПАНЕЛЬ КУЗОВА
1788074120 44.03$ ПАТРУБОК ВОЗДУХОЗАБОРНИКА ПЛАСТИКОВЫЙ 6131242011 33.67$ PILLAR, CENTER BODY, OUTER LH 1788089102 15.06$ HOSE, AIR CLEANER, NO.2 1788103110 35.26$ ПАТРУБОК РЕЗИНОВЫЙ
6131243010 45.78$ PILLAR, CENTER BODY, OUTER LH 1788103140 28.42$ ПАТРУБОК РЕЗИНОВЫЙ 6131243020 31.84$ PILLAR, CENTER BODY, OUTER LH 178810A050 11.04$ HOSE AIR CLEANE
6131244070 73.36$ PILLAR, CENTER BODY, OUTER LH 178810D010 24.42$ HOSE, AIR CLEANER, NO.1 178810D300 17.50$ HOSE, AIR CLEANER, NO.1 178810L030 35.20$ HOSE, AIR CLEANER, NO.1
178810L050 26.20$ HOSE, AIR CLEANER, NO.1 178810L090 34.95$ HOSE, AIR CLEANER, NO.1 1788111122 3.37$ HOSE, AIR CLEANER, NO.1 6131253010 89.94$ ПОРОГ
6131258020 55.86$ PILLAR, CENTER BODY, OUTER LH 1788112030 24.52$ HOSE, AIR CLEANER, NO.2 1788112040 20.82$ HOSE, AIR CLEANER, NO.2 1788112080 12.64$ HOSE, AIR CLEANER, NO.4
1788113040 40.30$ HOSE, AIR CLEANER, NO.1 1788113051 8.80$ HOSE, AIR CLEANER, NO.1 6131260180 131.86$ КУЗОВНАЯ СТОЙКА 1788113070 15.81$ HOSE, PRECLEANER
6131260190 164.88$ КУЗОВНАЯ СТОЙКА 1788113121 13.37$ HOSE, AIR CLEANER, NO.5 1788113130 24.31$ HOSE, AIR CLEANER, NO.1 1788113140 21.05$ HOSE, AIR CLEANER, NO.1
1788113190 21.36$ HOSE, AIR CLEANER, NO.1 1788114020 22.38$ HOSE, AIR CLEANER, NO.2 6131263010 80.73$ PILLAR, CENTER BODY, OUTER LH 1788115050 15.75$ HOSE, AIR CLEANER, NO.2
1788115140 8.94$ HOSE, AIR CLEANER, NO.2 6131836010 10.03$ RAIL, NO.6 UPPER OUTER, RH 6131936020 6.86$ PLATE, CENTER BODY PILLAR, OUTER RH 6132190B01 172.02$ RAIL, NO.1 UPPER OUTER, LH
6132390B00 63.53$ RAIL, NO.1 UPPER OUTER, LOWER LH 1788116050 22.07$ HOSE, PRECLEANER 6132890B00 73.98$ RAIL, NO.6 UPPER OUTER, LH 1788116100 40.66$ HOSE, AIR CLEANER, NO.1
6133836010 11.27$ RAIL, REAR SIDE NO.2, RH 6133895J01 12.34$ УСИЛИТЕЛЬ 1788116150 35.48$ HOSE, AIR CLEANER, NO.1 6133930010 1.02$ SEAL, CENTER BODY PILLAR, INNER NO.1
1788116170 36.68$ HOSE, AIR CLEANER, NO.1 6133950020 1.86$ SEAL, CENTER BODY PILLAR, INNER NO.1 1788116210 13.26$ HOSE, AIR CLEANER, NO.1 6133950040 2.41$ SEAL, CENTER BODY PILLAR, INNER NO.1
6134090A07 195.23$ PILLAR SUB-ASSY, CENTER BODY, LH 1788116281 32.53$ HOSE, AIR CLEANER, NO.2 6134122140 166.53$ PILLAR SUB-ASSY, CENTER BODY, INNER RH 1788116300 26.74$ ПАТРУБОК ВОЗДУХОЗАБОРНИКА РЕЗИНОВЫЙ
6134142900 51.04$ PILLAR, CENTER BODY, INNER UPPER RH 6134160040 31.63$ КУЗОВНОЙ УСИЛИТЕЛЬ 1788116360 29.69$ HOSE, AIR CLEANER, NO.1 1788116380 29.69$ HOSE, AIR CLEANER, NO.1
6134242900 51.04$ PILLAR, CENTER BODY, INNER UPPER LH 6134260040 31.63$ PILLAR, CENTER BODY, INNER UPPER LH 6134260041 31.52$ PILLAR, CENTER BODY, INNER UPPER LH 6134310050 38.70$ PILLAR, CENTER BODY, INNER RH
1788117040 29.79$ ПАТРУБОК РЕЗИНОВЫЙ 1788117060 32.43$ ПАТРУБОК РЕЗИНОВЫЙ 6134312170 67.86$ КУЗОВНАЯ СТОЙКА 6134312190 54.36$ КУЗОВНАЯ СТОЙКА
6134322909 30.00$ PILLAR, CENTER BODY, INNER RH 6134324010 67.97$ PILLAR, CENTER BODY, INNER RH 6134326470 49.43$ PILLAR, CENTER BODY, INNER RH 6134330100 28.20$ PILLAR, CENTER BODY, INNER RH
6134330160 28.62$ PILLAR, CENTER BODY, INNER RH 6134330211 54.36$ PILLAR, CENTER BODY, INNER RH 6134330230 67.97$ PILLAR, CENTER BODY, INNER RH 1788120120 28.54$ HOSE, AIR CLEANER, NO.1
6134333903 67.97$ PILLAR, CENTER BODY, INNER RH 6134342900 61.76$ PILLER,CTR BODY 6134348010 121.45$ PILLAR, CENTER BODY, INNER RH 6134350020 142.10$ PILLAR, CENTER BODY, INNER RH
6134350030 84.85$ PILLAR, CENTER BODY, INNER RH 6134350050 74.13$ PILLAR, CENTER BODY, INNER RH 1788122040 27.27$ HOSE, AIR CLEANER, NO.1 6134353020 61.67$ PILLAR, CENTER BODY, INNER RH
1788122070 21.25$ HOSE, AIR CLEANER, NO.1 6134360071 43.54$ КУЗОВНАЯ СТОЙКА 6134360080 70.12$ КУЗОВНАЯ СТОЙКА 1788122090 26.11$ ПАТРУБОК РЕЗИНОВЫЙ
1788122110 26.00$ HOSE, AIR CLEANER, NO.1 1788122130 21.80$ HOSE, AIR CLEANER, NO.1 6134407010 113.64$ PILLAR, CENTER BODY, INNER LH 6134410050 38.70$ PILLAR, CENTER BODY, INNER LH
1788125013 10.45$ HOSE, AIR CLEANER, NO.1 1788126010 6.40$ HOSE, AIR CLEANER, NO.1 6134420120 15.91$ PILLAR, CENTER BODY, INNER LH 6134420902 40.54$ PILLAR, CENTER BODY, INNER LH
6134422909 30.00$ PILLAR, CENTER BODY, INNER LH 1788128060 30.63$ ПАТРУБОК ПЛАСТИКОВЫЙ 6134430100 28.20$ PILLAR, CENTER BODY, INNER LH 1788128070 38.20$ ПАТРУБОК ПЛАСТИКОВЫЙ
6134430130 28.20$ PILLAR, CENTER BODY, INNER LH 1788128080 38.20$ ПАТРУБОК ПЛАСТИКОВЫЙ 6134430221 54.36$ PILLAR, CENTER BODY, INNER LH 6134433010 49.96$ PILLAR, CENTER BODY, INNER LH
1788128150 29.58$ ПАТРУБОК ПЛАСТИКОВЫЙ 6134433020 57.69$ PILLAR, CENTER BODY, INNER LH 6134433903 67.97$ PILLAR, CENTER BODY, INNER LH 1788128170 21.80$ ПАТРУБОК ПЛАСТИКОВЫЙ
6134442900 61.76$ PILLER,CTR BODY 1788128210 26.11$ ПАТРУБОК ПЛАСТИКОВЫЙ 6134450030 84.85$ PILLAR, CENTER BODY, INNER LH 1788128211 23.69$ HOSE, AIR CLEANER, NO.1
6134450050 74.13$ PILLAR, CENTER BODY, INNER LH 1788128220 32.74$ ПАТРУБОК ПЛАСТИКОВЫЙ 6134453020 61.67$ PILLAR, CENTER BODY, INNER LH 6134460071 43.54$ PILLAR, CENTER BODY, INNER LH
6134460080 70.12$ PILLAR, CENTER BODY, INNER LH 1788130030 28.21$ HOSE, AIR CLEANER, NO.1 61344AC010 59.82$ PILLAR, CENTER BODY, INNER LH 6134512040 27.45$ PILLAR, CENTER BODY, INNER LOWER RH
6134612040 27.45$ PILLAR, CENTER BODY, INNER LOWER LH 6134710100 23.81$ REINFORCEMENT, BELT ANCHOR TO CENTER PILLAR, RH 6134810100 23.81$ REINFORCEMENT, BELT ANCHOR TO CENTER PILLAR, LH 1788131080 32.74$ HOSE, AIR CLEANER, NO.1
1788131090 40.93$ HOSE, AIR CLEANER, NO.1 1788131120 40.93$ HOSE, AIR CLEANER, NO.1 6135336010 14.47$ RAIL, NO.3 CENTER OUTER, RH/LH 1788131230 24.36$ HOSE, AIR CLEANER, NO.1
1788131250 32.85$ HOSE, AIR CLEANER, NO.1 6136736010 18.99$ CHANNEL, ROOF DRIP SIDE, CENTER NO.1 1788134040 9.22$ HOSE, AIR CLEANER, NO.1 6136836010 3.86$ CHANNEL, ROOF DRIP SIDE, REAR LH
6137436011 10.03$ RAIL, NO.4 CENTER INNER 6137716030 1.79$ BRACKET, REAR DOOR CHECK ARM, RH/LH 6138326010 75.80$ EXTENSION, CTR BODY 1788135060 4.30$ ПАТРУБОК ПЛАСТИКОВЫЙ
6138426010 75.80$ EXTENSION, CTR BODY 1788135080 7.87$ ПАТРУБОК ПЛАСТИКОВЫЙ 6138526010 24.98$ EXTENSION, CENTER BODY PILLAR, INNER RH 6138890K00 6.23$ PLATE, CENTER BODY PILLAR END, RH
1788135120 9.10$ ПАТРУБОК ПЛАСТИКОВЫЙ 6138990K00 6.23$ PLATE, CENTER BODY PILLAR END, LH 6139195J00 3.14$ SPACER, CENTER BODY PILLAR, INNER 1788138020 66.16$ HOSE, AIR CLEANER, NO.1
6140105010 34.96$ ПОРОГ 1788138050 35.27$ HOSE, AIR CLEANER, NO.1 6140110040 43.20$ ПОРОГ 6140112030 50.16$ PANEL, ROCKER, OUTER RH
6140120250 83.80$ PANEL, ROCKER, OUTER RH 1788142020 26.32$ HOSE, AIR CLEANER, NO.1 6140122030 66.81$ PANEL, ROCKER, OUTER RH 1788143010 26.95$ HOSE, AIR CLEANER, NO.1
6140122080 54.63$ КУЗОВНОЙ УСИЛИТЕЛЬ 6140124901 211.80$ PANEL, ROCKER, OUTER RH 1788143060 36.89$ HOSE, AIR CLEANER, NO.1 6140130230 87.81$ PANEL SUB-ASSY, ROCKER, OUTER RH
1788143070 19.37$ HOSE, AIR CLEANER, NO.1 6140130260 54.79$ REINFORCEMENT, ROCKER PANEL, OUTER RH 6140135030 40.61$ КУЗОВНОЙ УСИЛИТЕЛЬ 1788144030 50.43$ HOSE, AIR CLEANER, NO.1
1788144060 38.34$ HOSE, AIR CLEANER, NO.1 6140148030 62.20$ ПАНЕЛЬ КУЗОВА 6140148901 53.91$ PANEL SUB-ASSY, ROCKER, OUTER RH 1788146080 29.90$ HOSE, AIR CLEANER, NO.1
1788146100 13.58$ HOSE, AIR CLEANER, NO.1 6140150030 139.42$ REINFORCEMENT, ROCKER PANEL, RH 6140150040 87.53$ REINFORCEMENT SUB-ASSY, ROCKER PANEL, RH 6140153020 68.50$ PANEL SUB-ASSY, ROCKER, OUTER RH
6140160010 44.71$ НАКЛАДКА ПОРОГА 1788146170 29.90$ HOSE, AIR CLEANER, NO.2 1788146180 41.05$ ПАТРУБОК ВОЗДУХОЗАБОРНИКА РЕЗИНОВЫЙ 6140190A02 118.69$ PANEL, ROCKER, OUTER RH
1788146200 29.90$ HOSE, AIR CLEANER, NO.1 6140190A06 177.97$ PANEL, ROCKER, OUTER RH 1788146210 29.90$ HOSE, AIR CLEANER, NO.2 6140205010 32.07$ ПОРОГ
1788146260 29.90$ HOSE, AIR CLEANER, NO.1 6140210040 43.20$ ПОРОГ 1788146270 29.90$ HOSE, AIR CLEANER, NO.2 6140212010 50.16$ PANEL, ROCKER, OUTER LH
6140212030 64.49$ PANEL, ROCKER, OUTER LH 6140220160 60.41$ PANEL, ROCKER, OUTER LH 6140220250 83.80$ PANEL, ROCKER, OUTER LH 1788154021 41.41$ ПАТРУБОК ПЛАСТИКОВЫЙ
6140220360 75.26$ PANEL, ROCKER, OUTER LH 1788154060 44.32$ ПАТРУБОК ПЛАСТИКОВЫЙ 6140222030 66.81$ PANEL, ROCKER, OUTER LH 1788154070 36.68$ ПАТРУБОК ПЛАСТИКОВЫЙ
6140222050 87.32$ PANEL, ROCKER, OUTER LH 1788154090 29.88$ ПАТРУБОК ПЛАСТИКОВЫЙ 6140222080 54.63$ REINFORCEMENT, ROCKER PANEL, LH 1788154170 49.02$ ПАТРУБОК ПЛАСТИКОВЫЙ
6140224901 211.80$ PANEL, ROCKER, OUTER LH 6140230220 88.02$ PANEL SUB-ASSY, ROCKER, OUTER LH 6140230230 87.81$ PANEL SUB-ASSY, ROCKER, OUTER LH 1788154220 33.16$ ПАТРУБОК ПЛАСТИКОВЫЙ
6140230260 54.79$ REINFORCEMENT, ROCKER PANEL, OUTER LH 1788154230 26.26$ ПАТРУБОК ПЛАСТИКОВЫЙ 1788154240 43.60$ ПАТРУБОК ПЛАСТИКОВЫЙ 6140232080 81.27$ PANEL, ROCKER, OUTER LH
1788154260 46.11$ ПАТРУБОК ПЛАСТИКОВЫЙ 1788154270 32.53$ ПАТРУБОК ПЛАСТИКОВЫЙ 1788154290 40.11$ ПАТРУБОК ПЛАСТИКОВЫЙ 6140248030 62.20$ PANEL, ROCKER, OUTER LH
6140248901 54.05$ PANEL SUB-ASSY, ROCKER, OUTER LH 6140250010 139.42$ REINFORCEMENT, ROCKER PANEL, LH 1788154360 7.87$ ПАТРУБОК ПЛАСТИКОВЫЙ 6140250020 87.53$ REINFORCEMENT SUB-ASSY, ROCKER PANEL, LH
1788154361 8.01$ ПАТРУБОК ПЛАСТИКОВЫЙ 1788154380 26.84$ ПАТРУБОК ПЛАСТИКОВЫЙ 1788154391 32.22$ ПАТРУБОК ПЛАСТИКОВЫЙ 6140260010 44.71$ НАКЛАДКА ПОРОГА
6140290A06 177.97$ PANEL, ROCKER, OUTER LH 6140305030 171.53$ REINFORCE SUB-ASSY, ROCKER, OUTER RH 1788154490 20.93$ ПАТРУБОК ПЛАСТИКОВЫЙ 614030C906 103.03$ REINFORCE SUB-ASSY, ROCKER, OUTER RH
6140310020 64.33$ REINFORCEMENT, ROCKER PANEL, NO.1 RH 1788154540 35.05$ ПАТРУБОК ПЛАСТИКОВЫЙ 1788154570 27.05$ ПАТРУБОК ПЛАСТИКОВЫЙ 1788154580 43.58$ ПАТРУБОК ПЛАСТИКОВЫЙ
6140326100 86.95$ PANEL, FENDER, INNER RH 6140328010 127.58$ PANEL SUB-ASSY, FENDER, RH 6140336010 21.76$ RAIL SUB-ASSY, NO.6 LOWER OUTER, RH 1788154650 21.91$ ПАТРУБОК ПЛАСТИКОВЫЙ
6140405030 165.51$ REINFORCE SUB-ASSY, ROCKER, OUTER LH 1788154680 29.90$ ПАТРУБОК ПЛАСТИКОВЫЙ 614040C906 103.03$ REINFORCE SUB-ASSY, ROCKER, OUTER LH 6140410020 64.33$ REINFORCEMENT, ROCKER PANEL, NO.1 LH
1788154770 32.88$ ПАТРУБОК ПЛАСТИКОВЫЙ 6140426030 72.69$ PANEL, FENDER, INNER LH 1788154800 25.90$ ПАТРУБОК ПЛАСТИКОВЫЙ 6140428010 127.58$ PANEL SUB-ASSY, FENDER, LH
6140436020 44.71$ RAIL SUB-ASSY, NO.6 LOWER OUTER, RH 1788156030 38.31$ HOSE, AIR CLEANER, NO.1 1788156120 27.27$ HOSE, AIR CLEANER, NO.1 614110C070 54.79$ PANEL, ROCKER, OUTER RH
1788158010 28.52$ HOSE, AIR CLEANER, NO.1 6141112150 44.84$ ПОРОГ 1788158120 22.07$ HOSE, AIR CLEANER, NO.3 6141112550 43.43$ ПОРОГ
6141114320 43.65$ PANEL, ROCKER, OUTER RH 1788158190 32.43$ ПАТРУБОК РЕЗИНОВЫЙ 6141128030 38.38$ ПАНЕЛЬ КУЗОВА 1788158270 29.69$ HOSE, AIR CLEANER, NO.1
6141130230 63.33$ PANEL, ROCKER, OUTER RH 1788158310 29.90$ HOSE, AIR CLEANER, NO.1 6141134010 43.43$ PANEL, ROCKER, OUTER RH 6141135051 141.52$ ПОРОГ
1788161100 36.99$ HOSE, AIR CLEANER, NO.4 6141135061 141.52$ ПОРОГ 1788161120 56.64$ HOSE, AIR CLEANER, NO.1 1788162010 36.95$ ПАТРУБОК ПЛАСТИКОВЫЙ
6141135090 39.68$ КУЗОВНАЯ ПАНЕЛЬ 6141136010 39.56$ RAIL, NO.1 LOWER OUTER, RH 6141142050 38.77$ ПОРОГ 6141143010 62.72$ PANEL, ROCKER, OUTER RH
1788162101 38.31$ ПАТРУБОК ПЛАСТИКОВЫЙ 6141143030 50.06$ PANEL, ROCKER, OUTER RH 1788162110 38.10$ ПАТРУБОК ПЛАСТИКОВЫЙ 6141150010 118.60$ PANEL, ROCKER, OUTER RH
6141150011 123.07$ PANEL, ROCKER, OUTER RH 1788162130 38.31$ ПАТРУБОК ПЛАСТИКОВЫЙ 6141152020 43.65$ КУЗОВНАЯ СТОЙКА 1788162170 38.31$ ПАТРУБОК ПЛАСТИКОВЫЙ
1788162200 28.54$ ПАТРУБОК ПЛАСТИКОВЫЙ 1788163050 15.11$ HOSE, PRECLEANER 6141152100 65.73$ КУЗОВНАЯ СТОЙКА 1788164270 29.90$ HOSE,AIR CLEANE
6141152200 54.58$ PANEL, ROCKER, OUTER RH 1788164280 21.80$ HOSE, AIR CLEANER, NO.1 6141160020 66.37$ КУЗОВНАЯ ПАНЕЛЬ 1788164380 41.05$ HOSE, AIR CLEANER, NO.1
1788164400 27.16$ HOSE, AIR CLEANER, NO.1 1788165010 50.11$ HOSE, AIR CLEANER, NO.1 6141195701 70.97$ ПАНЕЛЬ КРЫЛА 6141195702 76.45$ ПАНЕЛЬ КРЫЛА
1788165030 41.16$ HOSE, AIR CLEANER, NO.1 6141202040 86.42$ PANEL, ROCKER, OUTER LH 6141204030 43.43$ PANEL, ROCKER, OUTER LH 614120C070 54.79$ PANEL, ROCKER, OUTER LH
6141210110 43.94$ PANEL, ROCKER, OUTER LH 6141210130 50.02$ PANEL, ROCKER, OUTER LH 6141212150 44.84$ ПОРОГ 1788166070 43.38$ ПАТРУБОК РЕЗИНОВЫЙ
6141212290 57.20$ ПОРОГ 6141212300 55.10$ ПОРОГ 6141212330 55.10$ ПОРОГ 1788166120 55.05$ ПАТРУБОК РЕЗИНОВЫЙ
6141212550 43.43$ ПОРОГ 1788166150 48.31$ ПАТРУБОК РЕЗИНОВЫЙ 6141214320 43.65$ PANEL, ROCKER, OUTER LH 6141226170 39.24$ НАКЛАДКА ПОРОГА
1788167031 41.05$ ПАТРУБОК ВОЗДУШНОГО ФИЛЬТРА ПЛАСТИКОВЫЙ 6141228010 43.43$ PANEL, ROCKER, OUTER LH 6141235061 141.52$ ПОРОГ 1788167080 43.58$ ПАТРУБОК ВОЗДУШНОГО ФИЛЬТРА ПЛАСТИКОВЫЙ
1788167110 28.21$ ПАТРУБОК ВОЗДУШНОГО ФИЛЬТРА ПЛАСТИКОВЫЙ 6141242012 43.43$ ПОРОГ 6141242030 43.43$ ПОРОГ 1788168050 33.67$ HOSE, AIR CLEANER, NO.1
6141242090 51.12$ ПОРОГ 1788170111 47.27$ HOSE, AIR CLEANER, NO.2 1788170140 20.00$ HOSE, AIR CLEANER, NO.1 6141243010 62.72$ PANEL, ROCKER, OUTER LH
1788170160 37.26$ HOSE, AIR CLEANER, NO.1 6141243030 50.06$ PANEL, ROCKER, OUTER LH 6141250010 118.60$ PANEL, ROCKER, OUTER LH 1788171010 52.54$ HOSE, AIR CLEANER, NO.1
6141250011 123.07$ PANEL, ROCKER, OUTER LH 6141252100 65.73$ КУЗОВНАЯ СТОЙКА 6141252210 54.58$ PANEL, ROCKER, OUTER LH 1788174070 47.07$ ПАТРУБОК РЕЗИНОВЫЙ
6141260020 66.37$ ПОРОГ 1788174160 32.22$ ПАТРУБОК РЕЗИНОВЫЙ 6141289104 43.54$ PANEL, ROCKER, OUTER LH 6141310030 12.66$ REINFORCEMENT, ROCKER PANEL, NO.2 RH
1788174300 24.31$ ПАТРУБОК РЕЗИНОВЫЙ 1788174320 36.53$ ПАТРУБОК РЕЗИНОВЫЙ 1788174360 33.57$ ПАТРУБОК РЕЗИНОВЫЙ 6141328040 50.28$ REINFORCEMENT, ROCKER PANEL, NO.2 RH
6141360010 22.42$ REINFORCEMENT, ROCKER PANEL, NO.2 RH 6141395J01 22.63$ КУЗОВНАЯ ПАНЕЛЬ 1788174400 24.52$ ПАТРУБОК РЕЗИНОВЫЙ 6141410030 12.66$ REINFORCEMENT, ROCKER PANEL, NO.2 LH
1788174420 33.90$ ПАТРУБОК РЕЗИНОВЫЙ 6141412100 23.81$ REINFORCEMENT, ROCKER PANEL, NO.2 LH 1788174440 26.74$ ПАТРУБОК РЕЗИНОВЫЙ 6141428040 50.28$ REINFORCEMENT, ROCKER PANEL, NO.2 LH
6141430050 12.55$ REINFORCEMENT, ROCKER PANEL, NO.2, RH/LH 6141448010 12.73$ УСИЛИТЕЛЬ КУЗОВА 6141495J01 22.63$ REINFORCEMENT, ROCKER PANEL, NO.2 LH 1788174540 30.95$ ПАТРУБОК РЕЗИНОВЫЙ
6141510010 31.09$ EXTENSION, ROCKER, OUTER RH 1788174550 32.85$ ПАТРУБОК РЕЗИНОВЫЙ 6141533040 59.52$ EXTENSION, ROCKER, OUTER RH 6141533060 54.84$ EXTENSION, ROCKER, OUTER RH
6141536010 16.94$ RAIL, NO.5 LOWER OUTER, RH 1788174620 29.69$ ПАТРУБОК РЕЗИНОВЫЙ 61415AC901 50.28$ EXTENSION, ROCKER, OUTER RH 6141626010 11.16$ PANEL, FRONT STEP UNDER, LH
6141633040 59.52$ EXTENSION, ROCKER, OUTER LH 1788174690 29.90$ ПАТРУБОК РЕЗИНОВЫЙ 1788174691 29.69$ ПАТРУБОК РЕЗИНОВЫЙ 6141736011 31.31$ RAIL, NO.7 LOWER OUTER, RH/LH
1788174701 29.69$ ПАТРУБОК РЕЗИНОВЫЙ 6141810030 28.41$ REINFORCEMENT, ROCKER PANEL, RH 1788174730 34.95$ ПАТРУБОК РЕЗИНОВЫЙ 6141833050 13.07$ REINFORCEMENT, ROCKER PANEL, RH/LH
1788174760 35.48$ ПАТРУБОК РЕЗИНОВЫЙ 6141848010 78.83$ REINFORCEMENT, ROCKER PANEL, RH 6141860010 65.62$ КУЗОВНОЙ УСИЛИТЕЛЬ 6141860030 88.13$ КУЗОВНОЙ УСИЛИТЕЛЬ
1788174880 26.95$ ПАТРУБОК РЕЗИНОВЫЙ 6141910020 28.41$ REINFORCEMENT, ROCKER PANEL, LH 6141948010 78.83$ REINFORCEMENT, ROCKER PANEL, LH 6141960010 65.62$ REINFORCEMENT, ROCKER PANEL, LH
1788175041 41.05$ HOSE, AIR CLEANER, NO.1 6141960020 88.13$ REINFORCEMENT, ROCKER PANEL, LH 1788175050 35.26$ HOSE, AIR CLEANER, NO.1 6142310030 27.13$ REINFORCEMENT, ROCKER PANEL, NO.3 RH
1788175060 38.42$ HOSE, AIR CLEANER, NO.1 6142330050 5.31$ REINFORCEMENT, ROCKER PANEL, NO.3, RH/LH 6142348010 5.89$ УСИЛИТЕЛЬ ПАНЕЛИ 1788175160 32.43$ HOSE, AIR CLEANER, NO.1
6142428010 12.66$ PANEL, FENDER, INNER LOWER LH 1788175170 31.05$ HOSE, AIR CLEANER, NO.1 6142430050 5.31$ REINFORCEMENT, ROCKER PANEL, NO.3, RH/LH 6142448010 5.89$ REINFORCEMENT, ROCKER PANEL, NO.3 LH
6142490504 24.40$ WEATHERSTRIP, SIDE LOWER WINDOW GLASS 1788176040 20.54$ HOSE, AIR CLEANER, NO.1 6142530020 13.05$ REINFORCEMENT, ROCKER PANEL, NO.4, RH/LH 6142636010 16.09$ RAIL, NO.6 LOWER OUTER, LH
6142730050 29.63$ REINFORCEMENT, ROCKER PANEL, NO.5 RH 6142730051 26.14$ REINFORCEMENT, ROCKER PANEL, NO.5 RH 1788178021 49.69$ HOSE, AIR CLEANER, NO.1 6142748010 28.15$ REINFORCEMENT, ROCKER PANEL, NO.5 RH
6142748060 39.54$ REINFORCEMENT, ROCKER PANEL, NO.5 RH 6142750020 43.31$ REINFORCEMENT, ROCKER PANEL, NO.5 RH 1788211030 9.91$ HOSE, AIR CLEANER, NO.2 1788214020 32.32$ HOSE, AIR CLEANER, NO.3
1788216100 12.53$ HOSE, AIR CLEANER, NO.4 6142830101 26.14$ REINFORCEMENT, ROCKER PANEL, NO.5 LH 1788216110 10.74$ HOSE, AIR CLEANER, NO.2 6142830150 39.42$ УСИЛИТЕЛЬ ПАНЕЛИ
1788216190 23.42$ HOSE, AIR CLEANER, NO.2 6142848010 28.15$ REINFORCEMENT, ROCKER PANEL, NO.5 LH 1788217020 41.05$ ПАТРУБОК ПЛАСТИКОВЫЙ 6142848060 39.54$ REINFORCEMENT, ROCKER PANEL, NO.5 LH
6142850020 43.31$ REINFORCEMENT, ROCKER PANEL, NO.5 LH 6142850040 43.71$ REINFORCEMENT, ROCKER PANEL, NO.5 LH 1788220140 13.70$ HOSE, AIR CLEANER, NO.2 1788220160 20.27$ ПАТРУБОК РЕЗИНОВЫЙ
1788227020 15.44$ HOSE, AIR CLEANER, NO.2 6143136020 18.45$ RAIL, NO.1 LOWER INNER, RH 6143228030 51.25$ PANEL, ROCKER, OUTER REAR LH 6143243010 29.49$ PANEL, ROCKER, OUTER REAR LH
6143326010 20.27$ PANEL, ROCKER, INNER RH 6143330020 9.21$ REINFORCEMENT, ROCKER PANEL, OUTER RH 1788231110 37.26$ HOSE, AIR CLEANER, NO.2 6143333020 13.95$ REINFORCEMENT, ROCKER PANEL, OUTER RH
1788234080 40.75$ HOSE, AIR CLEANER, NO.2 6143350010 15.42$ REINFORCEMENT, ROCKER PANEL, OUTER RH 6143426010 20.27$ PANEL, ROCKER, INNER LH 6143430020 8.89$ REINFORCEMENT, ROCKER PANEL, OUTER LH
6143433020 13.95$ REINFORCEMENT, ROCKER PANEL, OUTER LH 1788242020 44.00$ HOSE, AIR CLEANER, NO.2 1788242030 25.69$ HOSE, AIR CLEANER, NO.2 1788242H00 45.90$ HOSE, AIR CLEAN
6145128010 21.12$ PANEL, ROCKER, OUTER RH 1788243080 32.85$ HOSE, AIR CLEANER, NO.2 6146126010 49.62$ PANEL, ROCKER, OUTER LH 1788244061 12.01$ HOSE, AIR CLEANER, NO.2
6146146010 62.19$ ПАНЕЛЬ КУЗОВА 6146190B00 91.18$ PANEL, ROCKER, OUTER LH 1788254140 11.15$ ПАТРУБОК РЕЗИНОВЫЙ 6146336010 6.37$ PANEL, ROCKER, INNER REAR LH
1788254150 26.74$ ПАТРУБОК РЕЗИНОВЫЙ 1788254190 29.74$ ПАТРУБОК РЕЗИНОВЫЙ 6146590B00 32.19$ PANEL, FRONT DOOR STEP SIDE, LH 1788254261 13.68$ ПАТРУБОК РЕЗИНОВЫЙ
1788254262 13.68$ ПАТРУБОК РЕЗИНОВЫЙ 6147590B00 0.96$ BRACKET, CENTER RAIL INSIDE CUSHION, NO.1 1788254321 27.16$ ПАТРУБОК РЕЗИНОВЫЙ 6148560020 3.10$ PLATE, LOWER RAIL
6149126010 2.68$ PLATE, NO.3 LOWER RAIL, INNER, RH/LH 1788254350 29.79$ ПАТРУБОК РЕЗИНОВЫЙ 6150134050 80.20$ PILLAR, QUARTER LOCK, RH 6150136021 30.24$ RAIL SUB-ASSY, SEAT ANCHOR, LH
6150189116 72.30$ PILLAR, QUARTER LOCK, RH 1788254440 29.33$ ПАТРУБОК РЕЗИНОВЫЙ 1788254460 17.36$ ПАТРУБОК РЕЗИНОВЫЙ 6150190313 523.18$ PANEL ASSY, REAR UPPER SIDE, RH
6150190K00 145.81$ PILLAR SUB-ASSY, CAB REAR, UPPER RH 1788256020 46.85$ HOSE, AIR CLEANER, NO.2 6150190K02 144.74$ PILLAR SUB-ASSY, CAB REAR, UPPER RH 6150204030 95.95$ PILLAR, QUARTER LOCK, LH
6150236010 33.46$ RAIL SUB-ASSY, NO.2 SEAT ANCHOR, RH/LH 1788261030 16.59$ HOSE, AIR CLEANER, NO.3 6150289119 72.30$ PILLAR, QUARTER LOCK, LH 6150290317 489.66$ PANEL ASSY, REAR UPPER SIDE,LH
6150290K00 145.81$ PILLAR SUB-ASSY, CAB REAR, UPPER LH 6150290K02 144.74$ PILLAR SUB-ASSY, CAB REAR, UPPER LH 1788263030 25.39$ HOSE, AIR CLEANER, NO.2 1788263110 15.35$ HOSE, AIR CLEANER, NO.3
615030C901 335.79$ REINFORCEMENT SUB-ASSY, QUARTER LOCK PILLAR, RH 1788264050 13.05$ HOSE, AIR CLEANER, NO.4 6150326030 8.86$ REINFORCE SUB-ASSY, SLIDE DOOR LOCK STRIKER, RH/LH 6150330390 11.38$ REINFORCEMENT SUB-ASSY, QUARTER LOCK PILLAR, RH
6150336010 29.81$ RAIL SUB-ASSY, NO.3 SEAT ANCHOR 6150336050 32.77$ RAIL SUB-ASSY, NO.3 SEAT ANCHOR 1788268020 36.47$ HOSE, AIR CLEANER, NO.2 615040C903 150.03$ REINFORCEMENT SUB-ASSY, QUARTER LOCK PILLAR, LH
1788270010 37.89$ HOSE, AIR CLEANER, NO.2 615040K010 46.29$ REINFORCEMENT SUB-ASSY, QUARTER LOCK PILLAR, LH 1788270060 39.17$ HOSE, AIR CLEANER, NO.2 6150430440 11.38$ REINFORCEMENT SUB-ASSY, QUARTER LOCK PILLAR, LH
1788270071 25.06$ HOSE, AIR CLEANER, NO.3 6150437020 39.71$ REINFORCEMENT SUB-ASSY, QUARTER LOCK PILLAR, LH 1788274010 42.60$ ПАТРУБОК ВОЗДУХОЗАБОРНИКА ПЛАСТИКОВЫЙ 6150636011 31.20$ RAIL SUB-ASSY, NO.6
1788274040 25.50$ ПАТРУБОК ВОЗДУХОЗАБОРНИКА ПЛАСТИКОВЫЙ 1788274080 8.86$ ПАТРУБОК ВОЗДУХОЗАБОРНИКА ПЛАСТИКОВЫЙ 6150760050 90.71$ PILLAR SUB-ASSY, CAB REAR, LOWER RH 1788274171 13.58$ ПАТРУБОК ВОЗДУХОЗАБОРНИКА ПЛАСТИКОВЫЙ
6150836020 38.92$ RAIL SUB-ASSY, NO.8 SEAT ANCHOR, RH 6150836060 38.92$ RAIL SUB-ASSY, NO.8 SEAT ANCHOR, RH 6150860010 90.71$ PILLAR SUB-ASSY, CAB REAR, LOWER LH 1788275030 23.37$ HOSE, AIR CLEANER, NO.2
615110C030 62.08$ PILLAR, QUARTER LOCK, RH 1788275090 24.11$ HOSE, AIR CLEANER, NO.2 6151120910 40.75$ PILLAR QUARTER 6151126070 37.00$ PILLAR, QUARTER LOCK, RH
6151160030A0 7.78$ RAIL, SEAT ANCHOR, NO.1 1788289107 16.84$ HOSE, AIR CLEANER, NO.2 6151160030B0 7.78$ RAIL, SEAT ANCHOR, NO.1 1788289109 12.95$ HOSE, AIR CLEANER, NO.2
6151190A01 91.82$ PILLAR, QUARTER LOCK, RH 1788289114 4.51$ HOSE, AIR CLEANER, NO.2 6151220910 40.75$ PILLAR QUARTER 1788289121 15.69$ HOSE, COOL AIR INTAKE
6151260030A0 15.55$ RAIL, SEAT ANCHOR, NO.2 RH 1788295J00 21.05$ HOSE, COOL AIR INTAKE 6151260030B0 15.55$ RAIL, SEAT ANCHOR, NO.2 RH 1788316030 21.96$ HOSE, AIR CLEANER, NO.3
6151290A01 91.82$ PILLAR, QUARTER LOCK, LH 1788316031 27.16$ HOSE, AIR CLEANER, NO.3 6151360030A0 10.37$ RAIL, SEAT ANCHOR, NO.3 1788316040 21.83$ HOSE, AIR CLEANER, NO.3
6151360030B0 10.37$ RAIL, SEAT ANCHOR, NO.3 6151395A01 22.59$ ORNAMENT SUB-ASSY, REAR VENTILATOR, LH 1788316050 10.74$ HOSE, AIR CLEANER, NO.3 1788354111 14.00$ HOSE, AIR CLEANER, NO.3
1788354180 24.42$ HOSE, AIR CLEANER, NO.3 1788358040 14.64$ HOSE, AIR CLEANER, NO.3 6151546010 27.77$ EXTENSION, QUARTER LOCK PILLAR, RH 1788358050 15.59$ HOSE, AIR CLEANER, NO.2
6151628040 23.81$ EXTENSION, QUARTER LOCK PILLAR, LH 1788361030 14.40$ HOSE, AIR CLEANER, NO.3 6152528040 31.20$ REINFORCEMENT, QUARTER LOCK PILLER, UPPER RH 1788362011 30.15$ HOSE, AIR CLEANER, NO.4
6152726030 10.03$ REINFORCEMENT, QUARTER LOCK PILLER, LOWER RH 6152728030 31.52$ REINFORCEMENT, QUARTER LOCK PILLER, LOWER RH 1788363030 40.62$ HOSE, AIR CLEANER, NO.4 1788364050 4.83$ HOSE, AIR CLEANER, NO.3
1788373030 21.80$ HOSE, AIR CLEANER, NO.3 6152828010 55.43$ КУЗОВНАЯ СТОЙКА 1788375010 16.87$ HOSE, AIR CLEANER, NO.3 6153189124 52.75$ PANEL, CAB REAR PILLAR, INNER RH
1788375030 16.95$ HOSE, AIR CLEANER, NO.3 6153235040 41.49$ PANEL, CAB REAR PILLAR, INSIDE LH 1788375040 13.58$ HOSE, AIR CLEANER, NO.3 6154628010 18.67$ PANEL SUB-ASSY, CAB REAR PILLAR, INNER LH
1788395019 21.26$ HOSE, AIR CLEANER, NO.3 6154736010 2.85$ GUSSET, SEAT ANCHOR, NO.7 LH 61547AA010 10.65$ КРОНШТЕЙН КУЗОВНОЙ 1788395A00 19.37$ HOSE, AIR CLEANER, NO.3
61548AA010 10.65$ REINFORCEMENT, QUARTER PILLAR, INNER LH 1788395A02 19.07$ HOSE, AIR CLEANER, NO.3 6155736020 18.77$ GUSSET, PILLAR TO RAIL, NO.2 1788414010 22.01$ BOX, AIR CLEANER, NO.1
1788474030 9.58$ HOSE, AIR CLEANER, NO.4 1788554210 6.33$ PIPE, AIR CLEANER 1788558070 38.55$ CONNECTOR, INTAKE AIR 6159336010 2.32$ BRACKET, STIFFENER, NO.3
1788571010 20.42$ CONNECTOR, INTAKE AIR 1788573100 44.53$ PIPE, AIR CLEANER 6160101080 233.72$ PANEL, QUARTER, RH 1788671010 13.16$ PIPE SUB-ASSY, AIR CLEANER, NO.2
6160102906 269.45$ PANEL, QUARTER, RH 1788673030 30.63$ PIPE SUB-ASSY, AIR CLEANER, NO.2 6160102907 269.45$ PANEL, QUARTER, RH 1788914010 67.16$ BOX, AIR CLEANER HOSE, NO.2
6160102908 269.45$ PANEL, QUARTER, RH 6160106030 379.13$ PANEL, QUARTER, RH 6160106040 379.13$ PANEL, QUARTER, RH 1789050020 84.63$ HOSE, AIR CLEANER, NO.2
6160107901 302.10$ PANEL, QUARTER, RH 1789050030 107.26$ HOSE, AIR CLEANER, NO.2 6160107902 252.09$ PANEL, QUARTER, RH 1789135010 1.93$ CLAMP, AIR CLEANER HOSE
1789135020 2.35$ CLAMP(FOR AIR CLEANER HOSE, NO.3) 6160110908 200.05$ PANEL, QUARTER, RH 1789138010 3.64$ CLAMP, AIR CLEANER HOSE 6160112914 154.19$ PANEL, QUARTER, RH
1789302010 38.52$ RESONATOR, INTAKE AIR 6160112917 315.37$ PANEL, QUARTER, RH 1789303041 22.53$ ВОЗДУХОЗАБОРНИК 1789303110 15.59$ ВОЗДУХОЗАБОРНИК
178930A020 13.89$ RESONATOR, INTAKE AIR 178930C010 8.50$ RESONATOR, INTAKE AIR 178930D010 28.49$ ВОЗДУХОЗАБОРНИК 6160112A80 180.65$ PANEL, QUARTER, RH
6160113381 264.34$ КРЫЛО ЗАДНЕЕ 1789316060 6.20$ RESONATOR, INTAKE AIR 6160113391 264.34$ КРЫЛО ЗАДНЕЕ 6160113530 269.45$ КРЫЛО ЗАДНЕЕ
6160113531 266.39$ КРЫЛО ЗАДНЕЕ 6160113550 191.88$ КРЫЛО ЗАДНЕЕ 1789320010 14.42$ RESONATOR, INTAKE AIR 1789320030 15.38$ RESONATOR, INTAKE AIR
6160113560 191.88$ КРЫЛО ЗАДНЕЕ 6160113561 191.88$ PANEL SUB-ASSY 1789320040 11.08$ RESONATOR, INTAKE AIR 6160113610 268.43$ КРЫЛО ЗАДНЕЕ
1789320060 21.36$ RESONATOR, INTAKE AIR 6160113906 201.94$ КРЫЛО ЗАДНЕЕ 6160116820 269.45$ PANEL, QUARTER, RH 1789320110 20.11$ RESONATOR, INTAKE AIR
6160116926 272.52$ КРЫЛО ПЕРЕДНЕЕ 1789321020 22.24$ RESONATOR, INTAKE AIR 6160117170 327.63$ КУЗОВНАЯ ПАНЕЛЬ 6160117180 130.03$ КУЗОВНАЯ ПАНЕЛЬ
6160117190 136.76$ КУЗОВНАЯ ПАНЕЛЬ 616011A760 280.68$ PANEL, QUARTER, RH 616011A800 146.75$ PANEL, QUARTER, RH 616011A810 146.75$ PANEL, QUARTER, RH
616011A900 209.23$ PANEL, QUARTER, RH 616011A901 176.24$ PANEL, QUARTER, RH 616011B030 328.63$ PANEL, QUARTER, RH 616011B270 180.91$ PANEL, QUARTER, RH
616011B914 307.42$ PANEL, QUARTER, RH 616011B915 307.42$ PANEL, QUARTER, RH 1789331010 6.08$ RESONATOR, INTAKE AIR 616011B916 307.42$ PANEL, QUARTER, RH
1789331020 5.18$ RESONATOR, INTAKE AIR 616011B918 307.42$ PANEL, QUARTER, RH 616011B919 307.42$ PANEL, QUARTER, RH 1789331040 10.30$ RESONATOR, INTAKE AIR
1789331050 4.99$ RESONATOR, INTAKE AIR 616011C020 235.77$ PANEL, QUARTER, RH 1789331070 7.61$ RESONATOR, INTAKE AIR 616011C340 217.40$ PANEL SUB-ASSY, QUARTER, RH
616011C350 217.40$ PANEL SUB-ASSY, QUARTER, RH 616011C370 240.87$ PANEL, QUARTER, RH 616011C390 240.87$ PANEL, QUARTER, RH 1789331110 2.98$ RESONATOR, INTAKE AIR
616011E900 182.85$ PANEL, QUARTER, RH 1789338020 16.45$ RESONATOR, INTAKE AIR 616011E918 259.61$ PANEL, QUARTER, RH 616011E919 316.39$ PANEL, QUARTER, RH
1789346060 18.01$ RESONATOR, INTAKE AIR 616011E920 259.61$ PANEL, QUARTER, RH 1789346080 37.89$ RESONATOR, INTAKE AIR 616011E922 316.39$ PANEL, QUARTER, RH
616011E923 295.98$ PANEL, QUARTER, RH 1789346110 19.73$ RESONATOR, INTA 616011E930 315.37$ PANEL, QUARTER, RH 1789346141 28.10$ RESONATOR, INTAKE AIR
616011E931 316.39$ КРЫЛО ЗАДНЕЕ 1789354110 22.11$ RESONATOR, INTAKE AIR 1789354250 28.00$ RESONATOR, INTAKE AIR 616011E934 268.43$ PANEL, QUARTER, RH
1789362040 6.59$ RESONATOR, INTAKE AIR 616011E943 268.43$ PANEL, QUARTER, RH 616011E944 268.43$ PANEL, QUARTER, RH 616011E945 262.30$ PANEL, QUARTER, RH
1789364030 13.05$ РЕЗОНАТОР ВОЗДУШНОГО ФИЛЬТРА 616011E946 235.77$ PANEL SUB-ASSY 1789364040 18.53$ РЕЗОНАТОР ВОЗДУШНОГО ФИЛЬТРА 616011G012 290.88$ PANEL, QUARTER, RH
616011G080 297.01$ PANEL, QUARTER, RH 616011H130 224.54$ КРЫЛО ЗАДНЕЕ 616011H200 252.09$ PANEL, QUARTER, RH 1789374110 22.01$ RESONATOR, INTAKE AIR
1789374190 38.78$ RESONATOR, INTAKE AIR 6160120908 157.81$ PANEL, QUARTER, RH 1789374230 11.27$ RESONATOR, INTAKE AIR 6160120910 160.32$ PANEL, QUARTER, RH
1789374240 7.92$ RESONATOR, INTAKE AIR 6160120915 233.72$ PANEL, QUARTER, RH 1789374250 7.85$ RESONATOR, INTAKE AIR 1789374270 22.11$ RESONATOR, INTAKE AIR
6160121180 412.33$ PANEL, QUARTER, RH 1789374290 59.57$ RESONATOR, INTAKE AIR 6160121200 232.70$ PANEL, QUARTER, RH 6160122550 189.97$ PANEL, QUARTER, RH
1789374340 55.68$ РЕЗОНАТОР ВОЗДУШНОГО ФИЛЬТРА 6160122952 240.61$ PANEL, QUARTER, RH 1789374350 18.11$ RESONATOR, INTAKE AIR 6160122963 257.19$ PANEL S/A, QUAR
1789374380 22.53$ RESONATOR, INTAKE AIR 6160122969 274.54$ PANEL, QUARTER, RH 1789374410 4.19$ RESONATOR, INTAKE AIR 6160122971 237.44$ PANEL S/A, QUAR
6160122975 446.01$ PANEL, QUARTER, RH 6160122976 404.17$ PANEL, QUARTER, RH 1789375020 13.68$ RESONATOR, INTAKE AIR 6160122977 402.44$ PANEL, QUARTER, RH
1789375040 12.84$ RESONATOR, INTAKE AIR 6160124909 239.51$ PANEL, QUARTER, RH 6160124910 178.90$ PANEL, QUARTER, RH 1789375070 10.24$ RESONATOR, INTAKE AIR
6160124911 217.63$ PANEL, QUARTER, RH 6160126100 269.45$ PANEL, QUARTER, RH 178940H020 11.38$ RESONATOR, INTAKE AIR, NO.2 6160126180 215.36$ PANEL, QUARTER, RH
1789415020 13.16$ RESONATOR, INTAKE AIR, NO.2 1789415030 12.84$ RESONATOR, INTAKE AIR, NO.2 6160126500 457.24$ PANEL, QUARTER, RH 1789415040 12.74$ RESONATOR, INTAKE AIR, NO.2
6160126710 401.10$ PANEL, QUARTER, RH 6160126730 271.49$ PANEL, QUARTER, RH 1789416070 12.74$ RESONATOR, INTAKE AIR, NO.2 6160126740 498.06$ PANEL, QUARTER, RH
1789416080 12.74$ RESONATOR, INTAKE AIR, NO.2 6160128280 323.54$ PANEL, QUARTER, RH 6160128A60 187.80$ PANEL, QUARTER, RH 1789420020 22.11$ RESONATOR, INTAKE AIR, NO.2
6160128A70 187.80$ PANEL, QUARTER, RH 616012B090 163.01$ PANEL, QTR, RH 1789428090 16.53$ RESONATOR, INTAKE AIR, NO.2 616012B200 328.63$ PANEL, QUARTER, RH
616012B500 322.52$ PANEL, QUARTER, RH 616012B530 327.63$ PANEL, QUARTER, RH 616012B540 327.63$ PANEL, QUARTER, RH 1789454050 4.97$ BRACKET, RESONATOR
616012B580 327.63$ PANEL, QUARTER, RH 1789454100 6.27$ BRACKET, RESONATOR 616012B760 361.30$ PANEL, QUARTER, RH 1789454170 21.48$ RESONATOR, INTAKE AIR
616012B900 181.52$ PANEL, QUARTER, RH 1789462010 20.74$ RESONATOR, INTAKE AIR, NO.2 616012B901 212.39$ PANEL, QUARTER, RH 616012B904 256.19$ PANEL, QUARTER, RH
616012B905 254.14$ PANEL, QUARTER, RH 1789462030 20.84$ RESONATOR, INTAKE AIR, NO.2 616012B906 254.14$ PANEL, QUARTER, RH 1789464020 20.65$ RESONATOR, INTAKE AIR, NO.2
616012B907 254.14$ PANEL, QUARTER, RH 616012B911 359.26$ PANEL, QUARTER, RH 1789474040 20.11$ RESONATOR, INTAKE AIR, NO.2 616012B912 251.07$ PANEL, QUARTER, RH
1789474050 20.11$ RESONATOR, INTAKE AIR, NO.2 616012B916 378.05$ КРЫЛО ЗАДНЕЕ 1789474070 15.79$ RESONATOR, INTAKE AIR, NO.2 616012D100 227.61$ КРЫЛО ЗАДНЕЕ
1789631020 33.68$ RESONATOR SUB-ASSY, INTAKE AIR 616012D904 361.30$ PANEL S/A, QUARTER 616012F070 498.06$ PANEL, QUARTER, RH 616012J240 409.28$ ПАНЕЛЬ КУЗОВА
1789774010 1.63$ PLATE, RESONATOR CONTROL 616012J280 409.28$ PANEL, QUARTER, RH 1790216011 35.96$ SHROUD SUB-ASSY 1790241012 29.54$ INSULATOR, EXHAUST MANIFOLD HEAT, NO.1
616012J360 304.14$ PANEL, QUARTER, RH 1790463020 17.20$ INSULATOR, EXHAUST MANIFOLD HEAT, NO.3 1790746020 38.84$ INLET SUB-ASSY, COOL AIR 6160130913 328.63$ PANEL, QUARTER, RH
1790754010 21.69$ INLET SUB-ASSY, COOL AIR 6160130916 328.63$ PANEL, QUARTER, RH 6160130917 255.39$ PANEL, QUARTER, RH 1790946010 34.37$ DUCT SUB-ASSY, INTERCOOLER COOLING AIR
6160130920 294.43$ PANEL, QUARTER, RH 1790946030 34.27$ DUCT SUB-ASSY, INTERCOOLER COOLING AIR 6160132290 254.14$ PANEL, QUARTER, RH 6160132310 352.12$ PANEL SUB-ASSY, QUARTER, RH
1790946070 18.01$ DUCT SUB-ASSY, INTERCOOLER COOLING AIR 6160132320 262.30$ PANEL SUB-ASSY, QUARTER, RH 1790946100 18.01$ DUCT SUB-ASSY, INTERCOOLER COOLING AIR 6160132916 157.81$ PANEL, QUARTER, RH
179400B010 363.12$ INTERCOOLER ASSY 6160132923 204.73$ PANEL S/A,QUART 6160132933 352.12$ PANEL SUB-ASSY 1794026020 481.01$ INTERCOOLER ASSY
6160133011 232.73$ PANEL, QUARTER, RH 1794030010 418.08$ INTERCOOLER ASSY 6160133021 232.73$ PANEL, QUARTER, RH 6160133240 312.32$ PANEL, QUARTER, RH
1794046040 514.68$ INTERCOOLER ASSY 6160133250 312.32$ КРЫЛО ЗАДНЕЕ 1794046070 618.88$ INTERCOOLER ASSY 1794046130 436.79$ INTERCOOLER ASSY
1794058020 459.96$ INTERCOOLER ASSY 6160133260 312.32$ КРЫЛО ЗАДНЕЕ 1794064021 355.76$ INTERCOOLER ASSY 1794064022 338.91$ INTERCOOLER ASSY
6160133270 317.33$ ПАНЕЛЬ КРЫЛА 1794064023 339.96$ РЕСИВЕР КОНДИЦИОНЕРА АВТОМОБИЛЯ 6160133290 317.33$ PANEL, QUARTER, RH 1794067030 497.84$ INTERCOOLER ASSY
1794074060 932.43$ INTERCOOLER ASSY 1794078050 319.97$ INTERCOOLER ASSY 1794330010 20.42$ PROTECTOR, INTERCOOLER 6160133330 200.39$ БОКОВИНА ЗАДНЯЯ ПРАВАЯ
1794388380 37.68$ PROTECTOR, INTERCOOLER 6160133905 252.09$ PANEL, QUARTER, RH 6160133906 300.32$ PANEL, QUARTER, RH 1794530010 3.40$ BRACKET, INTERCOOLER SUPPORT
1794567010 2.13$ BRACKET, INTERCOOLER SUPPORT 6160133913 300.32$ БОКОВИНА ЗАДНЯЯ ПРАВАЯ 6160133914 333.75$ PANEL SUB-ASSY, QUARTER, RH 1797154020 22.11$ INLET, COOL AIR, NO.1
6160133919 233.72$ PANEL S/A, QUAR 1797154040 19.69$ INLET, COOL AIR, NO.1 1797162010 7.98$ INLET, COOL AIR, NO.1 6160143900 327.63$ PANEL SUB-ASSY, QUARTER, RH
6160143902 328.63$ PANEL SUB-ASSY, QUARTER, RH 1797995J00 6.26$ ORNAMENT, COOL AIR 6160143904 298.03$ PANEL SUB-ASSY, QUARTER, RH 1797995J01 6.87$ ORNAMENT, COOL AIR
6160143905 223.56$ PANEL SUB-ASSY, QUARTER, RH 1831447012 1.53$ KNOB,S/MIRROR 6160144010 265.36$ PANEL, QUARTER, RH 1840742010 10.11$ PROTECTOR, CATALYTIC CONVERTER
6160144020 265.36$ PANEL, QUARTER, RH 1842120010 8.16$ STAY, CONVERTER PROTECTOR, LH 6160147040 200.05$ PANEL, QUARTER, RH 1842150010 3.88$ STAY, CONVERTER PROTECTOR, LH
1843120010 9.82$ INSULATOR, CATALYTIC CONVERTER, UPPER 1843220011 13.79$ INSULATOR, CATALYTIC CONVERTER, LOWER 6160147090 163.97$ PANEL, QUARTER, RH 1843461020 47.46$ COVER, CONVERTER INSULATOR, LOWER
6160148020 29.89$ PANEL SUB-ASSY, QUARTER, OUTER RH 1843511020 9.55$ PROTECTOR, MONOLITHIC CONVERTER 6160150011 442.69$ PANEL, QUARTER, RH 1843511030 13.79$ PROTECTOR, CATALYTIC CONVERTER
6160150021 443.88$ PANEL, QUARTER, RH 1843511040 10.84$ PROTECTOR, CATALYTIC CONVERTER 6160150030 537.39$ PANEL, QUARTER, RH 1843516190 9.55$ PROTECTOR, MONOLITHIC CONVERTER
6160150040 372.04$ PANEL, QUARTER, RH 1843520020 13.58$ ГЛУШИТЕЛЯ ЧАСТЬ 1843566020 15.75$ PROTECTOR, MONOLITHIC CONVERTER 1843646040 6.02$ PROTECTOR, MONOLITHIC CONVERTER, NO.1
6160152010 211.27$ КРЫЛО ЗАДНЕЕ 1843674020 17.68$ PROTECTOR, CATALYTIC CONVERTER 6160152020 215.36$ PANEL, QUARTER, RH 6160152030 215.36$ PANEL, QUARTER, RH
1845011060 522.96$ CONVERTER ASSY, W/CATALYST 6160152040 310.27$ PANEL, QUARTER, RH 1845011120 544.16$ CONVERTER ASSY, W/CATALYST 6160152050 310.27$ PANEL, QUARTER, RH
1845015070 528.36$ CONVERTER ASSY, W/CATALYST 6160152060 252.09$ PANEL, QUARTER, RH 1845016190 502.24$ CONVERTER ASSY, W/CATALYST 6160152070 252.09$ КРЫЛО ЗАДНЕЕ
1845016610 659.93$ CONVERTER ASSY, W/CATALYST 6160152140 172.49$ КРЫЛО ЗАДНЕЕ 1845016730 506.26$ CONVERTER ASSY, W/CATALYST 6160152150 271.49$ PANEL, QUARTER, RH
6160152200 252.09$ КРЫЛО ЗАДНЕЕ 1845020210 497.84$ КАТАЛИЗАТОР 6160152220 252.09$ PANEL, QUARTER, RH 1845035080 662.03$ CONVERTER ASSY, W/CATALYST
6160152240 172.49$ PANEL, QUARTER, RH 6160152241 172.49$ PANEL SUB-ASSY 1845050040 559.94$ КАТАЛИЗАТОР 6160152270 176.58$ КРЫЛО ЗАДНЕЕ
1845050070 608.36$ КАТАЛИЗАТОР 6160152290 202.09$ PANEL, QUARTER, RH 1845050160 579.04$ КАТАЛИЗАТОР 6160152330 176.58$ PANEL, QUARTER, RH
1845050210 708.02$ КАТАЛИЗАТОР 1845050211 708.02$ КАТАЛИЗАТОР 1845050230 640.91$ КАТАЛИЗАТОР 6160152370 221.47$ PANEL SUB-ASSY
1845050231 642.22$ КАТАЛИЗАТОР 6160152400 220.45$ PANEL, QUARTER, RH 1845062080 794.65$ CONVERTER ASSY, W/CATALYST 6160152450 160.25$ PANEL, QUARTER, RH
1845065070 585.20$ CONVERTER ASSY, W/CATALYST 6160152530 167.38$ PANEL, QUARTER, RH 6160153011 232.70$ PANEL, QUARTER, RH 6160153020 313.69$ PANEL, QUARTER, RH
1845070060 532.52$ CONVERTER ASSY, W/CATALYST 1845070090 695.72$ CONVERTER ASSY, W/CATALYST 6160153031 277.21$ PANEL, QUARTER, RH 1845070110 574.67$ CONVERTER ASSY, W/CATALYST
1845074300 825.18$ CONVERTER ASSY, W/CATALYST 6160163010 224.54$ PANEL, QUARTER, RH 1845074460 830.43$ CONVERTER ASSY, W/CATALYST 6160168030 208.20$ PANEL SUB-ASSY, QUARTER, OUTER RH
1845076060 612.56$ CONVERTER ASSY, W/CATALYST 1845076120 586.89$ CONVERTER ASSY, W/CATALYST 1846020020 420.88$ CONVERTER ASSY, MONOLITHIC, LH 6160190850 420.50$ PANEL ASSY, REAR BODY SIDE, RH
1846050030 708.02$ CONVERTER ASSY, W/CATALYST 6160191642 262.30$ PANEL, QUARTER, RH 1846050031 708.02$ CONVERTER ASSY, W/CATALYST 6160191695 433.74$ PANEL, QUARTER, RH
1849116020 1.44$ FLANGE, THERMOSENSOR INLET 6160191696 265.94$ PANEL, QUARTER, RH 1849128010 3.16$ FLANGE, THERMOSENSER INLET 6160191697 220.12$ PANEL, QUARTER, RH
6160191710 267.52$ PANEL, QUARTER, RH 6160191798 338.76$ PANEL, QUARTER, RH 6160195907 245.14$ PANEL, QUARTER, RH 6160195D32 327.63$ PANEL, QUARTER, RH
1881002310 226.06$ RELAY ASSY DRIVE CONTROL 6160195G46 380.70$ PANEL, QUARTER, RH 1882613521 4.95$ НЕ ПОСТАВЛЯЕТСЯ 6160195J83 274.54$ PANEL, QUARTER, RH
6160195N05 269.45$ PANEL, QUARTER, RH 190000D191 4246.68$ ENGINE ASSY, PARTIAL 6160195N08 269.45$ PANEL, QUARTER, RH 190000H150 4612.94$ ENGINE ASSY, PARTIAL
190000L100 4999.00$ ENGINE ASSY, PA 1900011230 2621.17$ ENGINE ASSY, PARTIAL 6160195N42 236.79$ PANEL, QUARTER, RH 1900011350 2738.10$ ENGINE ASSY, PARTIAL
61601AA900 253.12$ PANEL SUB-ASSY, QUARTER, RH 1900011551 3227.08$ ENGINE ASSY, PARTIAL 1900011552 3168.89$ ENGINE ASSY, PARTIAL 61601YC040 139.68$ PANEL
1900011610 3227.08$ ENGINE ASSY, PARTIAL 61601YC050 125.32$ PANEL S/A, QTR 1900011611 3217.18$ ENGINE ASSY, PARTIAL 6160202906 269.45$ PANEL, QUARTER, LH
1900016040 2104.04$ ENGINE ASSY, PARTIAL 1900016410 4434.76$ ENGINE ASSY, PARTIAL 6160206020 379.13$ PANEL, QUARTER, LH 1900016594 4405.06$ ENGINE ASSY, PARTIAL
6160206030 379.13$ PANEL, QUARTER, LH 1900016610 4009.10$ ENGINE ASSY, PARTIAL 6160206040 379.13$ PANEL, QUARTER, LH 6160206050 379.13$ PANEL, QUARTER, LH
1900016910 3946.37$ ENGINE ASSY, PARTIAL 6160206120 204.14$ PANEL, QUARTER, LH 1900017012 7998.41$ ENGINE ASSY, PARTIAL 6160207900 302.10$ ПАНЕЛЬ КУЗОВА
1900017013 7048.10$ ENGINE ASSY, PA 1900017032 7998.41$ ENGINE ASSY, PARTIAL 6160210909 200.05$ PANEL, QUARTER, LH 1900017071 7968.71$ ENGINE ASSY, PARTIAL
6160212907 292.92$ PANEL, QUARTER, LH 1900017072 8077.60$ ENGINE ASSY, PARTIAL 6160212925 315.37$ ПАНЕЛЬ КУЗОВА 1900017073 8097.40$ ENGINE ASSY, PARTIAL
6160212926 315.37$ PANEL, QUARTER, LH 1900017074 8097.40$ ENGINE ASSY, PARTIAL 1900017082 8077.60$ ENGINE ASSY, PARTIAL 1900017093 8097.40$ ENGINE ASSY, PARTIAL
1900017094 8087.50$ ENGINE ASSY, PARTIAL 1900017104 8077.60$ ENGINE ASSY, PARTIAL 1900017139 7875.33$ ENGINE ASSY, PARTIAL 6160212A80 180.65$ PANEL, QUARTER, LH
1900017195 8087.50$ ENGINE ASSY, PA 6160213471 264.34$ PANEL, QUARTER, LH 1900017201 7998.41$ ENGINE ASSY, PARTIAL 1900017202 7873.26$ ENGINE ASSY
6160213481 264.34$ PANEL, QUARTER, LH 1900017204 6947.57$ ENGINE ASSY, PA 1900017313 8077.60$ ENGINE ASSY, PARTIAL 6160213590 269.45$ ПАНЕЛЬ КРЫЛА
1900017320 7998.41$ ENGINE ASSY, PARTIAL 6160213591 266.39$ КРЫЛО ЗАДНЕЕ 1900017363 8018.21$ ENGINE ASSY, PA 6160213610 191.88$ КРЫЛО ЗАДНЕЕ
1900017503 8899.22$ ENGINE ASSY, PA 1900017541 8899.22$ ENGINE ASSY, PARTIAL 6160213620 191.88$ PANEL, QUARTER, LH 6160213621 191.88$ PANEL SUB-ASSY
1900017571 8087.50$ ENGINE ASSY, PARTIAL 1900017621 8087.50$ ENGINE ASSY, PARTIAL 6160213700 268.43$ TY PANEL PARTS REF ART 6160213906 205.95$ PANEL, QUARTER, LH
6160213907 201.94$ PANEL, QUARTER, LH 6160213909 219.43$ PANEL, QUARTER, LH 6160214890 302.88$ PANEL, QUARTER, LH 6160216938 272.52$ КРЫЛО ЗАДНЕЕ
6160217110 326.61$ PANEL SUB-ASSY, QUARTER, LH 1900017780 8077.60$ ENGINE ASSY, PARTIAL 6160217130 136.76$ PANEL SUB-ASSY, QUARTER, LH 616021A330 218.46$ PANEL, QUARTER, LH
1900017840 7107.50$ ENGINE ASSY, PARTIAL 616021A340 280.68$ PANEL, QUARTER, LH 616021A360 211.27$ PANEL, QUARTER, LH 190001A020 4219.21$ ENGINE ASSY, PARTIAL
616021A410 211.27$ PANEL, QUARTER, LH 190001A280 4860.42$ ENGINE ASSY, PARTIAL 616021A900 176.24$ PANEL, QUARTER, LH 190001A380 4801.03$ ENGINE ASSY, PARTIAL
616021B915 307.42$ PANEL, QUARTER, LH 190001A560 4840.62$ ENGINE ASSY, PARTIAL 616021B917 307.42$ PANEL, QUARTER, LH 1900020082 7632.15$ ENGINE ASSY, PARTIAL
616021B920 307.42$ PANEL, QUARTER, LH 1900020102 7642.04$ ENGINE ASSY, PARTIAL 616021C352 241.89$ PANEL SUB-ASSY, QUARTER, LH 1900020112 7632.15$ ENGINE ASSY, PARTIAL
616021C390 217.40$ PANEL SUB-ASSY, QUARTER, LH 1900020210 9542.89$ ENGINE ASSY, PARTIAL 616021C420 240.87$ PANEL, QUARTER, LH 1900020290 10508.32$ ENGINE ASSY, PARTIAL
616021E590 243.94$ PANEL, QUARTER, LH 1900020450 9839.95$ ENGINE ASSY, PARTIAL 616021E860 235.77$ КРЫЛО ЗАДНЕЕ 1900021062 4216.98$ ENGINE ASSY, PARTIAL
616021E900 182.57$ PANEL, QUARTER, LH 1900021100 4216.98$ ENGINE ASSY, PARTIAL 616021E901 182.85$ PANEL, QUARTER, LH 1900021110 3712.14$ ENGINE ASSY, PARTIAL
616021E911 176.24$ PANEL, QUARTER, LH 1900021210 4216.98$ ENGINE ASSY, PARTIAL 1900021230 4652.54$ ENGINE ASSY, PARTIAL 616021E920 251.17$ PANEL, QUARTER, LH
1900021830 3712.14$ ENGINE ASSY, PARTIAL 616021E924 259.61$ PANEL, QUARTER, LH 1900021831 3365.67$ ENGINE ASSY, PARTIAL 616021E928 316.39$ КРЫЛО ЗАДНЕЕ
1900022210 5305.88$ ENGINE ASSY, PARTIAL 616021E929 295.98$ PANEL, QUARTER, LH 1900022230 5305.88$ ENGINE ASSY, PARTIAL 616021E930 294.96$ PANEL, QUARTER, LH
1900022261 5305.88$ ENGINE ASSY, PARTIAL 616021E936 315.37$ PANEL, QUARTER, LH 1900022330 4672.34$ ENGINE ASSY, PARTIAL 616021E937 316.39$ КРЫЛО ЗАДНЕЕ
1900022840 5325.67$ ENGINE ASSY, PARTIAL 616021E940 298.03$ PANEL, QUARTER, LH 1900022A80 4672.34$ ENGINE ASSY, PARTIAL 1900022B00 4672.34$ ENGINE ASSY, PARTIAL
616021E945 268.43$ PANEL, QUARTER, LH 1900022B60 4672.34$ ENGINE ASSY,PARTIAL 1900028130 6572.95$ ENGINE ASSY, PARTIAL 616021G281 291.90$ PANEL, QUARTER, LH
1900028131 6563.05$ ENGINE ASSY, PARTIAL 616021G342 290.88$ PANEL, QUARTER, LH 1900028160 5771.13$ ENGINE ASSY, PARTIAL 1900028161 5305.15$ ENGINE ASSY, PARTIAL
616021G420 297.01$ PANEL, QUARTER, LH 1900028180 5771.13$ ENGINE ASSY, PARTIAL 616021H030 252.09$ PANEL, QUARTER, LH 1900028361 6662.04$ ENGINE ASSY, PARTIAL
6160220914 233.72$ PANEL, QUARTER, LH 1900028400 5761.23$ ENGINE ASSY, PARTIAL 6160220919 157.81$ PANEL 1900028494 4612.94$ ENGINE ASSY, PARTIAL
6160220922 252.09$ PANEL, QUARTER, LH 6160221150 292.69$ PANEL SUB-ASSY 1900028840 6662.04$ ENGINE ASSY, PARTIAL 6160221170 412.33$ БОКОВИНА ЗАДНЯЯ ЛЕВАЯ
6160221190 232.70$ PANEL, QUARTER, LH 1900028A90 5315.77$ ENGINE ASSY, PARTIAL 1900028B30 5315.77$ ENGINE ASSY, PARTIAL 6160222921 261.28$ PANEL, QUARTER, LH
1900030061 6484.86$ ENGINE ASSY, PARTIAL 6160222925 274.54$ PANEL, QUARTER, LH 6160222936 274.54$ PANEL S/A, QUAR 6160222939 271.84$ PANEL, QUARTER, LH
1900030410 4989.11$ ENGINE ASSY, PARTIAL 6160222940 237.44$ PANEL, QUARTER, LH 1900030440 4989.11$ ENGINE ASSY, PARTIAL 6160222943 404.17$ PANEL, QUARTER, LH
6160222944 404.17$ PANEL, QUARTER, LH 6160222945 404.17$ PANEL, QUARTER, LH 1900031310 8839.83$ БЛОК ЦИЛИНДРОВ 1900031350 9710.94$ ENGINE ASSY, PARTIAL
6160222947 407.23$ PANEL, QUARTER, LH 1900031510 7770.73$ ENGINE ASSY, PARTIAL 6160222949 406.21$ PANEL, QUARTER, LH 1900031A61 7770.73$ ENGINE ASSY, PARTIAL
6160224903 343.95$ PANEL, QUARTER, LH 1900031E20 9047.80$ ENGINE ASSY, PARTIAL 6160224910 182.70$ PANEL, QUARTER, LH 1900031E30 7394.57$ ENGINE ASSY, PARTIAL
6160224911 240.73$ PANEL, QUARTER, LH 1900031E40 7236.18$ ENGINE ASSY, PARTIAL 6160224912 217.63$ PANEL, QUARTER, LH 1900031F60 7770.73$ ENGINE ASSY, PARTIAL
6160224913 217.63$ ПАНЕЛЬ КУЗОВА 1900031L20 7770.73$ ENGINE ASSY, PARTIAL 6160226160 458.00$ PANEL, QUARTER, LH 1900035131 4622.85$ ENGINE ASSY, PARTIAL
6160226161 532.77$ PANEL, QUARTER, LH 1900035191 4622.85$ ENGINE ASSY, PARTIAL 6160226162 540.93$ PANEL, QUARTER, LH 1900035311 4004.83$ ENGINE ASSY, PARTIAL
6160226230 236.79$ PANEL, QUARTER, LH 1900035341 3949.71$ ENGINE ASSY, PARTIAL 1900035480 4514.40$ ENGINE ASSY, PARTIAL 6160226341 457.24$ PANEL, QUARTER, LH
1900035500 4533.75$ ENGINE ASSY, PARTIAL 6160226450 236.79$ PANEL, QUARTER, LH 1900035560 4533.75$ ENGINE ASSY, PARTIAL 6160226601 449.08$ PANEL, QUARTER, LH
1900037171 2895.40$ ENGINE ASSY, PARTIAL 6160226611 532.77$ PANEL, QUARTER, LH 1900038340 14233.89$ ENGINE ASSY, PARTIAL 1900042330 4731.87$ ENGINE ASSY, PARTIAL
1900043231 3925.51$ ENGINE ASSY, PARTIAL 6160228091 547.06$ PANEL SUB-ASSY 1900046070 8068.14$ ENGINE ASSY, PARTIAL 1900046077 8433.96$ ENGINE ASSY, PARTIAL
6160228590 345.99$ PANEL, QUARTER, LH 1900046143 8433.96$ ENGINE ASSY, PARTIAL 6160228591 279.33$ PANEL, QUARTER, LH 1900046160 10458.82$ ENGINE ASSY, PARTIAL
6160228690 342.93$ PANEL, QUARTER, LH 1900050050 14233.89$ ENGINE ASSY, PARTIAL 6160228810 547.06$ PANEL, QUARTER, LH 1900050450 11482.86$ ENGINE ASSY, PARTIAL
6160228870 161.85$ КРЫЛО ЗАДНЕЕ 1900050453 11482.86$ ENGINE ASSY, PARTIAL 1900050490 11482.86$ ENGINE ASSY, PARTIAL 616022B290 255.39$ PANEL, QUARTER, LH
1900050530 15100.30$ ENGINE ASSY, PARTIAL 1900050540 15100.30$ ENGINE ASSY, PARTIAL 616022B650 327.63$ PANEL, QUARTER, LH 616022B670 327.63$ PANEL, QUARTER, LH
1900050640 14357.66$ ENGINE ASSY, PARTIAL 616022B870 327.63$ PANEL, QUARTER, LH 1900050670 11482.86$ ENGINE ASSY, PARTIAL 616022B900 181.52$ PANEL, QUARTER, LH
616022B901 212.39$ PANEL, QUARTER, LH 1900050720 15100.30$ ENGINE ASSY, PARTIAL 616022D200 378.05$ PANEL, QUARTER, LH 1900050B40 10097.00$ ДВИГАТЕЛЬ В СБОРЕ 2UZ
616022D210 361.30$ PANEL, QUARTER, LH 1900050B50 12624.84$ ДВИГАТЕЛЬ В СБОРЕ 2UZ 616022D420 315.37$ PANEL, QUARTER, LH 1900050B60 10097.00$ ДВИГАТЕЛЬ В СБОРЕ 2UZ
616022D430 252.09$ PANEL, QUARTER, LH 1900050B70 10097.00$ ДВИГАТЕЛЬ В СБОРЕ 2UZ 616022D470 227.61$ PANEL, QUARTER, LH 1900054730 5543.45$ ENGINE ASSY, PARTIAL
1900054741 4209.46$ ENGINE ASSY, PARTIAL 616022D902 254.14$ PANEL, QUARTER, LH 1900054851 4405.06$ ENGINE ASSY, PARTIAL 616022D903 254.14$ PANEL, QUARTER, LH
616022D904 254.14$ PANEL, QUARTER, LH 1900054B40 4856.76$ ENGINE ASSY, PARTIAL 616022D909 359.26$ КРЫЛО ЗАДНЕЕ 1900056140 3844.10$ ENGINE ASSY, PARTIAL
616022D917 361.30$ PANEL S/A, QUARTER 1900056281 5335.57$ ENGINE ASSY, PARTIAL 616022D920 357.21$ КРЫЛО ЗАДНЕЕ 1900056291 5335.57$ ENGINE ASSY, PARTIAL
616022F020 375.70$ PANEL, QUARTER, LH 1900058080 4749.31$ ENGINE 616022F021 449.08$ PANEL, QUARTER, LH 1900058370 5336.08$ ENGINE ASSY, PARTIAL
1900058470 6479.84$ ENGINE ASSY, PARTIAL 616022F060 272.52$ PANEL, QUARTER, LH 1900058520 6080.34$ ENGINE ASSY, PARTIAL 616022N050 215.36$ PANEL, QUARTER, LH
1900058530 5778.27$ ENGINE ASSY, PARTIAL 616022N170 299.05$ PANEL, QUARTER, LH 1900058621 6167.09$ ENGINE ASSY, PARTIAL 616022N210 444.29$ PANEL SUB-ASSY
1900058631 6167.09$ ENGINE ASSY, PARTIAL 616022N260 444.29$ PANEL SUB-ASSY 1900058780 6176.99$ ENGINE ASSY, PARTIAL 6160230912 328.63$ PANEL, QUARTER, LH
6160230913 231.78$ PANEL, QUARTER, LH 190005B200 5988.91$ ENGINE ASSY, PARTIAL 6160232480 352.12$ PANEL SUB-ASSY, QUARTER, LH 190005B240 5464.26$ ENGINE ASSY, PARTIAL
6160232490 262.30$ PANEL SUB-ASSY, QUARTER, LH 190005B410 5998.81$ ENGINE ASSY, PARTIAL 6160232501 289.86$ PANEL, QUARTER, LH 6160232926 204.73$ PANEL, QUARTER, LH
190005B490 5998.81$ ENGINE ASSY, PARTIAL 6160232927 211.06$ PANEL, QUARTER, LH 6160232931 204.73$ PANEL, QUARTER, LH 190005B640 6266.08$ ENGINE ASSY, PARTIAL
6160232939 229.65$ PANEL S/A,QUART 6160232941 229.65$ PANEL S/A,QUART 190005C040 6741.23$ ENGINE ASSY, PARTIAL 6160232956 352.12$ PANEL SUB-ASSY
190005C080 6950.14$ ENGINE ASSY, PARTIAL 6160233011 232.73$ КРЫЛО ЗАДНЕЕ 190005C120 6741.23$ ENGINE ASSY, PARTIAL 6160233040 298.94$ КРЫЛО ЗАДНЕЕ
1900061171 6431.13$ ENGINE ASSY, PARTIAL 6160233150 312.32$ КРЫЛО ЗАДНЕЕ 1900061190 5072.07$ ENGINE ASSY, PARTIAL 6160233160 317.33$ КРЫЛО ЗАДНЕЕ
1900061320 5758.78$ ENGINE ASSY, PARTIAL 1900061340 6070.59$ ENGINE ASSY, PARTIAL 6160233170 317.33$ КРЫЛО ЗАДНЕЕ 1900061370 6002.38$ ENGINE ASSY, PARTIAL
1900061390 6255.73$ ENGINE ASSY, PARTIAL 1900061410 5495.69$ ENGINE ASSY, PARTIAL 1900062140 7642.04$ ENGINE ASSY, PARTIAL 1900062430 8127.10$ ENGINE ASSY, PARTIAL
1900064471 4842.83$ ENGINE ASSY, PARTIAL 1900064861 5078.20$ ENGINE ASSY, PA 1900065081 6652.14$ ENGINE ASSY, PARTIAL 1900066020 9047.71$ ENGINE ASSY, PARTIAL
1900066030 9047.71$ ENGINE ASSY, PARTIAL 1900066082 9067.50$ ENGINE ASSY, PARTIAL 616023A902 328.63$ PANEL, QUARTER, LH 1900066110 9077.40$ ENGINE ASSY, PARTIAL
616023A908 308.43$ PANEL, QUARTER, LH 1900067031 6256.18$ ENGINE ASSY, PARTIAL 1900067111 6266.08$ ENGINE ASSY, PARTIAL 1900068120 6762.43$ ENGINE ASSY, PARTIAL
6160243900 327.63$ PANEL SUB-ASSY, QUARTER, LH 1900068140 9003.58$ ENGINE ASSY, PARTIAL 6160243902 328.63$ PANEL SUB-ASSY, QUARTER, LH 1900070172 5856.22$ ENGINE ASSY, PARTIAL
6160243906 298.03$ PANEL SUB-ASSY, QUARTER, LH 1900071100 1908.74$ ENGINE ASSY, PARTIAL 6160243910 223.56$ PANEL SUB-ASSY, QUARTER, LH 1900072290 3147.35$ ENGINE ASSY, PARTIAL
6160244010 265.36$ PANEL, QUARTER, LH 1900072291 3256.78$ ENGINE ASSY, PARTIAL 6160244020 265.36$ PANEL, QUARTER, LH 1900072292 3731.93$ ENGINE ASSY, PARTIAL
6160246010 198.00$ КРЫЛО ЗАДНЕЕ 1900073082 2254.96$ ENGINE ASSY,PAR 6160247020 262.30$ PANEL, QUARTER, LH 1900073182 2476.91$ ENGINE ASSY,PAR
6160247031 262.30$ PANEL SUB-ASSY 1900073401 3449.42$ ENGINE ASSY, PARTIAL 6160247040 200.05$ ПАНЕЛЬ КУЗОВА 1900073405 3731.93$ ENGINE ASSY, PARTIAL
1900073440 3770.98$ ENGINE ASSY, PARTIAL 1900073491 3449.42$ ENGINE ASSY,PAR 6160247090 172.49$ PANEL, QUARTER, LH 1900073520 4355.57$ ENGINE ASSY, PARTIAL
6160248020 30.84$ PANEL SUB-ASSY, QUARTER, OUTER LH 1900073550 2405.88$ ENGINE ASSY, PARTIAL 6160250011 442.69$ PANEL, QUARTER, LH 1900074540 5563.25$ ENGINE ASSY, PARTIAL
6160250031 443.88$ PANEL, QUARTER, LH 1900074541 5642.44$ ENGINE ASSY, PARTIAL 6160250050 531.30$ PANEL, QUARTER, LH 1900074580 5563.25$ ENGINE ASSY, PARTIAL
6160250051 537.39$ PANEL, QUARTER, LH 1900074791 5214.24$ ENGINE ASSY, PARTIAL 6160250060 589.67$ PANEL, QUARTER, LH 1900075020 3946.37$ ENGINE ASSY, PARTIAL
6160250070 372.04$ PANEL, QUARTER, LH 1900075032 3514.15$ ENGINE ASSY, PARTIAL 1900075051 4622.85$ ENGINE ASSY, PARTIAL 1900075072 3989.31$ ENGINE ASSY, PARTIAL
1900075081 6671.94$ ENGINE ASSY, PARTIAL 1900075230 4672.34$ ENGINE ASSY, PARTIAL 6160252010 211.27$ КРЫЛО ЗАДНЕЕ 1900075240 4662.44$ ENGINE ASSY, PARTIAL
1900075250 4672.34$ ENGINE ASSY, PARTIAL 6160252020 219.43$ ПАНЕЛЬ КУЗОВА 1900075280 6662.04$ ENGINE ASSY, PARTIAL 6160252030 215.36$ ПАНЕЛЬ КРЫЛА
1900075290 6671.94$ ENGINE ASSY, PARTIAL 6160252040 215.36$ PANEL, QUARTER, LH 1900075360 3553.75$ ENGINE ASSY, PARTIAL 6160252050 310.27$ PANEL, QUARTER, LH
1900075421 6662.04$ ENGINE ASSY, PARTIAL 6160252060 310.27$ PANEL, QUARTER, LH 1900075430 6662.04$ ENGINE ASSY, PARTIAL 6160252070 252.09$ PANEL, QUARTER, LH
1900075440 6671.94$ ENGINE ASSY, PARTIAL 6160252080 252.09$ ПАНЕЛЬ КРЫЛА 1900075540 6662.04$ ENGINE ASSY, PARTIAL 6160252160 172.49$ ПАНЕЛЬ КРЫЛА
1900075570 6671.94$ ENGINE ASSY, PARTIAL 1900075700 6671.94$ ENGINE ASSY, PARTIAL 6160252170 271.49$ PANEL, QUARTER, LH 1900075710 6662.04$ ENGINE ASSY, PARTIAL
6160252220 252.09$ PANEL, QUARTER, LH 1900075F90 5860.22$ ENGINE ASSY, PARTIAL 1900075G00 5860.22$ ENGINE ASSY, PARTIAL 6160252240 252.09$ КРЫЛО ЗАДНЕЕ
1900075G40 5315.77$ ENGINE ASSY, PARTIAL 1900075G80 5850.32$ ENGINE ASSY, PARTIAL 6160252260 172.49$ КРЫЛО ЗАДНЕЕ 1900075K90 5315.77$ ENGINE ASSY, PARTIAL
1900075L40 5315.77$ ENGINE ASSY, PARTIAL 1900078470 7295.58$ ENGINE ASSY, PARTIAL 1900078710 8681.44$ ENGINE ASSY, PARTIAL 6160252290 160.25$ КРЫЛО ЗАДНЕЕ
1900078960 5959.21$ ENGINE ASSY, PARTIAL 190007A180 5256.38$ ENGINE ASSY, PARTIAL 6160252320 202.09$ PANEL, QUARTER, LH 1900088395 5761.23$ ENGINE ASSY, PARTIAL
1902011061 250.75$ DISTRIBUTOR ASSY 1902011141 314.19$ DISTRIBUTOR ASSY 1902011310 403.30$ DISTRIBUTOR ASSY 6160252420 221.47$ PANEL SUB-ASSY
6160252500 167.38$ PANEL, QUARTER, LH 1902011380 418.48$ DISTRIBUTOR ASSY 6160252550 167.38$ PANEL, QUARTER, LH 1902011400 410.13$ DISTRIBUTOR ASSY
6160253010 313.69$ PANEL, QUARTER, LH 1902015050 417.10$ DISTRIBUTOR ASSY 1902015080 301.65$ DISTRIBUTOR ASSY 6160253021 277.21$ PANEL, QUARTER, LH
1902016020 279.72$ РАСПРЕДЕЛИТЕЛЬ ЗАЖИГАНИЯ 1902016060 310.97$ РАСПРЕДЕЛИТЕЛЬ ЗАЖИГАНИЯ 6160263010 224.54$ КРЫЛО ЗАДНЕЕ 1902016110 310.97$ РАСПРЕДЕЛИТЕЛЬ ЗАЖИГАНИЯ
1902016150 413.92$ РАСПРЕДЕЛИТЕЛЬ ЗАЖИГАНИЯ 616026A750 158.20$ PANEL, QUARTER, LH 1902016190 407.08$ РАСПРЕДЕЛИТЕЛЬ ЗАЖИГАНИЯ 616026A751 124.37$ PANEL, QUARTER, LH
6160274010 122.47$ PANEL, QUARTER, LH 1902016230 389.95$ РАСПРЕДЕЛИТЕЛЬ ЗАЖИГАНИЯ 6160291695 433.74$ PANEL, QUARTER, LH 1902016250 401.78$ РАСПРЕДЕЛИТЕЛЬ ЗАЖИГАНИЯ
6160291696 220.12$ PANEL, QUARTER, LH 6160291796 338.76$ PANEL, QUARTER, LH 1902016280 327.34$ РАСПРЕДЕЛИТЕЛЬ ЗАЖИГАНИЯ 6160295749 242.91$ PANEL, QUARTER, LH
1902074010 370.07$ DISTRIBUTOR ASSY 6160295754 201.57$ PANEL, QUARTER, LH 6160295907 245.14$ PANEL, QUARTER, LH 1902074030 370.07$ DISTRIBUTOR
6160295J85 532.77$ PANEL, QUARTER, LH 1902075020 389.95$ РАСПРЕДЕЛИТЕЛЬ ЗАЖИГАНИЯ 6160295J88 224.78$ PANEL, QUARTER, LH 6160295N19 243.94$ PANEL, QUARTER, LH
6160295N36 224.78$ PANEL, QUARTER, LH 1902075040 389.95$ РАСПРЕДЕЛИТЕЛЬ ЗАЖИГАНИЯ 6160295N37 224.78$ PANEL, QUARTER, LH 1902075041 407.08$ РАСПРЕДЕЛИТЕЛЬ ЗАЖИГАНИЯ
6160295N71 224.78$ PANEL, QUARTER, LH 61602AA901 252.09$ PANEL SUB-ASSY, QUARTER, LH 1902075060 406.33$ РАСПРЕДЕЛИТЕЛЬ ЗАЖИГАНИЯ 61602YC040 125.32$ PANEL S/A, QTR
616032B901 131.86$ PANEL, QUARTER WHEEL HOUSE, INNER RH 6160330913 51.30$ PANEL SUB-ASSY, QUARTER WHEEL HOUSE, RH 1902075080 405.57$ РАСПРЕДЕЛИТЕЛЬ ЗАЖИГАНИЯ 6160333030 116.36$ PANEL, QUARTER WHEEL HOUSE, INNER RH
6160333080 117.93$ PANEL SUB-ASSY 1903016140 439.74$ DISTRIBUTOR ASSY 1903063052 406.40$ DISTRIBUTOR ASSY 6160342905 138.30$ БРЫЗГОВИК
1903063090 402.29$ DISTRIBUTOR ASSY 1903071010 306.86$ DISTRIBUTOR ASSY 6160360880 132.95$ PANEL SUB-ASSY, QUARTER WHEEL HOUSE, RH 1903071060 417.72$ DISTRIBUTOR ASSY
61603YC060 57.03$ PANEL S/A 1/4 WHEELH *R/A CODE"H"*SOURCE 6160430912 51.30$ PANEL SUB-ASSY, QUARTER WHEEL HOUSE, LH 6160433030 116.36$ PANEL, QUARTER WHEEL HOUSE, INNER LH 6160442040 146.89$ ПОДКРЫЛОК
1903073090 437.47$ DISTRIBUTOR ASSY 6160442905 136.48$ ПОДКРЫЛОК 1903073130 413.92$ DISTRIBUTOR ASSY 6160448900 149.02$ PANEL SUB-ASSY, QUARTER WHEEL HOUSE, LH
1903073131 415.45$ DISTRIBUTOR ASSY 6160448901 247.99$ PANEL SUB-ASSY, QUARTER WHEEL HOUSE, LH 1903073140 385.06$ DISTRIBUTOR ASSY 6160460670 143.67$ PANEL SUB-ASSY, QUARTER WHEEL HOUSE, LH
6160520280 28.30$ PANEL SUB-ASSY, QUATER, REAR INNER RH 6160526240 65.19$ PANEL, QUARTER, RH 1903775020 49.11$ ПРОВОДА СВЕЧНЫЕ ВЫСОКОВОЛЬТНЫЕ 6160535040 67.74$ REINFORCEMENT SUB-ASSY, QUARTER PANEL, RH
6160542060 55.54$ PANEL, QUARTER WHEEL HOUSE, OUTER RH 1905016020 252.03$ DISTRIBUTOR ASSY 1905016030 217.97$ DISTRIBUTOR ASSY 6160560040 55.54$ PANEL, QUARTER, RH
6160560041 55.86$ PANEL, QUARTER, RH 1905074020 271.90$ РАСПРЕДЕЛИТЕЛЬ ЗАЖИГАНИЯ 6160595J03 40.00$ КРЫЛА КАРКАС 616060C030 74.08$ PANEL, QUARTER, LH
6160620250 28.50$ PANEL SUB-ASSY, QUATER, REAR INNER LH 6160626290 65.19$ PANEL, QUARTER, LH 1905074050 271.14$ РАСПРЕДЕЛИТЕЛЬ ЗАЖИГАНИЯ 6160626390 55.86$ PANEL, QUARTER, LH
1905075030 271.14$ DISTRIBUTOR ASSY 1906013150 149.63$ DISTRIBUTOR ASSY 6160642070 63.68$ КУЗОВНАЯ ПАНЕЛЬ 1906013190 354.68$ DISTRIBUTOR ASSY
6160642090 55.86$ КУЗОВНАЯ ПАНЕЛЬ 1906013250 354.68$ DISTRIBUTOR ASSY 6160642900 48.89$ КУЗОВНАЯ ПАНЕЛЬ 1908013010 73.60$ COIL ASSY, W/BRACKET & CORD
6160710120 73.98$ PANEL, QUARTER WHEEL HOUSE, INNER RH 1908016020 241.33$ COIL ASSY, W/BRACKET & CORD 6160712916 125.45$ PANEL, QUARTER WHEEL HOUSE, INNER RH 1908016030 53.84$ COIL ASSY, IGNITION
6160712927 74.08$ PANEL, QUARTER WHEEL HOUSE, INNER RH 1908046030 53.74$ COIL ASSY, W/BRACKET & CORD 6160712943 65.19$ PANEL, QUARTER WHEEL HOUSE, INNER RH 6160714907 139.31$ PANEL, QUARTER WHEEL HOUSE, INNER RH
6160714910 132.95$ PANEL, QUARTER WHEEL HOUSE, INNER RH 6160716241 73.66$ PANEL, QUARTER WHEEL HOUSE, INNER RH 1909050011 88.05$ COIL ASSY, W/BRACKET 6160722240 153.02$ PANEL, QUARTER WHEEL HOUSE, INNER RH
1910002020 221.02$ РАСПРЕДЕЛИТЕЛЬ ЗАЖИГАНИЯ 1910010020 104.29$ DISTRIBUTOR ASSY 6160730900 116.86$ PANEL, QUARTER WHEEL HOUSE, INNER RH 1910010021 135.75$ DISTRIBUTOR ASSY
6160730904 146.13$ PANEL, QUARTER WHEEL HOUSE, INNER RH 1910010030 113.53$ DISTRIBUTOR ASSY 6160733060 108.99$ КРЫЛА КАРКАС 6160733904 115.82$ АРКА КОЛЕСНАЯ
1910011070 208.13$ DISTRIBUTOR ASSY 6160733909 219.84$ АРКА КОЛЕСНАЯ 1910011080 215.70$ DISTRIBUTOR ASSY 6160743902 78.37$ PANEL, QUARTER WHEEL HOUSE, INNER RH
1910011081 220.26$ DISTRIBUTOR ASSY 6160750902 139.83$ PANEL, QUARTER WHEEL HOUSE, INNER RH 6160750920 144.78$ PANEL, QUARTER WHEEL HOUSE, INNER RH 6160750921 144.78$ PANEL, QUARTER WHEEL HOUSE, INNER RH
1910013390 120.00$ DISTRIBUTOR ASSY 6160750930 166.23$ PANEL, QUARTER WHEEL HOUSE, INNER RH 1910013400 106.95$ DISTRIBUTOR ASSY 1910013410 138.23$ DISTRIBUTOR
1910013420 142.04$ DISTRIBUTOR ASS 6160752330 59.18$ PANEL, QUARTER WHEEL HOUSE, INNER RH 1910013450 140.67$ DISTRIBUTOR ASS 6160752904 73.98$ PANEL, QUARTER WHEEL HOUSE, INNER RH
1910013480 138.99$ DISTRIBUTOR ASS 1910013550 193.03$ DISTRIBUTOR ASSY 6160753021 129.23$ PANEL, QUARTER WHEEL HOUSE, INNER RH 1910014060 86.19$ DISTRIBUTOR ASSY
6160760020 65.30$ КУЗОВНАЯ ПАНЕЛЬ 1910014100 116.97$ DISTRIBUTOR ASSY 6160760040 74.19$ КУЗОВНАЯ ПАНЕЛЬ 1910015100 105.30$ DISTRIBUTOR ASSY
1910016050 118.73$ РАСПРЕДЕЛИТЕЛЬ ЗАЖИГАНИЯ 6160760190 88.44$ КУЗОВНАЯ ПАНЕЛЬ 1910016060 217.21$ РАСПРЕДЕЛИТЕЛЬ ЗАЖИГАНИЯ 6160760230 81.37$ КУЗОВНАЯ ПАНЕЛЬ
1910016180 176.05$ РАСПРЕДЕЛИТЕЛЬ ЗАЖИГАНИЯ 1910016210 176.05$ РАСПРЕДЕЛИТЕЛЬ ЗАЖИГАНИЯ 6160760901 88.34$ РАСШИРИТЕЛЬ КРЫЛА 1910016250 217.97$ РАСПРЕДЕЛИТЕЛЬ ЗАЖИГАНИЯ
1910016270 212.17$ РАСПРЕДЕЛИТЕЛЬ ЗАЖИГАНИЯ 1910024050 82.18$ DISTRIBUTOR ASSY 6160790A04 230.06$ PANEL, QUARTER WHEEL HOUSE, INNER RH 1910024120 106.13$ DISTRIBUTOR ASSY
1910028130 116.97$ DISTRIBUTOR ASSY 6160790K00 246.58$ EXTENSION SUB-ASSY, REAR WHEEL OPENING, RH 6160795D00 74.19$ PANEL, QUARTER WHEEL HOUSE, INNER RH 1910031130 137.56$ DISTRIBUTOR ASSY
1910034260 109.42$ DISTRIBUTOR ASSY 1910035081 140.43$ DISTRIBUTOR ASSY 6160795J78 92.52$ PANEL SUB-ASSY, QUARTER, INNER REAR RH 1910035110 143.39$ DISTRIBUTOR ASSY
6160795J83 95.95$ PANEL SUB-ASSY, QUARTER, INNER REAR RH 1910035140 207.84$ DISTRIBUTOR ASSY 6160810120 73.98$ PANEL, QUARTER WHEEL HOUSE, INNER LH 6160812220 97.31$ PANEL, QUARTER WHEEL HOUSE, INNER LH
6160812915 113.87$ PANEL, QUARTER WHEEL HOUSE, INNER LH 1910035220 269.89$ DISTRIBUTOR ASSY 1910035240 217.05$ DISTRIBUTOR ASSY 1910035250 363.80$ DISTRIBUTOR ASSY
6160813190 92.41$ КУЗОВНАЯ ПАНЕЛЬ 1910035270 366.08$ DISTRIBUTOR ASSY 6160830220 106.78$ PANEL, QUARTER WHEEL HOUSE, INNER LH 1910037040 89.32$ DISTRIBUTOR ASSY
6160830250 122.93$ АРКА КОЛЕСНАЯ 6160830900 116.86$ PANEL, QUARTER WHEEL HOUSE, INNER LH 1910037110 139.66$ DISTRIBUTOR ASSY 6160830904 146.13$ PANEL, QUARTER WHEEL HOUSE, INNER LH
1910037120 106.95$ DISTRIBUTOR ASSY 1910037130 117.28$ DISTRIBUTOR ASSY 6160833060 108.99$ PANEL, QUARTER WHEEL HOUSE, INNER LH 1910038100 82.18$ DISTRIBUTOR ASSY
6160833902 115.82$ КУЗОВНАЯ ПАНЕЛЬ 1910041120 101.94$ DISTRIBUTOR ASSY 6160833904 115.82$ КУЗОВНАЯ ПАНЕЛЬ 1910042040 275.70$ DISTRIBUTOR ASSY
6160833909 219.84$ PANEL, QUARTER WHEEL HOUSE, INNER LH 1910042050 160.26$ DISTRIBUTOR ASSY 6160836010 39.24$ BRACE SUB-ASSY, QUARTER WHEEL HOUSE, LH 1910043120 210.76$ DISTRIBUTOR ASSY
6160842060 110.42$ PANEL, QUARTER WHEEL HOUSE, INNER LH 1910043150 232.83$ DISTRIBUTOR ASSY 6160843902 78.37$ PANEL, QUARTER WHEEL HOUSE, INNER LH 1910043170 126.70$ DISTRIBUTOR ASSY
6160850902 139.83$ PANEL, QUARTER WHEEL HOUSE, INNER LH 6160850920 146.13$ PANEL, QUARTER WHEEL HOUSE, INNER LH 1910043210 162.90$ DISTRIBUTOR ASSY 1910043220 162.90$ DISTRIBUTOR ASSY
6160852370 59.18$ PANEL, QUARTER WHEEL HOUSE, INNER LH 1910044020 86.19$ DISTRIBUTOR ASSY 1910044044 85.03$ DISTRIBUTOR ASSY 6160852912 65.19$ АРКА КОЛЕСНАЯ
1910044050 86.19$ DISTRIBUTOR 6160852913 65.19$ PANEL, QUARTER WHEEL HOUSE, INNER LH 6160853011 138.07$ PANEL, QUARTER WHEEL HOUSE, INNER LH 1910044240 87.57$ DISTRIBUTOR ASSY
6160860070 91.67$ КУЗОВНАЯ ПАНЕЛЬ 6160860071 92.52$ КУЗОВНАЯ ПАНЕЛЬ 1910060061 93.25$ DISTRIBUTOR 1910061160 150.26$ РАСПРЕДЕЛИТЕЛЬ ЗАЖИГАНИЯ
6160860300 88.77$ КУЗОВНАЯ ПАНЕЛЬ 6160860320 88.77$ КУЗОВНАЯ ПАНЕЛЬ 6160860901 88.34$ РАСШИРИТЕЛЬ КРЫЛА 1910062030 278.73$ РАСПРЕДЕЛИТЕЛЬ ЗАЖИГАНИЯ
1910063010 106.13$ DISTRIBUTOR ASSY 6160890K00 246.58$ EXTENSION SUB-ASSY, REAR WHEEL OPENING, LH 6160895D01 74.19$ PANEL, QUARTER WHEEL HOUSE, INNER LH 6160895J62 88.77$ PANEL SUB-ASSY, QUARTER, INNER REAR LH
6160922900 25.85$ BRACE SUB-ASSY, QUARTER PANEL 6161042011 379.68$ КРЫЛО ЗАДНЕЕ 1910070110 207.32$ DISTRIBUTOR ASSY 1910070120 253.86$ DISTRIBUTOR ASSY
1910070170 328.95$ DISTRIBUTOR ASSY 1910070230 259.74$ DISTRIBUTOR ASSY 1910073010 96.27$ DISTRIBUTOR ASSY 616110C060 123.49$ PANEL, QUARTER, RH
1910073030 86.19$ DISTRIBUTOR ASSY 616110H010 133.71$ PANEL, QUARTER, RH 616110H020 177.58$ PANEL, QUARTER, RH 6161112909 200.05$ PANEL, QUARTER, RH
6161112925 245.89$ PANEL, QUARTER, RH 1910074031 196.61$ DISTRIBUTOR ASSY 6161112927 200.05$ PANEL, QUARTER, RH 1910074050 194.98$ DISTRIBUTOR ASSY
6161113340 357.21$ PANEL, QUARTER, RH 1910074060 217.97$ DISTRIBUTOR ASSY 6161113910 216.33$ PANEL, QUARTER, RH 616111B120 359.26$ PANEL, QUARTER, RH
1910074110 217.97$ DISTRIBUTOR ASSY 6161120640 166.85$ PANEL, QUARTER, RH 1910074230 220.26$ DISTRIBUTOR ASSY 6161122570 299.05$ ПАНЕЛЬ КРЫЛА
6161124122 412.33$ PANEL, QUARTER, RH 1910088280 307.25$ DISTRIBUTOR ASSY 1910088362 194.98$ DISTRIBUTOR ASSY 6161126510 293.94$ PANEL, QUARTER, RH
1910088363 271.14$ DISTRIBUTOR ASSY 6161126550 293.94$ PANEL, QUARTER, RH 1910088364 220.26$ DISTRIBUTOR ASSY 6161128060 381.72$ PANEL, QUARTER, RH
6161128090 241.89$ PANEL, QUARTER, RH 1910102020 12.43$ КРЫШКА РАСПРЕДЕЛЕНИЯ ЗАЖИГАНИЯ 6161128100 242.88$ PANEL, QUARTER, RH 1910102030 12.43$ КРЫШКА РАСПРЕДЕЛЕНИЯ ЗАЖИГАНИЯ
6161128160 251.07$ КУЗОВНАЯ ПАНЕЛЬ 1910102H00 41.47$ БАЧОК РАСШИРИТЕЛЬНЫЙ 6161128180 251.07$ КРЫЛО ЗАДНЕЕ 6161128260 251.07$ КУЗОВНАЯ ПАНЕЛЬ
1910111032 43.27$ КРЫШКА РАСПРЕДЕЛЕНИЯ ЗАЖИГАНИЯ 616112B270 231.69$ PANEL, QUARTER, RH 616112B530 315.37$ PANEL, QUARTER, RH 616112B540 358.23$ КРЫЛО ЗАДНЕЕ
616112B900 203.68$ PANEL, QUARTER, RH 6161130730 429.18$ PANEL, QUARTER, RH 1910111260 43.27$ КРЫШКА РАСПРЕДЕЛЕНИЯ ЗАЖИГАНИЯ 6161130740 360.28$ PANEL, QUARTER, RH
6161130761 450.10$ PANEL, QUARTER, RH 6161130801 315.37$ PANEL, QUARTER, RH 6161130810 359.26$ PANEL, QUARTER 1910115022 12.23$ CAP SUB-ASSY, DISTRIBUTOR
1910115090 43.79$ CAP SUB-ASSY, DISTRIBUTOR 6161130820 316.39$ PANEL, QUARTER, RH 6161130841 375.70$ PANEL, QUARTER, RH 1910115160 43.38$ CAP SUB-ASSY, DISTRIBUTOR
6161130880 280.86$ КРЫЛО ЗАДНЕЕ ПРАВОЕ 6161130890 280.86$ КРЫЛО ЗАДНЕЕ 6161130891 280.86$ КРЫЛО ЗАДНЕЕ 1910116130 80.82$ CAP SUB-ASSY, DISTRIBUTOR
6161130911 376.90$ КРЫЛО ЗАДНЕЕ 6161134010 171.47$ PANEL, QUARTER, RH 6161135030 343.95$ PANEL, QUARTER, RH 1910116220 12.32$ CAP SUB-ASSY, DISTRIBUTOR
6161135100 260.25$ PANEL, QUARTER, RH 1910127051 13.68$ CAP SUB-ASSY, DISTRIBUTOR 6161135190 217.40$ PANEL, QUARTER, RH 6161135200 211.15$ PANEL, QUARTER, RH
6161135250 276.59$ PANEL, QUARTER, RH 6161135260 217.93$ КРЫЛО ЗАДНЕЕ 6161135261 238.77$ PANEL, QUARTER, RH 6161135901 341.91$ PANEL, QUARTER, RH
6161135902 341.91$ PANEL, QUARTER, RH 6161135903 341.91$ PANEL, QUARTER, RH 6161135904 342.93$ PANEL, QUARTER, RH 1910137051 13.68$ CAP SUB-ASSY, DISTRIBUTOR
6161137140 152.07$ PANEL SUB-ASSY, BACK CORNER, OUTER RH 1910138011 10.99$ CAP SUB-ASSY, DISTRIBUTOR 6161137141 119.10$ PANEL SUB-ASSY, BACK CORNER, OUTER RH 6161137150 168.41$ PANEL SUB-ASSY, BACK CORNER, OUTER RH
6161142140 238.83$ PANEL, QUARTER, RH 1910141240 11.26$ CAP SUB-ASSY, DISTRIBUTOR 1910145191 14.95$ CAP SUB-ASSY, DISTRIBUTOR 1910146020 11.42$ КРЫШКА ТРАМБЛЕРА
6161148050 336.78$ КРЫЛО ЗАДНЕЕ 1910162020 14.95$ CAP SUB-ASSY, DISTRIBUTOR 6161148060 336.78$ КУЗОВНАЯ ПАНЕЛЬ 6161148070 263.32$ PANEL, QUARTER, RH
6161150050 336.78$ КРЫЛО ЗАДНЕЕ 6161150060 336.78$ PANEL, QUARTER, RH 6161150070 301.22$ КРЫЛО ЗАДНЕЕ 6161150080 336.78$ PANEL, QUARTER, RH
1910174010 70.98$ КРЫШКА РАСПРЕДЕЛЕНИЯ ЗАЖИГАНИЯ 6161152020 219.43$ PANEL, QUARTER, RH 6161152210 219.43$ КРЫЛО ЗАДНЕЕ 6161152211 200.05$ КРЫЛО ЗАДНЕЕ
6161153040 227.84$ PANEL, QUARTER, RH 6161158010 303.12$ PANEL, QUARTER, RH 6161158030 300.07$ PANEL, QUARTER, RH 6161160270 509.71$ PANEL, QUARTER, RH
6161160290 509.71$ PANEL, QUARTER, RH 6161160320 378.85$ PANEL, QUARTER, RH 6161174010 122.47$ PANEL, QUARTER, RH 6161189107 293.38$ PANEL, QUARTER, RH
6161189111 340.89$ PANEL, QUARTER, RH 6161189113 340.89$ PANEL, QUARTER, RH 6161190A15 473.19$ PANEL, QUARTER, RH 6161190A18 450.62$ PANEL, QUARTER, RH
6161195J07 208.95$ PANEL, QUARTER, RH 1910188280 13.58$ КРЫШКА РАСПРЕДЕЛЕНИЯ ЗАЖИГАНИЯ 6161195J35 208.95$ PANEL, QUARTER, RH 61611AC020 306.19$ КРЫЛО ЗАДНЕЕ
6161202100 224.54$ КРЫЛО ЗАДНЕЕ 1910188380 13.58$ КРЫШКА РАСПРЕДЕЛЕНИЯ ЗАЖИГАНИЯ 6161208904 359.26$ PANEL, QUARTER, LH 616120C090 114.31$ PANEL, QUARTER, LH
1910202020 3.95$ БЕГУНОК РАСПРЕДЕЛИТЕЛЯ ЗАЖИГАНИЯ 616120H010 133.71$ PANEL, QUARTER, LH 616120H020 177.58$ PANEL, QUARTER, LH 1910202030 3.96$ БЕГУНОК РАСПРЕДЕЛИТЕЛЯ ЗАЖИГАНИЯ
1910211031 5.90$ БЕГУНОК РАСПРЕДЕЛИТЕЛЯ ЗАЖИГАНИЯ 6161212040 123.97$ PANEL, QUARTER, LH 6161212620 167.30$ PANEL, QUARTER, LH 1910215021 3.65$ РОТОР РАСПРЕДЕЛИТЕЛЯ ЗАЖИГАНИЯ
6161212890 146.75$ PANEL, QUARTER, LH 6161212908 251.17$ PANEL, QUARTER, LH 6161212910 245.89$ PANEL, QUARTER, LH 1910216060 3.95$ БЕГУНОК РАСПРЕДЕЛИТЕЛЯ ЗАЖИГАНИЯ
6161212915 178.61$ PANEL, QUARTER, LH 1910222012 3.40$ БЕГУНОК РАСПРЕДЕЛИТЕЛЯ ЗАЖИГАНИЯ 6161213190 238.83$ PANEL, QUARTER, LH 6161213210 295.48$ PANEL, QUARTER, LH
6161213340 357.21$ PANEL, QUARTER, LH 1910238210 6.81$ ROTOR SUB-ASSY, DISTRIBUTOR 616121B080 361.30$ PANEL, QUARTER, LH 1910241010 3.64$ ROTOR SUB-ASSY, DISTRIBUTOR
1910241240 4.88$ ROTOR SUB-ASSY, DISTRIBUTOR 6161222620 299.05$ PANEL, QUARTER, LH 6161224131 412.33$ PANEL, QUARTER, LH 1910245060 3.47$ ROTOR SUB-ASSY, DISTRIBUTOR
1910245191 6.29$ ROTOR SUB-ASSY, DISTRIBUTOR 6161226560 288.03$ PANEL, QUARTER, LH 1910262010 6.29$ ROTOR SUB-ASSY, DISTRIBUTOR 6161226580 293.94$ PANEL, QUARTER, LH
6161226590 293.94$ PANEL, QUARTER, LH 6161228110 380.70$ PANEL, QUARTER, LH 1910263010 4.01$ РОТОР ГЕНЕРАТОРА 6161228180 251.07$ КРЫЛО ЗАДНЕЕ
1910266010 8.01$ РОТОР РАСПРЕДЕЛИТЕЛЯ ЗАЖИГАНИЯ 616122B490 231.69$ PANEL, QUARTER, LH 1910270010 6.63$ ROTOR SUB-ASSY, DISTRIBUTOR 6161230911 202.89$ PANEL, QUARTER, LH
1910273030 4.15$ БЕГУНОК РАСПРЕДЕЛИТЕЛЯ ЗАЖИГАНИЯ 6161230A30 280.86$ КРЫЛО 6161235010 343.95$ PANEL, QUARTER, LH 6161235090 260.25$ PANEL, QUARTER, LH
6161235130 217.40$ PANEL, QUARTER, LH 1910311050 43.79$ BREAKER SUB-ASSY, DISTRIBUTOR 6161235150 286.79$ PANEL, QUARTER, LH 1910326210 43.79$ BREAKER SUB-ASSY, DISTRIBUTOR
6161235200 217.93$ PANEL, QUARTER, LH 1910337030 43.58$ BREAKER SUB-ASSY, DISTRIBUTOR 1910341030 44.21$ BREAKER SUB-ASSY, DISTRIBUTOR 6161235903 341.91$ PANEL, QUARTER, LH
6161237110 152.07$ PANEL SUB-ASSY, BACK CORNER, OUTER LH 1910363010 41.04$ BREAKER SUB-ASSY, DISTRIBUTOR 616123A100 318.43$ PANEL, QUARTER, LH 1910488280 29.12$ ПРИКУРИВАТЕЛЯ ГНЕЗДО
616123A150 429.18$ PANEL, QUARTER, LH 1910535081 60.73$ GOVERNOR SUB-ASSY 1910560070 32.89$ GOVERNOR SUB-ASSY 1910561150 36.47$ GOVERNOR SUB-ASSY
616123A200 427.97$ PANEL, QUARTER, LH 1910561160 30.63$ GOVERNOR SUB-ASSY 1910561210 36.47$ GOVERNOR SUB-ASSY 616123A210 316.39$ PANEL, QUARTER, LH
1910573040 53.04$ GOVERNOR SUB-ASSY 1910611040 22.64$ CAM SUB-ASSY, DISTRIBUTOR 616123A902 427.97$ PANEL, QUARTER, LH 1910616120 22.85$ CAM SUB-ASSY, DISTRIBUTOR
1910625010 10.23$ CAM SUB-ASSY, DISTRIBUTOR 6161244080 207.18$ ПАНЕЛЬ КРЫЛА 1910641010 14.93$ CAM SUB-ASSY, DISTRIBUTOR 1910660070 10.57$ CAM SUB-ASSY, DISTRIBUTOR
1911465010 24.36$ COVER, WATER PROOF(FOR DISTRIBUTOR) 6161248030 351.10$ PANEL, QUARTER, LH 6161248040 312.32$ PANEL, QUARTER, LH 6161248050 382.99$ КРЫЛО ЗАДНЕЕ
6161248051 336.78$ КРЫЛО ЗАДНЕЕ 6161248060 382.99$ PANEL, QUARTER, LH 1912116020 3.96$ COVER, DUST PROOF 6161248061 336.78$ КРЫЛО ЗАДНЕЕ
1912116040 3.80$ COVER, DUST PROOF 6161248070 263.32$ ПАНЕЛЬ - БОКОВИНА ЛЕВ 1912145060 1.96$ COVER, DUST PROOF 6161250080 301.22$ КРЫЛО ЗАДНЕЕ
6161250081 323.75$ PANEL, QUARTER, LH 1912161160 1.50$ COVER, DUST PROOF 6161250090 336.78$ PANEL, QUARTER, LH 1912163010 2.93$ COVER, DUST PROOF
1912163040 3.09$ COVER, DUST PROOF 6161250101 333.24$ PANEL, QUARTER, LH 1912163090 1.45$ COVER, DUST PROOF 6161250110 336.78$ PANEL, QUARTER, LH
6161252220 219.43$ КРЫЛО ЗАДНЕЕ 1912213070 26.32$ PLATE, STATIONARY, DISTRIBUTOR 6161252221 190.15$ PANEL, QUARTER, LH 6161253020 256.53$ КРЫЛО ЗАДНЕЕ
1912237030 29.27$ PLATE, STATIONARY, DISTRIBUTOR 6161253030 256.53$ PANEL, QUARTER, LH 1912288263 44.42$ PLATE, STATIONARY, DISTRIBUTOR 6161253031 227.84$ PANEL, QUARTER, LH
6161258010 303.12$ PANEL, QUARTER, LH 6161260260 509.71$ PANEL, QUARTER, LH 6161260380 378.85$ PANEL, QUARTER, LH 6161260560 483.77$ PANEL, QUARTER, LH
1912741141 0.78$ PACKING, DUST PROOF 6161260580 550.11$ КРЫЛО ЗАДНЕЕ 6161289113 304.98$ PANEL, QUARTER, LH 6161289114 129.50$ PANEL, QUARTER, LH
6161289116 340.89$ PANEL, QUARTER, LH 1912765010 0.94$ ПРОКЛАДКА РЕЗИНОВАЯ 6161290A12 450.62$ PANEL, QUARTER, LH 6161290A15 433.74$ PANEL, QUARTER, LH
6161295712 168.48$ PANEL, QUARTER, LH 6161295J08 291.27$ PANEL, QUARTER, LH 6161295J29 268.05$ PANEL, QUARTER, LH 61612AC010 306.19$ КРЫЛО
61612AC011 311.30$ PANEL, QUARTER, LH 1913236020 9.99$ TERMINAL, DISTRIBUTOR 61612AE010 261.28$ PANEL, QUARTER, LH 6161326D60 243.19$ PANEL, QUARTER, INNER RH
6161326D70 246.58$ PANEL, QUARTER, INNER RH 1913341010 2.91$ CONDENSER, DISTRIBUTOR 6161326D80 246.58$ PANEL, QUARTER, INNER RH 6161326F70 125.45$ PANEL, QUARTER, INNER RH
6161333010 39.13$ PANEL, QUARTER, INNER RH 1913733012 1.35$ SPRING SUB-ASSY, DAMPER 6161348010 22.80$ КУЗОВНАЯ ПАНЕЛЬ 6161348020 10.35$ КУЗОВНАЯ ПАНЕЛЬ
1914411032 14.72$ LEAD, DISTRIBUTOR BREAKER 1914411060 10.88$ LEAD, DISTRIBUTOR BREAKER 1914411070 10.74$ LEAD, DISTRIBUTOR BREAKER 1914411090 4.79$ LEAD, DISTRIBUTOR BREAKER
6161433010 39.13$ PANEL, QUARTER, INNER LH 6161448010 22.80$ PANEL, QUARTER, INNER LH 1914415120 13.05$ ПРОВОДА ЭЛЕКТРИЧЕСКИЕ 1914416011 17.37$ LEAD, DISTRIBUTOR BREAKER
6161526160 38.28$ REINFORCEMENT, REAR BODY REAR SIDE PANEL, RH 1914416040 5.27$ LEAD, DISTRIBUTOR BREAKER 6161528050 27.45$ REINFORCEMENT, QUARTER PANEL, OUTER RH 1914416050 6.54$ LEAD, DISTRIBUTOR BREAKER
6161536010 49.85$ PILLAR, NO.10 OUTER, UPPER RH 1914416110 15.44$ LEAD, DISTRIBUTOR BREAKER 6161612070 14.70$ REINFORCEMENT, REAR BODY REAR SIDE PANEL, LH 1914434180 2.58$ LEAD, DISTRIBUTOR BREAKER
6161626090 38.28$ REINFORCEMENT, REAR BODY REAR SIDE PANEL, LH 6161626120 31.20$ REINFORCEMENT, REAR BODY REAR SIDE PANEL, LH 1914463100 7.58$ LEAD, DISTRIBUTOR BREAKER 6161628050 45.14$ REINFORCEMENT, QUARTER PANEL, OUTER LH
1914473060 8.74$ LEAD, DISTRIBUTOR BREAKER 6161628070 27.34$ REINFORCEMENT, QUARTER PANEL, OUTER LH 6161658010 36.25$ REINFORCEMENT, REAR BODY REAR SIDE PANEL, LH 1914474060 28.21$ ПРОВОДА ЭЛЕКТРИЧЕСКИЕ
6161721020 24.66$ PANEL, QUARTER INNER, REAR RH 6161726010 19.20$ PANEL, QUARTER INNER, LOWER RH 6161748010 12.53$ PANEL, QUARTER INNER, REAR RH 1914475020 9.04$ LEAD, DISTRIBUTOR BREAKER
6161826010 19.20$ PANEL, QUARTER, INNER LOWER LH 6161842030 14.58$ КУЗОВНАЯ ПАНЕЛЬ 6161848010 12.53$ PANEL, QUARTER, INNER REAR LH 1914475050 12.11$ LEAD, DISTRIBUTOR BREAKER
1914475060 6.60$ LEAD, DISTRIBUTOR BREAKER 6162042011 379.68$ FENDER ASSY, REAR LH 6162042012 379.68$ FENDER ASSY, REAR LH 1915124081 16.89$ SHAFT, GOVERNOR
1915133011 15.75$ SHAFT, GOVERNOR 1915160061 32.32$ SHAFT, GOVERNOR 1915161160 21.05$ SHAFT, GOVERNOR 1915171020 19.90$ SHAFT, GOVERNOR
6162105900 22.84$ КРОНШТЕЙН КУЗОВНОЙ 1915245060 4.09$ WEIGHT, GOVERNOR 6162107901 26.38$ TROUGH, LUGGAGE COMPARTMENT OPENING, RH 1915263010 2.77$ ГРУЗ БАЛАНСИРОВОЧНЫЙ
6162107902 25.42$ TROUGH, LUGGAGE COMPARTMENT OPENING, RH 1915313390 1.71$ SPRING, GOVERNOR, A 6162110030 23.70$ TROUGH, BACK DOOR OPENING, RH 1915315290 1.15$ SPRING, GOVERNOR, A
6162110040 24.02$ TROUGH, BACK DOOR OPENING, RH 1915316050 1.05$ SPRING, GOVERNOR, A 6162112350 13.83$ TROUGH, LUGGAGE COMPARTMENT OPENING, RH 1915316250 1.29$ SPRING, GOVERNOR, A
6162112360 13.83$ TROUGH, LUGGAGE COMPARTMENT OPENING, RH 1915335160 1.15$ ПРУЖИНА ВОЗВРАТНАЯ 6162112540 22.10$ TROUGH, BACK DOOR OPENING, RH 1915337040 0.90$ SPRING, GOVERNOR, A
6162113010 21.10$ TROUGH, BACK DOOR OPENING, RH 1915372060 1.12$ SPRING, GOVERNOR, A 6162113041 25.30$ TROUGH, BACK DOOR OPENING, RH 1915375030 1.42$ SPRING, GOVERNOR, A
1915415130 1.26$ SPRING, GOVERNOR, B 1915416250 1.35$ SPRING, GOVERNOR, B 6162116100 13.83$ TROUGH, LUGGAGE COMPARTMENT OPENING, RH 1915435160 1.15$ ПРУЖИНА ВОЗВРАТНАЯ
6162120040 12.34$ TROUGH, LUGGAGE COMPARTMENT OPENING, RH 1915461010 0.64$ SPRING, GOVERNOR, B 6162120100 13.83$ TROUGH, LUGGAGE COMPARTMENT OPENING, RH 1915475050 1.50$ SPRING, GOVERNOR, B
6162120240 13.83$ TROUGH, LUGGAGE COMPARTMENT OPENING, RH 1916963011 1.09$ STOPPER, CAM GREASE 6162128030 15.34$ TROUGH, BACK DOOR OPENING, RH 1918111066 36.85$ ROTOR, DISTRIBUTOR, SIGNAL
6162130130 17.57$ TROUGH, LUGGAGE COMPARTMENT OPENING, RH 1918111290 12.95$ ROTOR, DISTRIBUTOR, SIGNAL 1918116100 32.53$ ROTOR, DISTRIBUTOR, SIGNAL 6162130901 17.48$ TROUGH, LUGGAGE COMPARTMENT OPENING, RH
1918131170 25.57$ ROTOR, DISTRIBUTOR, SIGNAL 6162132060 22.28$ EXTENSION, QUAR 1918143160 33.26$ ROTOR, DISTRIBUTOR, SIGNAL 6162133900 31.23$ TROUGH, LUGGAGE COMPARTMENT OPENING, RH
6162133901 32.27$ ДВЕРИ УГОЛОК 1918172011 23.47$ ROTOR, DISTRIBUTOR, SIGNAL 1918175010 11.48$ ROTOR, DISTRIBUTOR, SIGNAL 6162133908 30.03$ TROUGH, LUGGAGE
1918175060 14.64$ ROTOR, DISTRIBUTOR, SIGNAL 6162135900 27.24$ TROUGH, BACK DOOR OPENING, RH 1918363030 8.71$ ROTOR, SIGNAL 6162142040 54.05$ ДВЕРИ УГОЛОК
1919515021 17.41$ GEAR, SPIRAL, DISTRIBUTOR 1919516040 18.11$ GEAR, SPIRAL, DISTRIBUTOR 6162144040 25.85$ TROUGH, BACK DOOR OPENING, RH 1919524081 22.53$ GEAR, SPIRAL, DISTRIBUTOR
6162148010 28.15$ TROUGH, BACK DOOR OPENING, RH 1919531031 22.43$ GEAR, SPIRAL, DISTRIBUTOR 6162150020 17.17$ TROUGH, LUGGAGE COMPARTMENT OPENING, RH 1919538210 21.04$ GEAR, SPIRAL, DISTRIBUTOR
1919541130 18.03$ GEAR, SPIRAL, DISTRIBUTOR 6162150030 17.43$ TROUGH, LUGGAGE COMPARTMENT OPENING, RH 1919560040 9.96$ GEAR, SPIRAL, DISTRIBUTOR 1919571010 14.54$ ШЕСТЕРНЯ
6162150900 16.63$ TROUGH, LUGGAGE COMPARTMENT OPENING, RH 6162150903 1.52$ TY BODY PARTS-EXTERNAL REF ART 6162152010 20.16$ ПАНЕЛЬ КУЗОВА 6162152080 34.85$ ПАНЕЛЬ ДВЕРИ ВНУТРЕННЯЯ
1922010021 62.31$ ADVANCER ASSY, VACUUM, DISTRIBUTOR 1922011051 22.53$ ADVANCER ASSY, VACUUM, DISTRIBUTOR 6162153010 15.28$ TROUGH, LUGGAGE COMPARTMENT OPENING, RH 1922011060 33.16$ ADVANCER ASSY, VACUUM, DISTRIBUTOR
6162168010 39.56$ TROUGH, BACK DOOR OPENING, RH 1922011140 58.22$ ADVANCER ASSY, VACUUM, DISTRIBUTOR 1922011230 62.31$ ADVANCER ASSY, VACUUM, DISTRIBUTOR 6162206020 12.10$ TROUGH,LUGGAGE
6162207901 26.38$ TROUGH, LUGGAGE COMPARTMENT OPENING, LH 1922013050 33.48$ ADVANCER ASSY, VACUUM, DISTRIBUTOR 6162207902 25.42$ TROUGH, LUGGAGE COMPARTMENT OPENING, LH 6162210030 23.70$ TROUGH, BACK DOOR OPENING, LH
1922013200 45.41$ ADVANCER ASSY, VACUUM, DISTRIBUTOR 6162210040 24.02$ TROUGH, BACK DOOR OPENING, LH 1922013260 30.60$ ADVANCER ASSY, VACUUM, DISTRIBUTOR 6162212540 22.10$ TROUGH, BACK DOOR OPENING, LH
1922013380 33.48$ ADVANCER ASSY, VACUUM, DISTRIBUTOR 6162213041 25.30$ TROUGH, BACK DOOR OPENING, LH 1922013410 63.04$ CONTROLLER 1922013450 58.89$ CONTROLLER SUB-
6162213061 22.10$ TROUGH, BACK DOOR OPENING, LH 1922014050 25.17$ ADVANCER ASSY, VACUUM, DISTRIBUTOR 6162216100 13.83$ TROUGH, LUGGAGE COMPARTMENT OPENING, LH 1922015150 29.84$ ADVANCER ASSY, VACUUM, DISTRIBUTOR
6162220040 12.34$ TROUGH, LUGGAGE COMPARTMENT OPENING, LH 1922016040 31.08$ ADVANCER ASSY, VACUUM, DISTRIBUTOR 6162220100 13.83$ TROUGH, LUGGAGE COMPARTMENT OPENING, LH 1922016080 56.16$ ADVANCER ASSY, VACUUM, DISTRIBUTOR
6162220240 13.83$ TROUGH, LUGGAGE COMPARTMENT OPENING, LH 1922016130 46.22$ ADVANCER ASSY, VACUUM, DISTRIBUTOR 1922016230 62.31$ ADVANCER ASSY, VACUUM, DISTRIBUTOR 6162222090 13.98$ TROUGH, LUGGAGE COMPARTMENT OPENING, LH
1922016240 32.03$ ADVANCER ASSY, VACUUM, DISTRIBUTOR 6162222160 13.73$ TROUGH, LUGGAGE COMPARTMENT OPENING, LH 1922016241 50.43$ ADVANCER ASSY, VACUUM, DISTRIBUTOR 1922016250 62.21$ ADVANCER ASSY, VACUUM, DISTRIBUTOR
6162228020 15.34$ TROUGH, BACK DOOR OPENING, LH 1922016270 56.05$ ADVANCER ASSY, VACUUM, DISTRIBUTOR 6162232060 22.28$ EXTENSION, QUAR 1922025011 23.25$ ADVANCER ASSY, VACUUM, DISTRIBUTOR
1922026190 23.25$ ADVANCER ASSY, VACUUM, DISTRIBUTOR 6162233900 31.37$ КРОНШТЕЙН КУЗОВНОЙ 6162233901 32.27$ TROUGH, LUGGAGE COMPARTMENT OPENING, LH 1922026310 24.57$ ADVANCER ASSY, VACUUM, DISTRIBUTOR
6162233904 32.38$ ПАНЕЛЬ КУЗОВА 1922031020 23.49$ ADVANCER ASSY, VACUUM, DISTRIBUTOR 1922031030 31.08$ ADVANCER ASSY, VACUUM, DISTRIBUTOR 6162233909 30.03$ НАКЛАДКА НА З.КРЫЛО
1922034210 30.98$ ADVANCER ASSY, VACUUM, DISTRIBUTOR 6162235900 27.24$ TROUGH, BACK DOOR OPENING, LH 1922034240 23.34$ ADVANCER ASSY, VACUUM, DISTRIBUTOR 6162242010 27.24$ БАМПЕРА ПАНЕЛЬ
1922035080 22.46$ ADVANCER ASSY, VACUUM, DISTRIBUTOR 1922035110 24.57$ ADVANCER ASSY, VACUUM, DISTRIBUTOR 6162244040 25.85$ TROUGH, BACK DOOR OPENING, LH 1922035120 60.10$ ADVANCER ASSY, VACUUM, DISTRIBUTOR
6162248010 28.15$ ПАНЕЛЬ КУЗОВА 1922035140 62.94$ ADVANCER ASSY, VACUUM, DISTRIBUTOR 6162248020 34.85$ КУЗОВНАЯ ПАНЕЛЬ 1922035150 62.21$ ADVANCER ASSY, VACUUM, DISTRIBUTOR
6162248050 13.95$ TROUGH, BACK DOOR OPENING, LH 6162250020 17.17$ TROUGH, LUGGAGE COMPARTMENT OPENING, LH 6162250030 17.43$ TROUGH, LUGGAGE COMPARTMENT OPENING, LH 1922043080 30.89$ ADVANCER ASSY, VACUUM, DISTRIBUTOR
1922043200 31.92$ ADVANCER ASSY, VACUUM, DISTRIBUTOR 6162250900 16.63$ TROUGH, LUGGAGE COMPARTMENT OPENING, LH 1922043210 58.33$ ADVANCER ASSY, VACUUM, DISTRIBUTOR 6162252010 20.16$ КУЗОВНАЯ ПАНЕЛЬ
1922044210 24.19$ ADVANCER ASSY, VACUUM, DISTRIBUTOR 1922060072 27.13$ ADVANCER ASSY, VACUUM, DISTRIBUTOR 1922061131 26.95$ ADVANCER ASSY, VACUUM, DISTRIBUTOR 1922061150 32.03$ ADVANCER ASSY, VACUUM, DISTRIBUTOR
6162253010 15.28$ TROUGH, LUGGAGE COMPARTMENT OPENING, LH 1922063010 46.29$ ADVANCER ASSY, VACUUM, DISTRIBUTOR 6162268010 39.56$ TROUGH, BACK DOOR OPENING, LH 1922070010 42.38$ ADVANCER ASSY, VACUUM, DISTRIBUTOR
61622AC901 28.52$ TROUGH, LUGGAGE COMPARTMENT OPENING, LH 1922070050 26.95$ ADVANCER ASSY, VACUUM, DISTRIBUTOR 1922070120 25.17$ ADVANCER ASSY, VACUUM, DISTRIBUTOR 1922070170 33.48$ ADVANCER ASSY, VACUUM, DISTRIBUTOR
1922070180 32.64$ ADVANCER ASSY, VACUUM, DISTRIBUTOR 6162330030 59.08$ EXTENSION, QUARTER PANEL, OUTER RH 1922071050 58.22$ ADVANCER ASSY, VACUUM, DISTRIBUTOR 1922071060 33.48$ ДАТЧИК ОПЕРЕЖЕНИЯ ЗАЖИГАНИЯ
1922073010 26.95$ ADVANCER ASSY, VACUUM, DISTRIBUTOR 6162350901 27.08$ EXTENSION, QUARTER INNER PANEL, REAR RH 1922073011 32.64$ ADVANCER ASSY, VACUUM, DISTRIBUTOR 6162360040 33.78$ EXTENSION, QUARTER PANEL, FRONT RH
1922073030 30.15$ ADVANCER ASSY, VACUUM, DISTRIBUTOR 6162426040 206.55$ EXTENSION, QUARTER PANEL, OUTER LH 1922073060 56.58$ ADVANCER ASSY, VACUUM, DISTRIBUTOR 1922073080 29.58$ ADVANCER ASSY, VACUUM, DISTRIBUTOR
1922073130 33.48$ ADVANCER ASSY, VACUUM, DISTRIBUTOR 6162430030 59.08$ EXTENSION, QUARTER PANEL, OUTER LH 1922073150 60.20$ ADVANCER ASSY, VACUUM, DISTRIBUTOR 1922074080 32.64$ ADVANCER ASSY, VACUUM, DISTRIBUTOR
1922075010 55.47$ ADVANCER ASSY, VACUUM, DISTRIBUTOR 6162450901 27.08$ EXTENSION, QUARTER INNER PANEL, REAR LH 1922075030 62.31$ ADVANCER ASSY, VACUUM, DISTRIBUTOR 6162513050 14.26$ EXTENSION, QUARTER PANEL, INNER REAR RH
6162520060 28.73$ EXTENSION, QUARTER PANEL, INNER REAR RH 1922075100 55.37$ ADVANCER ASSY, VACUUM, DISTRIBUTOR 6162520070 28.73$ EXTENSION, QUARTER PANEL, INNER REAR RH 6162521010 32.38$ EXTENSION, QUARTER PANEL REAR, RH
6162528100 37.00$ EXTENSION, QUARTER PANEL, REAR RH 1923133011 2.23$ TERMINAL, DISTRIBUTOR 6162530080 12.08$ EXTENSION, QUARTER PANEL, INNER REAR RH 1923138011 2.02$ TERMINAL, DISTRIBUTOR
6162533030 9.83$ EXTENSION, QUARTER PANEL, REAR RH 1923510021 53.88$ HOUSING, DISTRIBUTOR 6162533050 13.82$ EXTENSION, QUARTER PANEL, INNER REAR RH 1923511050 55.55$ HOUSING, DISTRIBUTOR
6162533070 12.64$ EXTENSION, QUARTER PANEL, REAR RH 1923511080 54.95$ HOUSING, DISTRIBUTOR 6162536010 54.90$ PILLAR, NO.10 OUTER, UPPER LH 1923511090 89.83$ HOUSING, DISTRIBUTOR
6162536011 49.85$ PILLAR, NO.10 OUTER, UPPER LH 1923511100 93.78$ HOUSING, DISTRIBUTOR 6162542020 12.55$ EXTENSION, QUARTER PANEL, REAR RH 1923511200 93.78$ HOUSING, DISTRIBUTOR
6162542030 11.16$ EXTENSION, QUARTER PANEL, REAR RH 1923511340 55.38$ HOUSING, DISTRIBUTOR 6162548010 14.21$ EXTENSION SUB-ASSY, QUARTER PANEL, RH 1923513190 59.05$ HOUSING, DISTRIBUTOR
6162548020 26.81$ PANEL, REAR BODY REAR SIDE CORNER, RH 1923513550 82.63$ HOUSING, DISTRIBUTOR 1923516080 92.84$ РАСПРЕДЕЛИТЕЛЬ ЗАЖИГАНИЯ 6162552010 10.26$ EXTENSION, QUARTER PANEL, REAR RH
1923516090 59.15$ РАСПРЕДЕЛИТЕЛЬ ЗАЖИГАНИЯ 6162552050 20.05$ EXTENSION, QUARTER PANEL, UPPER RH 1923516110 59.15$ РАСПРЕДЕЛИТЕЛЬ ЗАЖИГАНИЯ 6162553020 12.52$ EXTENSION, QUARTER PANEL, REAR RH
1923516130 89.62$ РАСПРЕДЕЛИТЕЛЬ ЗАЖИГАНИЯ 6162560110 34.63$ КУЗОВНОЙ УСИЛИТЕЛЬ 6162560120 34.63$ EXTENSION, QUARTER PANEL, INNER REAR RH 1923516190 75.05$ РАСПРЕДЕЛИТЕЛЬ ЗАЖИГАНИЯ
1923516240 93.78$ РАСПРЕДЕЛИТЕЛЬ ЗАЖИГАНИЯ 6162595J01 27.45$ EXTENSION, QUARTER PANEL, INNER REAR RH 1923516250 93.38$ РАСПРЕДЕЛИТЕЛЬ ЗАЖИГАНИЯ 1923535010 60.22$ HOUSING, DISTRIBUTOR
1923542050 182.09$ HOUSING, DISTRIBUTOR 6162595J05 18.67$ EXTENSION, QUARTER PANEL, INNER REAR RH 1923562030 59.73$ HOUSING, DISTRIBUTOR 1923562040 62.89$ HOUSING, DISTRIBUTOR
6162613060 20.27$ КУЗОВНОЙ УСИЛИТЕЛЬ 6162620070 28.73$ EXTENSION, QUARTER PANEL, INNER REAR LH 6162628090 36.46$ EXTENSION, QUARTER PANEL, REAR LH 1923563090 93.78$ HOUSING, DISTRIBUTOR
6162630080 12.03$ EXTENSION, QUARTER PANEL, INNER REAR LH 6162633050 13.82$ EXTENSION, QUARTER PANEL, INNER REAR LH 6162633070 12.64$ EXTENSION, QUARTER PANEL, REAR LH 6162643010 5.41$ EXTENSION, QUARTER PANEL, REAR LH
6162647020 22.42$ EXTENSION, QUARTER PANEL, REAR LH 1923570160 93.78$ HOUSING, DISTRIBUTOR 6162648010 14.21$ КУЗОВНАЯ ПАНЕЛЬ 1923570170 93.89$ HOUSING, DISTRIBUTOR
6162648020 26.81$ PANEL, REAR BODY REAR SIDE CORNER, LH 1923571010 60.22$ HOUSING, DISTRIBUTOR 1923573080 92.84$ HOUSING, DISTRIBUTOR 6162650020 9.50$ EXTENSION, QUARTER PANEL, INNER REAR LH
1923574020 87.03$ РАСПРЕДЕЛИТЕЛЬ ЗАЖИГАНИЯ 6162650030 11.83$ EXTENSION, QUARTER PANEL, REAR LH 1923574050 84.54$ РАСПРЕДЕЛИТЕЛЬ ЗАЖИГАНИЯ 6162652010 10.26$ РАСШИРИТЕЛЬ КРЫЛА
1923574060 93.78$ РАСПРЕДЕЛИТЕЛЬ ЗАЖИГАНИЯ 6162653020 12.52$ EXTENSION, QUARTER PANEL, REAR LH 1923574090 57.09$ РАСПРЕДЕЛИТЕЛЬ ЗАЖИГАНИЯ 1923574110 93.05$ РАСПРЕДЕЛИТЕЛЬ ЗАЖИГАНИЯ
1923574130 93.99$ РАСПРЕДЕЛИТЕЛЬ ЗАЖИГАНИЯ 6162712070 7.11$ EXTENSION, QUARTER PANEL, UPPER REAR RH 1923574200 93.47$ РАСПРЕДЕЛИТЕЛЬ ЗАЖИГАНИЯ 6162733010 11.59$ EXTENSION, QUARTER PANEL, REAR LOWER RH
6162733900 23.59$ EXTENSION, QUARTER PANEL, REAR LOWER RH 6162743010 40.32$ EXTENSION, QUARTER PANEL, REAR LOWER RH 1923575011 57.09$ HOUSING, DISTRIBUTOR 6162743020 32.16$ EXTENSION, QUARTER PANEL, REAR LOWER RH
1923575030 86.31$ HOUSING, DISTRIBUTOR 6162748030 11.09$ УДЛИНИТЕЛЬ QUARTER PANEL UPPER ЗАДН. RH 6162748901 31.23$ EXTENSION, QUARTER PANEL, UPPER REAR RH 6162753010 10.48$ EXTENSION, QUARTER PANEL, UPPER REAR RH
6162768010 23.70$ EXTENSION, QUARTER PANEL, REAR LOWER RH 6162812090 7.11$ EXTENSION, QUARTER PANEL, UPPER REAR LH 1924215180 3.95$ CLAMP, CORD, NO.2 6162821040 15.45$ EXTENSION, QUARTER PANEL, REAR LOWER LH
1925013030 39.27$ GENERATOR ASSY, SIGNAL 6162823020 25.09$ EXTENSION, QUARTER PANEL, LOWER LH 1925013120 37.71$ GENERATOR ASSY, SIGNAL 6162833010 11.59$ EXTENSION, QUARTER PANEL, REAR LOWER LH
6162833900 23.59$ EXTENSION, QUARTER PANEL, REAR LOWER LH 6162842040 1.72$ КРОНШТЕЙН КУЗОВНОЙ 1925035240 40.32$ GENERATOR ASSY, SIGNAL 6162842050 6.36$ КРОНШТЕЙН КУЗОВНОЙ
1925038270 51.77$ GENERATOR ASSY, SIGNAL 6162848901 31.23$ EXTENSION, QUARTER PANEL, UPPER REAR LH 1925043150 53.94$ GENERATOR ASSY, SIGNAL 6162928030 24.02$ REINFORCEMENT, QUARTER PANEL, LH
1925045150 49.52$ GENERATOR ASSY, SIGNAL 6162942010 2.62$ КРОНШТЕЙН КУЗОВНОЙ 6163102030 55.65$ КУЗОВНАЯ ПАНЕЛЬ 1925070050 40.53$ GENERATOR ASSY, SIGNAL
6163107010 55.86$ PANEL, QUARTER WHEEL HOUSE, OUTER RH 1925070170 30.89$ GENERATOR ASSY, SIGNAL 6163112210 55.65$ КУЗОВНАЯ ПАНЕЛЬ 1925073010 36.47$ GENERATOR ASSY, SIGNAL
6163112300 55.65$ КУЗОВНАЯ ПАНЕЛЬ 6163112320 51.81$ КУЗОВНАЯ ПАНЕЛЬ 6163112360 55.54$ КУЗОВНАЯ ПАНЕЛЬ 1930016011 226.37$ SENSOR ASSY, CAM POSITION
1930042010 266.29$ SENSOR ASSY, CAM POSITION 6163114180 72.19$ PANEL, QUARTER WHEEL HOUSE, OUTER RH 6163116150 44.82$ PANEL, QUARTER WHEEL HOUSE, OUTER RH 6163116170 33.12$ PANEL, QUARTER WHEEL HOUSE, OUTER RH
1930070012 202.09$ SENSOR ASSY, CAM POSITION 6163120270 63.62$ PANEL, QUARTER WHEEL HOUSE, OUTER RH 6163121040 44.39$ PANEL, QUARTER WHEEL HOUSE, OUTER RH 1931178010 9.04$ SENSOR, CRANK POSITION
6163124040 55.49$ PANEL, QUARTER WHEEL HOUSE, OUTER RH 1931197401 41.37$ ДАТЧИК ПОЛОЖЕНИЯ КОЛЕНВАЛА 6163128050 36.76$ PANEL, QUARTER WHEEL HOUSE, OUTER RH 6163128070 44.39$ PANEL, QUARTER WHEEL HOUSE, OUTER RH
6163130100 45.25$ PANEL, QUARTER WHEEL HOUSE, OUTER RH 6163130150 55.65$ PANEL, QUARTER WHEEL HOUSE, OUTER RH 6163130160 69.84$ PANEL, QUARTER WHEEL HOUSE, OUTER RH 1931537010 4.88$ PLATE, CRANK ANGLE SENSOR, NO.1
6163133010 55.40$ ПОДКРЫЛОК 6163133050 79.63$ ПОДКРЫЛОК 6163133080 63.54$ АРКА КОЛЕСНАЯ 6163142050 48.89$ КУЗОВНАЯ ПАНЕЛЬ
6163143010 57.14$ PANEL, QUARTER WHEEL HOUSE, OUTER RH 1950074020 56.37$ КАТУШКА ЗАЖИГАНИЯ 6163143012 45.89$ PANEL, QUARTER WHEEL HOUSE, OUTER RH 1950074030 57.51$ КАТУШКА ЗАЖИГАНИЯ
6163148010 92.51$ КУЗОВНАЯ ПАНЕЛЬ 1950074040 56.20$ КАТУШКА ЗАЖИГАНИЯ 6163148030 73.99$ КУЗОВНАЯ ПАНЕЛЬ 1950074050 55.68$ КАТУШКА ЗАЖИГАНИЯ
6163148060 63.68$ PANEL, QUARTER WHEEL HOUSE, OUTER RH 1950074070 55.68$ КАТУШКА ЗАЖИГАНИЯ 6163148904 73.93$ PANEL, QUARTER WHEEL HOUSE, OUTER RH 6163150010 79.63$ ПОДКРЫЛОК
6163150020 69.98$ ПОДКРЫЛОК 1950074120 74.24$ КАТУШКА ЗАЖИГАНИЯ 1950087101 67.60$ КАТУШКА ЗАЖИГАНИЯ 1950942010 46.01$ COVER, IGNITION COIL
1951842010 27.56$ WIRE, IGNITION COIL 1951970020 11.09$ COVER, IGNITION COIL 6163152903 44.39$ КУЗОВНАЯ ПАНЕЛЬ 6163153010 69.84$ PANEL, QUARTER WHEEL HOUSE, OUTER RH
1953174020 2.09$ КОЛПАЧОК ПЛАСТИКОВЫЙ 6163153040 55.49$ PANEL, QUARTER WHEEL HOUSE, OUTER RH 6163160050 55.65$ КУЗОВНАЯ ПАНЕЛЬ 1953274010 2.00$ HOLDER, RESISTIVE CODE, NO.2
6163160901 73.98$ КУЗОВНАЯ ПАНЕЛЬ 6163160902 49.00$ КУЗОВНАЯ ПАНЕЛЬ 1953911020 1.92$ HOLDER, RESISTIVE CODE, NO.4 1953911030 1.68$ КОЛПАЧОК ЗАЩИТНЫЙ ПЛАСТИКОВЫЙ
6163160919 50.80$ PANEL, QUARTER WHEEL HOUSE, OUTER RH 6163168010 44.39$ PANEL, QUARTER WHEEL HOUSE, OUTER RH 6163189102 54.90$ PANEL, QUARTER WHEEL HOUSE, OUTER RH 6163190A03